Darstellungsparameter: Aktuell verwendete Einstellungen:
Skalierung der Graphiken ... ?
xyx+y,   Skalierungsfaktor:      Skalierung: Modus: x, Faktor: 1
Darstellungszeitraum ... ?
Vom - - bis: - -   Zeitraum: 06.08.2019 - 05.09.2019
Min/Max/Avg-Anzeige ... ?
Zeige MMA aktuell
Zeige MMA Monat
Zeige MMA alles
Zeige --A aktuell
Zeige --A Monat
Zeige --A alles
Keine MMA-Anzeige
MMA:
Average (ber die Originaldaten)
MMA-Basis: 23.02.2003 - 06.09.2019
Quicknavigation für Darstellung... ?
Tage:      1T, 2T, 3T, 5T -1T -2T -3T -5T +1T +2T +3T +5T
Wochen: 1W, 2W, 3W -1W -2W -3W +1W +2W +3W
Monate: 1M, 3M, 6M -1M -3M -6M +1M +3M +6M
Jahre:    1J, 3J, 5J, 10J -1J -3J -5J -10J +1J +3J +5J +10J
Nutze für die Darstellung ... ?
Originaldaten oder Mittelwerte auf ...
Stundenbasis Tagesbasis Wochenbasis
Monatsbasis Jahresbasis      Datenbasis: Original-Daten
Darstellen als:
Statistik (Auto) Statistik J:M      Darstellung:
Zur Graphik,    zurück zur Übersicht aller Sensoren.
 
Tabellarische Datenbersicht: ?
 
Sensor: Nr:Datum:Temp:Feuchte:Taupunkt:
Aussen-T/F 1 06-08-2019 00:00:00 18.4 C 77 % 14.3 C
2 06-08-2019 00:05:00 18.3 C 77 % 14.2 C
3 06-08-2019 00:10:00 18.2 C 77 % 14.1 C
4 06-08-2019 00:15:00 18.2 C 77 % 14.1 C
5 06-08-2019 00:20:00 18.1 C 78 % 14.21 C
6 06-08-2019 00:25:00 18.1 C 78 % 14.21 C
7 06-08-2019 00:30:00 18 C 79 % 14.31 C
8 06-08-2019 00:35:00 17.9 C 79 % 14.21 C
9 06-08-2019 00:40:00 17.8 C 78 % 13.91 C
10 06-08-2019 00:45:00 17.8 C 79 % 14.11 C
11 06-08-2019 00:50:00 17.7 C 80 % 14.21 C
12 06-08-2019 00:55:00 17.6 C 80 % 14.11 C
13 06-08-2019 01:00:00 17.4 C 80 % 13.92 C
14 06-08-2019 01:05:00 17.3 C 81 % 14.01 C
15 06-08-2019 01:10:00 17.3 C 81 % 14.01 C
16 06-08-2019 01:15:00 17.2 C 81 % 13.91 C
17 06-08-2019 01:20:00 17.2 C 81 % 13.91 C
18 06-08-2019 01:25:00 17.1 C 81 % 13.82 C
19 06-08-2019 01:30:00 17.1 C 82 % 14 C
20 06-08-2019 01:35:00 17.1 C 82 % 14 C
21 06-08-2019 01:40:00 16.9 C 82 % 13.81 C
22 06-08-2019 01:45:00 16.9 C 82 % 13.81 C
23 06-08-2019 01:50:00 16.9 C 82 % 13.81 C
24 06-08-2019 01:55:00 16.9 C 82 % 13.81 C
25 06-08-2019 02:00:00 16.8 C 82 % 13.71 C
Sensor: Nr:Datum:Temp:Feuchte:Taupunkt:
Aussen-T/F 26 06-08-2019 02:05:00 16.7 C 83 % 13.8 C
27 06-08-2019 02:10:00 16.7 C 83 % 13.8 C
28 06-08-2019 02:15:00 16.7 C 83 % 13.8 C
29 06-08-2019 02:20:00 16.7 C 84 % 13.98 C
30 06-08-2019 02:25:00 16.8 C 84 % 14.08 C
31 06-08-2019 02:30:00 17 C 83 % 14.09 C
32 06-08-2019 02:35:00 17.2 C 83 % 14.29 C
33 06-08-2019 02:40:00 17.3 C 82 % 14.2 C
34 06-08-2019 02:45:00 17.4 C 82 % 14.3 C
35 06-08-2019 02:50:00 17.4 C 83 % 14.48 C
36 06-08-2019 02:55:00 17.4 C 83 % 14.48 C
37 06-08-2019 03:00:00 17.4 C 83 % 14.48 C
38 06-08-2019 03:05:00 17.4 C 83 % 14.48 C
39 06-08-2019 03:10:00 17.5 C 83 % 14.58 C
40 06-08-2019 03:15:00 17.5 C 83 % 14.58 C
41 06-08-2019 03:20:00 17.5 C 83 % 14.58 C
42 06-08-2019 03:25:00 17.5 C 83 % 14.58 C
43 06-08-2019 03:30:00 17.4 C 83 % 14.48 C
44 06-08-2019 03:35:00 17.4 C 83 % 14.48 C
45 06-08-2019 03:40:00 17.4 C 84 % 14.67 C
46 06-08-2019 03:45:00 17.4 C 83 % 14.48 C
47 06-08-2019 03:50:00 17.5 C 83 % 14.58 C
48 06-08-2019 03:55:00 17.6 C 83 % 14.68 C
49 06-08-2019 04:00:00 17.6 C 83 % 14.68 C
50 06-08-2019 04:05:00 17.5 C 83 % 14.58 C
Sensor: Nr:Datum:Temp:Feuchte:Taupunkt:
Aussen-T/F 51 06-08-2019 04:10:00 17.5 C 83 % 14.58 C
52 06-08-2019 04:15:00 17.4 C 84 % 14.67 C
53 06-08-2019 04:20:00 17.3 C 84 % 14.57 C
54 06-08-2019 04:25:00 17.3 C 83 % 14.39 C
55 06-08-2019 04:30:00 17.2 C 83 % 14.29 C
56 06-08-2019 04:35:00 17.1 C 84 % 14.38 C
57 06-08-2019 04:40:00 16.9 C 84 % 14.18 C
58 06-08-2019 04:45:00 16.9 C 85 % 14.36 C
59 06-08-2019 04:50:00 16.9 C 85 % 14.36 C
60 06-08-2019 04:55:00 16.9 C 85 % 14.36 C
61 06-08-2019 05:00:00 16.8 C 85 % 14.26 C
62 06-08-2019 05:05:00 16.8 C 85 % 14.26 C
63 06-08-2019 05:10:00 16.7 C 85 % 14.17 C
64 06-08-2019 05:15:00 16.6 C 85 % 14.07 C
65 06-08-2019 05:20:00 16.6 C 86 % 14.25 C
66 06-08-2019 05:25:00 16.6 C 86 % 14.25 C
67 06-08-2019 05:30:00 16.6 C 86 % 14.25 C
68 06-08-2019 05:35:00 16.6 C 86 % 14.25 C
69 06-08-2019 05:40:00 16.6 C 86 % 14.25 C
70 06-08-2019 05:45:00 16.5 C 86 % 14.15 C
71 06-08-2019 05:50:00 16.5 C 86 % 14.15 C
72 06-08-2019 05:55:00 16.4 C 86 % 14.05 C
73 06-08-2019 06:00:00 16.3 C 86 % 13.95 C
74 06-08-2019 06:05:00 16.3 C 87 % 14.13 C
75 06-08-2019 06:10:00 16.3 C 87 % 14.13 C
Sensor: Nr:Datum:Temp:Feuchte:Taupunkt:
Aussen-T/F 76 06-08-2019 06:15:00 16.4 C 87 % 14.23 C
77 06-08-2019 06:20:00 16.5 C 87 % 14.33 C
78 06-08-2019 06:25:00 16.6 C 87 % 14.43 C
79 06-08-2019 06:30:00 16.7 C 87 % 14.53 C
80 06-08-2019 06:35:00 16.8 C 87 % 14.62 C
81 06-08-2019 06:40:00 16.9 C 86 % 14.54 C
82 06-08-2019 06:45:00 17 C 86 % 14.64 C
83 06-08-2019 06:50:00 17.1 C 86 % 14.74 C
84 06-08-2019 06:55:00 17.1 C 86 % 14.74 C
85 06-08-2019 07:00:00 17.2 C 86 % 14.84 C
86 06-08-2019 07:05:00 17.3 C 85 % 14.76 C
87 06-08-2019 07:10:00 17.5 C 84 % 14.77 C
88 06-08-2019 07:15:00 17.7 C 83 % 14.78 C
89 06-08-2019 07:20:00 17.8 C 83 % 14.88 C
90 06-08-2019 07:25:00 17.8 C 83 % 14.88 C
91 06-08-2019 07:30:00 17.9 C 83 % 14.97 C
92 06-08-2019 07:35:00 18 C 83 % 15.07 C
93 06-08-2019 07:40:00 18.1 C 83 % 15.17 C
94 06-08-2019 07:45:00 18.2 C 82 % 15.08 C
95 06-08-2019 07:50:00 18.2 C 82 % 15.08 C
96 06-08-2019 07:55:00 18.3 C 82 % 15.17 C
97 06-08-2019 08:00:00 18.3 C 82 % 15.17 C
98 06-08-2019 08:05:00 18.4 C 82 % 15.27 C
99 06-08-2019 08:10:00 18.4 C 81 % 15.08 C
100 06-08-2019 08:15:00 18.5 C 81 % 15.18 C
Sensor: Nr:Datum:Temp:Feuchte:Taupunkt:
Aussen-T/F 101 06-08-2019 08:20:00 18.6 C 81 % 15.28 C
102 06-08-2019 08:25:00 18.6 C 81 % 15.28 C
103 06-08-2019 08:30:00 18.7 C 81 % 15.37 C
104 06-08-2019 08:35:00 18.8 C 81 % 15.47 C
105 06-08-2019 08:40:00 18.8 C 81 % 15.47 C
106 06-08-2019 08:45:00 18.9 C 81 % 15.57 C
107 06-08-2019 08:50:00 19 C 81 % 15.67 C
108 06-08-2019 08:55:00 19.1 C 80 % 15.57 C
109 06-08-2019 09:00:00 19.3 C 79 % 15.57 C
110 06-08-2019 09:05:00 19.4 C 79 % 15.66 C
111 06-08-2019 09:10:00 19.7 C 78 % 15.76 C
112 06-08-2019 09:15:00 19.8 C 77 % 15.65 C
113 06-08-2019 09:20:00 19.9 C 76 % 15.54 C
114 06-08-2019 09:25:00 20.1 C 77 % 15.94 C
115 06-08-2019 09:30:00 20.1 C 77 % 15.94 C
116 06-08-2019 09:35:00 20.3 C 76 % 15.93 C
117 06-08-2019 09:40:00 20.4 C 76 % 16.03 C
118 06-08-2019 09:45:00 20.6 C 75 % 16.01 C
119 06-08-2019 09:50:00 20.8 C 74 % 16 C
120 06-08-2019 09:55:00 20.8 C 74 % 16 C
121 06-08-2019 10:00:00 20.8 C 73 % 15.78 C
122 06-08-2019 10:05:00 20.7 C 77 % 16.52 C
123 06-08-2019 10:10:00 20.6 C 80 % 17.03 C
124 06-08-2019 10:15:00 20.4 C 81 % 17.03 C
125 06-08-2019 10:20:00 20.2 C 83 % 17.22 C
Sensor: Nr:Datum:Temp:Feuchte:Taupunkt:
Aussen-T/F 126 06-08-2019 10:25:00 19.9 C 84 % 17.12 C
127 06-08-2019 10:30:00 19.7 C 86 % 17.29 C
128 06-08-2019 10:35:00 19.6 C 87 % 17.38 C
129 06-08-2019 10:40:00 19.4 C 88 % 17.36 C
130 06-08-2019 10:45:00 19.3 C 88 % 17.26 C
131 06-08-2019 10:50:00 19.2 C 89 % 17.34 C
132 06-08-2019 10:55:00 19.2 C 89 % 17.34 C
133 06-08-2019 11:00:00 19.2 C 89 % 17.34 C
134 06-08-2019 11:05:00 19.2 C 89 % 17.34 C
135 06-08-2019 11:10:00 19.2 C 89 % 17.34 C
136 06-08-2019 11:15:00 19.3 C 90 % 17.62 C
137 06-08-2019 11:20:00 19.4 C 90 % 17.72 C
138 06-08-2019 11:25:00 19.6 C 90 % 17.91 C
139 06-08-2019 11:30:00 19.6 C 90 % 17.91 C
140 06-08-2019 11:35:00 19.7 C 89 % 17.84 C
141 06-08-2019 11:40:00 19.9 C 89 % 18.03 C
142 06-08-2019 11:45:00 20.1 C 89 % 18.23 C
143 06-08-2019 11:50:00 20.2 C 88 % 18.15 C
144 06-08-2019 11:55:00 20.4 C 88 % 18.34 C
145 06-08-2019 12:00:00 20.6 C 87 % 18.36 C
146 06-08-2019 12:05:00 20.7 C 86 % 18.27 C
147 06-08-2019 12:10:00 20.8 C 87 % 18.56 C
148 06-08-2019 12:15:00 21 C 84 % 18.19 C
149 06-08-2019 12:20:00 21.2 C 83 % 18.2 C
150 06-08-2019 12:25:00 21.3 C 82 % 18.1 C
Sensor: Nr:Datum:Temp:Feuchte:Taupunkt:
Aussen-T/F 151 06-08-2019 12:30:00 21.4 C 80 % 17.81 C
152 06-08-2019 12:35:00 21.6 C 80 % 18 C
153 06-08-2019 12:40:00 21.7 C 80 % 18.1 C
154 06-08-2019 12:45:00 21.8 C 80 % 18.2 C
155 06-08-2019 12:50:00 21.8 C 79 % 18 C
156 06-08-2019 12:55:00 21.9 C 79 % 18.09 C
157 06-08-2019 13:00:00 21.9 C 78 % 17.89 C
158 06-08-2019 13:05:00 22 C 78 % 17.99 C
159 06-08-2019 13:10:00 22.1 C 78 % 18.08 C
160 06-08-2019 13:15:00 22.2 C 79 % 18.38 C
161 06-08-2019 13:20:00 22.3 C 79 % 18.48 C
162 06-08-2019 13:25:00 22.3 C 78 % 18.28 C
163 06-08-2019 13:30:00 22.3 C 77 % 18.07 C
164 06-08-2019 13:35:00 22.3 C 79 % 18.48 C
165 06-08-2019 13:40:00 22.4 C 76 % 17.96 C
166 06-08-2019 13:45:00 22.6 C 77 % 18.36 C
167 06-08-2019 13:50:00 22.7 C 76 % 18.25 C
168 06-08-2019 13:55:00 22.8 C 74 % 17.92 C
169 06-08-2019 14:00:00 23.1 C 73 % 17.99 C
170 06-08-2019 14:05:00 23.2 C 72 % 17.87 C
171 06-08-2019 14:10:00 23.2 C 72 % 17.87 C
172 06-08-2019 14:15:00 23.3 C 71 % 17.75 C
173 06-08-2019 14:20:00 23.4 C 71 % 17.84 C
174 06-08-2019 14:25:00 23.5 C 69 % 17.48 C
175 06-08-2019 14:30:00 23.6 C 68 % 17.35 C
Sensor: Nr:Datum:Temp:Feuchte:Taupunkt:
Aussen-T/F 176 06-08-2019 14:35:00 23.7 C 70 % 17.9 C
177 06-08-2019 14:40:00 23.9 C 69 % 17.87 C
178 06-08-2019 14:45:00 24.1 C 68 % 17.82 C
179 06-08-2019 14:50:00 24.2 C 67 % 17.68 C
180 06-08-2019 14:55:00 24.2 C 68 % 17.92 C
181 06-08-2019 15:00:00 24.3 C 65 % 17.3 C
182 06-08-2019 15:05:00 24.4 C 65 % 17.39 C
183 06-08-2019 15:10:00 24.5 C 65 % 17.49 C
184 06-08-2019 15:15:00 24.4 C 67 % 17.87 C
185 06-08-2019 15:20:00 24.6 C 66 % 17.83 C
186 06-08-2019 15:25:00 24.8 C 66 % 18.01 C
187 06-08-2019 15:30:00 24.8 C 65 % 17.77 C
188 06-08-2019 15:35:00 24.9 C 65 % 17.87 C
189 06-08-2019 15:40:00 25 C 63 % 17.47 C
190 06-08-2019 15:45:00 25 C 63 % 17.47 C
191 06-08-2019 15:50:00 24.9 C 64 % 17.62 C
192 06-08-2019 15:55:00 25.1 C 63 % 17.56 C
193 06-08-2019 16:00:00 25.2 C 63 % 17.65 C
194 06-08-2019 16:05:00 25.2 C 63 % 17.65 C
195 06-08-2019 16:10:00 25.3 C 63 % 17.75 C
196 06-08-2019 16:15:00 25.4 C 62 % 17.59 C
197 06-08-2019 16:20:00 25.2 C 63 % 17.65 C
198 06-08-2019 16:25:00 25.3 C 62 % 17.5 C
199 06-08-2019 16:30:00 25.4 C 62 % 17.59 C
200 06-08-2019 16:35:00 25.4 C 62 % 17.59 C
Sensor: Nr:Datum:Temp:Feuchte:Taupunkt:
Aussen-T/F 201 06-08-2019 16:40:00 25.4 C 62 % 17.59 C
202 06-08-2019 16:45:00 25.4 C 61 % 17.33 C
203 06-08-2019 16:50:00 25.6 C 61 % 17.52 C
204 06-08-2019 16:55:00 25.9 C 59 % 17.27 C
205 06-08-2019 17:00:00 26.2 C 59 % 17.55 C
206 06-08-2019 17:05:00 26.4 C 58 % 17.47 C
207 06-08-2019 17:10:00 26.4 C 59 % 17.74 C
208 06-08-2019 17:15:00 26.6 C 57 % 17.38 C
209 06-08-2019 17:20:00 26.8 C 57 % 17.57 C
210 06-08-2019 17:25:00 26.8 C 57 % 17.57 C
211 06-08-2019 17:30:00 26.7 C 56 % 17.19 C
212 06-08-2019 17:35:00 26.4 C 55 % 16.63 C
213 06-08-2019 17:40:00 26.1 C 58 % 17.19 C
214 06-08-2019 17:45:00 26 C 58 % 17.1 C
215 06-08-2019 17:50:00 26.2 C 59 % 17.55 C
216 06-08-2019 17:55:00 26.2 C 57 % 17.01 C
217 06-08-2019 18:00:00 26.2 C 58 % 17.28 C
218 06-08-2019 18:05:00 26 C 58 % 17.1 C
219 06-08-2019 18:10:00 25.7 C 59 % 17.09 C
220 06-08-2019 18:15:00 25.4 C 60 % 17.07 C
221 06-08-2019 18:20:00 25.3 C 61 % 17.24 C
222 06-08-2019 18:25:00 25.2 C 60 % 16.88 C
223 06-08-2019 18:30:00 25.1 C 62 % 17.31 C
224 06-08-2019 18:35:00 24.9 C 61 % 16.86 C
225 06-08-2019 18:40:00 24.8 C 62 % 17.02 C
Sensor: Nr:Datum:Temp:Feuchte:Taupunkt:
Aussen-T/F 226 06-08-2019 18:45:00 24.7 C 65 % 17.68 C
227 06-08-2019 18:50:00 24.7 C 68 % 18.4 C
228 06-08-2019 18:55:00 24.5 C 68 % 18.2 C
229 06-08-2019 19:00:00 24.3 C 70 % 18.48 C
230 06-08-2019 19:05:00 23.9 C 70 % 18.09 C
231 06-08-2019 19:10:00 23.7 C 72 % 18.35 C
232 06-08-2019 19:15:00 23.4 C 73 % 18.28 C
233 06-08-2019 19:20:00 23.1 C 74 % 18.21 C
234 06-08-2019 19:25:00 22.8 C 75 % 18.14 C
235 06-08-2019 19:30:00 22.5 C 75 % 17.85 C
236 06-08-2019 19:35:00 22.3 C 77 % 18.07 C
237 06-08-2019 19:40:00 22 C 81 % 18.59 C
238 06-08-2019 19:45:00 21.4 C 82 % 18.2 C
239 06-08-2019 19:50:00 20.8 C 85 % 18.18 C
240 06-08-2019 19:55:00 20.3 C 87 % 18.06 C
241 06-08-2019 20:00:00 20 C 89 % 18.13 C
242 06-08-2019 20:05:00 19.8 C 89 % 17.93 C
243 06-08-2019 20:10:00 19.7 C 89 % 17.84 C
244 06-08-2019 20:15:00 19.4 C 90 % 17.72 C
245 06-08-2019 20:20:00 19.2 C 89 % 17.34 C
246 06-08-2019 20:25:00 19 C 90 % 17.32 C
247 06-08-2019 20:30:00 18.8 C 91 % 17.3 C
248 06-08-2019 20:35:00 18.7 C 91 % 17.2 C
249 06-08-2019 20:40:00 18.7 C 91 % 17.2 C
250 06-08-2019 20:45:00 18.6 C 92 % 17.27 C
Sensor: Nr:Datum:Temp:Feuchte:Taupunkt:
Aussen-T/F 251 06-08-2019 20:50:00 18.4 C 92 % 17.08 C
252 06-08-2019 20:55:00 18.3 C 92 % 16.98 C
253 06-08-2019 21:00:00 18.2 C 92 % 16.88 C
254 06-08-2019 21:05:00 18.2 C 93 % 17.05 C
255 06-08-2019 21:10:00 18.2 C 93 % 17.05 C
256 06-08-2019 21:15:00 18.1 C 93 % 16.95 C
257 06-08-2019 21:20:00 18.1 C 93 % 16.95 C
258 06-08-2019 21:25:00 18 C 93 % 16.85 C
259 06-08-2019 21:30:00 18 C 93 % 16.85 C
260 06-08-2019 21:35:00 18 C 93 % 16.85 C
261 06-08-2019 21:40:00 17.9 C 93 % 16.75 C
262 06-08-2019 21:45:00 17.9 C 94 % 16.92 C
263 06-08-2019 21:50:00 17.8 C 94 % 16.82 C
264 06-08-2019 21:55:00 17.7 C 94 % 16.72 C
265 06-08-2019 22:00:00 17.7 C 94 % 16.72 C
266 06-08-2019 22:05:00 17.7 C 94 % 16.72 C
267 06-08-2019 22:10:00 17.7 C 94 % 16.72 C
268 06-08-2019 22:15:00 17.6 C 94 % 16.62 C
269 06-08-2019 22:20:00 17.6 C 94 % 16.62 C
270 06-08-2019 22:25:00 17.6 C 94 % 16.62 C
271 06-08-2019 22:30:00 17.5 C 94 % 16.52 C
272 06-08-2019 22:35:00 17.4 C 94 % 16.42 C
273 06-08-2019 22:40:00 17.4 C 94 % 16.42 C
274 06-08-2019 22:45:00 17.4 C 94 % 16.42 C
275 06-08-2019 22:50:00 17.3 C 94 % 16.33 C
Sensor: Nr:Datum:Temp:Feuchte:Taupunkt:
Aussen-T/F 276 06-08-2019 22:55:00 17.3 C 94 % 16.33 C
277 06-08-2019 23:00:00 17.3 C 94 % 16.33 C
278 06-08-2019 23:05:00 17.2 C 95 % 16.39 C
279 06-08-2019 23:10:00 17.2 C 95 % 16.39 C
280 06-08-2019 23:15:00 17.2 C 95 % 16.39 C
281 06-08-2019 23:20:00 17.2 C 95 % 16.39 C
282 06-08-2019 23:25:00 17.1 C 95 % 16.29 C
283 06-08-2019 23:30:00 17.1 C 95 % 16.29 C
284 06-08-2019 23:35:00 17 C 95 % 16.19 C
285 06-08-2019 23:40:00 17 C 95 % 16.19 C
286 06-08-2019 23:45:00 16.9 C 95 % 16.09 C
287 06-08-2019 23:50:00 16.9 C 95 % 16.09 C
288 06-08-2019 23:55:00 16.9 C 95 % 16.09 C
289 07-08-2019 00:00:00 16.8 C 95 % 15.99 C
290 07-08-2019 00:05:00 16.7 C 95 % 15.9 C
291 07-08-2019 00:10:00 16.7 C 95 % 15.9 C
292 07-08-2019 00:15:00 16.6 C 95 % 15.8 C
293 07-08-2019 00:20:00 16.6 C 95 % 15.8 C
294 07-08-2019 00:25:00 16.7 C 95 % 15.9 C
295 07-08-2019 00:30:00 16.7 C 95 % 15.9 C
296 07-08-2019 00:35:00 16.7 C 95 % 15.9 C
297 07-08-2019 00:40:00 16.7 C 95 % 15.9 C
298 07-08-2019 00:45:00 16.7 C 95 % 15.9 C
299 07-08-2019 00:50:00 16.7 C 95 % 15.9 C
300 07-08-2019 00:55:00 16.6 C 95 % 15.8 C
Sensor: Nr:Datum:Temp:Feuchte:Taupunkt:
Aussen-T/F 301 07-08-2019 01:00:00 16.5 C 95 % 15.7 C
302 07-08-2019 01:05:00 16.4 C 95 % 15.6 C
303 07-08-2019 01:10:00 16.3 C 95 % 15.5 C
304 07-08-2019 01:15:00 16.3 C 95 % 15.5 C
305 07-08-2019 01:20:00 16.2 C 95 % 15.4 C
306 07-08-2019 01:25:00 16.2 C 95 % 15.4 C
307 07-08-2019 01:30:00 16.2 C 96 % 15.56 C
308 07-08-2019 01:35:00 16.2 C 96 % 15.56 C
309 07-08-2019 01:40:00 16.3 C 96 % 15.66 C
310 07-08-2019 01:45:00 16.3 C 96 % 15.66 C
311 07-08-2019 01:50:00 16.3 C 96 % 15.66 C
312 07-08-2019 01:55:00 16.4 C 96 % 15.76 C
313 07-08-2019 02:00:00 16.4 C 96 % 15.76 C
314 07-08-2019 02:05:00 16.5 C 96 % 15.86 C
315 07-08-2019 02:10:00 16.5 C 96 % 15.86 C
316 07-08-2019 02:15:00 16.5 C 96 % 15.86 C
317 07-08-2019 02:20:00 16.5 C 96 % 15.86 C
318 07-08-2019 02:25:00 16.5 C 96 % 15.86 C
319 07-08-2019 02:30:00 16.5 C 96 % 15.86 C
320 07-08-2019 02:35:00 16.5 C 96 % 15.86 C
321 07-08-2019 02:40:00 16.4 C 96 % 15.76 C
322 07-08-2019 02:45:00 16.4 C 96 % 15.76 C
323 07-08-2019 02:50:00 16.4 C 96 % 15.76 C
324 07-08-2019 02:55:00 16.4 C 96 % 15.76 C
325 07-08-2019 03:00:00 16.5 C 96 % 15.86 C
Sensor: Nr:Datum:Temp:Feuchte:Taupunkt:
Aussen-T/F 326 07-08-2019 03:05:00 16.5 C 96 % 15.86 C
327 07-08-2019 03:10:00 16.6 C 96 % 15.96 C
328 07-08-2019 03:15:00 16.6 C 96 % 15.96 C
329 07-08-2019 03:20:00 16.6 C 97 % 16.12 C
330 07-08-2019 03:25:00 16.6 C 97 % 16.12 C
331 07-08-2019 03:30:00 16.6 C 97 % 16.12 C
332 07-08-2019 03:35:00 16.6 C 96 % 15.96 C
333 07-08-2019 03:40:00 16.6 C 96 % 15.96 C
334 07-08-2019 03:45:00 16.6 C 96 % 15.96 C
335 07-08-2019 03:50:00 16.6 C 96 % 15.96 C
336 07-08-2019 03:55:00 16.6 C 96 % 15.96 C
337 07-08-2019 04:00:00 16.6 C 97 % 16.12 C
338 07-08-2019 04:05:00 16.6 C 97 % 16.12 C
339 07-08-2019 04:10:00 16.6 C 97 % 16.12 C
340 07-08-2019 04:15:00 16.6 C 97 % 16.12 C
341 07-08-2019 04:20:00 16.6 C 97 % 16.12 C
342 07-08-2019 04:25:00 16.6 C 97 % 16.12 C
343 07-08-2019 04:30:00 16.7 C 97 % 16.22 C
344 07-08-2019 04:35:00 16.6 C 97 % 16.12 C
345 07-08-2019 04:40:00 16.7 C 97 % 16.22 C
346 07-08-2019 04:45:00 16.7 C 97 % 16.22 C
347 07-08-2019 04:50:00 16.7 C 97 % 16.22 C
348 07-08-2019 04:55:00 16.6 C 97 % 16.12 C
349 07-08-2019 05:00:00 16.6 C 97 % 16.12 C
350 07-08-2019 05:05:00 16.6 C 97 % 16.12 C
Sensor: Nr:Datum:Temp:Feuchte:Taupunkt:
Aussen-T/F 351 07-08-2019 05:10:00 16.7 C 97 % 16.22 C
352 07-08-2019 05:15:00 16.6 C 97 % 16.12 C
353 07-08-2019 05:20:00 16.6 C 97 % 16.12 C
354 07-08-2019 05:25:00 16.7 C 97 % 16.22 C
355 07-08-2019 05:30:00 16.7 C 97 % 16.22 C
356 07-08-2019 05:35:00 16.7 C 97 % 16.22 C
357 07-08-2019 05:40:00 16.7 C 97 % 16.22 C
358 07-08-2019 05:45:00 16.7 C 97 % 16.22 C
359 07-08-2019 05:50:00 16.7 C 97 % 16.22 C
360 07-08-2019 05:55:00 16.7 C 97 % 16.22 C
361 07-08-2019 06:00:00 16.7 C 97 % 16.22 C
362 07-08-2019 06:05:00 16.8 C 97 % 16.32 C
363 07-08-2019 06:10:00 16.8 C 97 % 16.32 C
364 07-08-2019 06:15:00 16.8 C 97 % 16.32 C
365 07-08-2019 06:20:00 16.8 C 97 % 16.32 C
366 07-08-2019 06:25:00 16.8 C 97 % 16.32 C
367 07-08-2019 06:30:00 16.9 C 97 % 16.42 C
368 07-08-2019 06:35:00 16.9 C 97 % 16.42 C
369 07-08-2019 06:40:00 16.9 C 97 % 16.42 C
370 07-08-2019 06:45:00 17 C 97 % 16.52 C
371 07-08-2019 06:50:00 17 C 97 % 16.52 C
372 07-08-2019 06:55:00 17.1 C 97 % 16.62 C
373 07-08-2019 07:00:00 17.1 C 97 % 16.62 C
374 07-08-2019 07:05:00 17.1 C 97 % 16.62 C
375 07-08-2019 07:10:00 17.1 C 97 % 16.62 C
Sensor: Nr:Datum:Temp:Feuchte:Taupunkt:
Aussen-T/F 376 07-08-2019 07:15:00 17.2 C 97 % 16.72 C
377 07-08-2019 07:20:00 17.2 C 97 % 16.72 C
378 07-08-2019 07:25:00 17.2 C 97 % 16.72 C
379 07-08-2019 07:30:00 17.3 C 97 % 16.82 C
380 07-08-2019 07:35:00 17.3 C 97 % 16.82 C
381 07-08-2019 07:40:00 17.3 C 97 % 16.82 C
382 07-08-2019 07:45:00 17.4 C 97 % 16.92 C
383 07-08-2019 07:50:00 17.4 C 97 % 16.92 C
384 07-08-2019 07:55:00 17.4 C 97 % 16.92 C
385 07-08-2019 08:00:00 17.4 C 97 % 16.92 C
386 07-08-2019 08:05:00 17.4 C 97 % 16.92 C
387 07-08-2019 08:10:00 17.5 C 97 % 17.02 C
388 07-08-2019 08:15:00 17.6 C 97 % 17.12 C
389 07-08-2019 08:20:00 17.6 C 97 % 17.12 C
390 07-08-2019 08:25:00 17.7 C 97 % 17.22 C
391 07-08-2019 08:30:00 17.8 C 97 % 17.32 C
392 07-08-2019 08:35:00 17.9 C 97 % 17.42 C
393 07-08-2019 08:40:00 17.9 C 97 % 17.42 C
394 07-08-2019 08:45:00 18.1 C 97 % 17.62 C
395 07-08-2019 08:50:00 18.1 C 97 % 17.62 C
396 07-08-2019 08:55:00 18.1 C 97 % 17.62 C
397 07-08-2019 09:00:00 18.1 C 97 % 17.62 C
398 07-08-2019 09:05:00 18.1 C 97 % 17.62 C
399 07-08-2019 09:10:00 18 C 97 % 17.52 C
400 07-08-2019 09:15:00 18 C 97 % 17.52 C
Sensor: Nr:Datum:Temp:Feuchte:Taupunkt:
Aussen-T/F 401 07-08-2019 09:20:00 18.1 C 97 % 17.62 C
402 07-08-2019 09:25:00 18.2 C 97 % 17.72 C
403 07-08-2019 09:30:00 18.3 C 97 % 17.82 C
404 07-08-2019 09:35:00 18.3 C 97 % 17.82 C
405 07-08-2019 09:40:00 18.3 C 97 % 17.82 C
406 07-08-2019 09:45:00 18.4 C 97 % 17.91 C
407 07-08-2019 09:50:00 18.6 C 97 % 18.11 C
408 07-08-2019 09:55:00 18.6 C 97 % 18.11 C
409 07-08-2019 10:00:00 18.6 C 97 % 18.11 C
410 07-08-2019 10:05:00 18.7 C 97 % 18.21 C
411 07-08-2019 10:10:00 18.8 C 97 % 18.31 C
412 07-08-2019 10:15:00 19 C 97 % 18.51 C
413 07-08-2019 10:20:00 18.8 C 96 % 18.15 C
414 07-08-2019 10:25:00 18.8 C 96 % 18.15 C
415 07-08-2019 10:30:00 18.9 C 96 % 18.25 C
416 07-08-2019 10:35:00 19.1 C 96 % 18.45 C
417 07-08-2019 10:40:00 19.2 C 97 % 18.71 C
418 07-08-2019 10:45:00 19.2 C 96 % 18.55 C
419 07-08-2019 10:50:00 19.3 C 96 % 18.65 C
420 07-08-2019 10:55:00 19.2 C 96 % 18.55 C
421 07-08-2019 11:00:00 19.3 C 96 % 18.65 C
422 07-08-2019 11:05:00 19.5 C 96 % 18.84 C
423 07-08-2019 11:10:00 19.5 C 95 % 18.68 C
424 07-08-2019 11:15:00 19.6 C 95 % 18.78 C
425 07-08-2019 11:20:00 19.6 C 94 % 18.61 C
Sensor: Nr:Datum:Temp:Feuchte:Taupunkt:
Aussen-T/F 426 07-08-2019 11:25:00 19.6 C 94 % 18.61 C
427 07-08-2019 11:30:00 19.8 C 94 % 18.81 C
428 07-08-2019 11:35:00 19.8 C 92 % 18.46 C
429 07-08-2019 11:40:00 19.8 C 90 % 18.11 C
430 07-08-2019 11:45:00 19.9 C 92 % 18.56 C
431 07-08-2019 11:50:00 20.1 C 91 % 18.58 C
432 07-08-2019 11:55:00 20.2 C 88 % 18.15 C
433 07-08-2019 12:00:00 20.3 C 90 % 18.61 C
434 07-08-2019 12:05:00 20.3 C 85 % 17.7 C
435 07-08-2019 12:10:00 20.4 C 86 % 17.98 C
436 07-08-2019 12:15:00 20.6 C 86 % 18.18 C
437 07-08-2019 12:20:00 20.8 C 88 % 18.74 C
438 07-08-2019 12:25:00 20.9 C 86 % 18.47 C
439 07-08-2019 12:30:00 20.8 C 81 % 17.42 C
440 07-08-2019 12:35:00 20.9 C 84 % 18.09 C
441 07-08-2019 12:40:00 21.1 C 82 % 17.91 C
442 07-08-2019 12:45:00 21.2 C 81 % 17.81 C
443 07-08-2019 12:50:00 21.3 C 83 % 18.29 C
444 07-08-2019 12:55:00 21.4 C 82 % 18.2 C
445 07-08-2019 13:00:00 21.5 C 83 % 18.49 C
446 07-08-2019 13:05:00 21.5 C 79 % 17.7 C
447 07-08-2019 13:10:00 21.6 C 78 % 17.6 C
448 07-08-2019 13:15:00 21.8 C 84 % 18.97 C
449 07-08-2019 13:20:00 21.8 C 75 % 17.17 C
450 07-08-2019 13:25:00 21.8 C 76 % 17.38 C
Sensor: Nr:Datum:Temp:Feuchte:Taupunkt:
Aussen-T/F 451 07-08-2019 13:30:00 21.8 C 75 % 17.17 C
452 07-08-2019 13:35:00 21.9 C 72 % 16.62 C
453 07-08-2019 13:40:00 22 C 76 % 17.57 C
454 07-08-2019 13:45:00 22.1 C 72 % 16.82 C
455 07-08-2019 13:50:00 22.2 C 72 % 16.91 C
456 07-08-2019 13:55:00 22.3 C 74 % 17.44 C
457 07-08-2019 14:00:00 22.4 C 73 % 17.32 C
458 07-08-2019 14:05:00 22.6 C 76 % 18.15 C
459 07-08-2019 14:10:00 22.7 C 77 % 18.46 C
460 07-08-2019 14:15:00 22.7 C 78 % 18.67 C
461 07-08-2019 14:20:00 22.6 C 74 % 17.73 C
462 07-08-2019 14:25:00 22.4 C 76 % 17.96 C
463 07-08-2019 14:30:00 22.4 C 76 % 17.96 C
464 07-08-2019 14:35:00 22.4 C 76 % 17.96 C
465 07-08-2019 14:40:00 22.4 C 76 % 17.96 C
466 07-08-2019 14:45:00 22.5 C 75 % 17.85 C
467 07-08-2019 14:50:00 22.6 C 73 % 17.51 C
468 07-08-2019 14:55:00 22.6 C 74 % 17.73 C
469 07-08-2019 15:00:00 22.6 C 74 % 17.73 C
470 07-08-2019 15:05:00 22.7 C 73 % 17.61 C
471 07-08-2019 15:10:00 22.7 C 72 % 17.39 C
472 07-08-2019 15:15:00 22.7 C 74 % 17.83 C
473 07-08-2019 15:20:00 22.7 C 74 % 17.83 C
474 07-08-2019 15:25:00 22.7 C 73 % 17.61 C
475 07-08-2019 15:30:00 22.6 C 73 % 17.51 C
Sensor: Nr:Datum:Temp:Feuchte:Taupunkt:
Aussen-T/F 476 07-08-2019 15:35:00 22.6 C 73 % 17.51 C
477 07-08-2019 15:40:00 22.6 C 73 % 17.51 C
478 07-08-2019 15:45:00 22.5 C 71 % 16.98 C
479 07-08-2019 15:50:00 22.4 C 73 % 17.32 C
480 07-08-2019 15:55:00 22.3 C 72 % 17.01 C
481 07-08-2019 16:00:00 22.3 C 72 % 17.01 C
482 07-08-2019 16:05:00 22.2 C 73 % 17.13 C
483 07-08-2019 16:10:00 22.2 C 74 % 17.34 C
484 07-08-2019 16:15:00 22.2 C 72 % 16.91 C
485 07-08-2019 16:20:00 22.1 C 74 % 17.25 C
486 07-08-2019 16:25:00 22 C 73 % 16.94 C
487 07-08-2019 16:30:00 21.9 C 73 % 16.84 C
488 07-08-2019 16:35:00 21.8 C 73 % 16.75 C
489 07-08-2019 16:40:00 21.9 C 73 % 16.84 C
490 07-08-2019 16:45:00 22.1 C 73 % 17.03 C
491 07-08-2019 16:50:00 22.2 C 72 % 16.91 C
492 07-08-2019 16:55:00 22.1 C 72 % 16.82 C
493 07-08-2019 17:00:00 22.1 C 73 % 17.03 C
494 07-08-2019 17:05:00 22 C 72 % 16.72 C
495 07-08-2019 17:10:00 22 C 73 % 16.94 C
496 07-08-2019 17:15:00 22.1 C 73 % 17.03 C
497 07-08-2019 17:20:00 22.2 C 73 % 17.13 C
498 07-08-2019 17:25:00 22.4 C 72 % 17.1 C
499 07-08-2019 17:30:00 22.6 C 70 % 16.85 C
500 07-08-2019 17:35:00 22.8 C 72 % 17.49 C
Sensor: Nr:Datum:Temp:Feuchte:Taupunkt:
Aussen-T/F 501 07-08-2019 17:40:00 23.1 C 71 % 17.55 C
502 07-08-2019 17:45:00 23.2 C 68 % 16.97 C
503 07-08-2019 17:50:00 23.1 C 68 % 16.87 C
504 07-08-2019 17:55:00 22.8 C 70 % 17.04 C
505 07-08-2019 18:00:00 22.6 C 71 % 17.07 C
506 07-08-2019 18:05:00 22.5 C 73 % 17.42 C
507 07-08-2019 18:10:00 22.5 C 71 % 16.98 C
508 07-08-2019 18:15:00 22.5 C 70 % 16.76 C
509 07-08-2019 18:20:00 22.8 C 71 % 17.27 C
510 07-08-2019 18:25:00 23.2 C 69 % 17.2 C
511 07-08-2019 18:30:00 23.6 C 68 % 17.35 C
512 07-08-2019 18:35:00 23.9 C 67 % 17.4 C
513 07-08-2019 18:40:00 24.1 C 65 % 17.11 C
514 07-08-2019 18:45:00 24.3 C 65 % 17.3 C
515 07-08-2019 18:50:00 24.2 C 66 % 17.45 C
516 07-08-2019 18:55:00 24.1 C 65 % 17.11 C
517 07-08-2019 19:00:00 23.8 C 65 % 16.83 C
518 07-08-2019 19:05:00 23.5 C 67 % 17.02 C
519 07-08-2019 19:10:00 23.2 C 68 % 16.97 C
520 07-08-2019 19:15:00 22.9 C 73 % 17.8 C
521 07-08-2019 19:20:00 22.7 C 72 % 17.39 C
522 07-08-2019 19:25:00 22.4 C 73 % 17.32 C
523 07-08-2019 19:30:00 22.2 C 76 % 17.77 C
524 07-08-2019 19:35:00 21.9 C 77 % 17.68 C
525 07-08-2019 19:40:00 21.8 C 78 % 17.79 C
Sensor: Nr:Datum:Temp:Feuchte:Taupunkt:
Aussen-T/F 526 07-08-2019 19:45:00 21.6 C 78 % 17.6 C
527 07-08-2019 19:50:00 21.4 C 79 % 17.61 C
528 07-08-2019 19:55:00 21.2 C 79 % 17.41 C
529 07-08-2019 20:00:00 21.1 C 80 % 17.51 C
530 07-08-2019 20:05:00 20.8 C 81 % 17.42 C
531 07-08-2019 20:10:00 20.7 C 82 % 17.52 C
532 07-08-2019 20:15:00 20.4 C 83 % 17.42 C
533 07-08-2019 20:20:00 20.3 C 83 % 17.32 C
534 07-08-2019 20:25:00 20.1 C 84 % 17.31 C
535 07-08-2019 20:30:00 19.9 C 84 % 17.12 C
536 07-08-2019 20:35:00 19.8 C 84 % 17.02 C
537 07-08-2019 20:40:00 19.7 C 85 % 17.11 C
538 07-08-2019 20:45:00 19.4 C 85 % 16.81 C
539 07-08-2019 20:50:00 19.3 C 85 % 16.72 C
540 07-08-2019 20:55:00 19.2 C 86 % 16.8 C
541 07-08-2019 21:00:00 19.1 C 86 % 16.7 C
542 07-08-2019 21:05:00 18.9 C 87 % 16.69 C
543 07-08-2019 21:10:00 18.8 C 86 % 16.41 C
544 07-08-2019 21:15:00 18.6 C 86 % 16.21 C
545 07-08-2019 21:20:00 18.3 C 86 % 15.92 C
546 07-08-2019 21:25:00 18.1 C 86 % 15.72 C
547 07-08-2019 21:30:00 17.9 C 87 % 15.71 C
548 07-08-2019 21:35:00 17.7 C 87 % 15.51 C
549 07-08-2019 21:40:00 17.5 C 87 % 15.31 C
550 07-08-2019 21:45:00 17.3 C 87 % 15.12 C
Sensor: Nr:Datum:Temp:Feuchte:Taupunkt:
Aussen-T/F 551 07-08-2019 21:50:00 17.3 C 88 % 15.29 C
552 07-08-2019 21:55:00 17.1 C 88 % 15.1 C
553 07-08-2019 22:00:00 17.1 C 89 % 15.27 C
554 07-08-2019 22:05:00 17 C 89 % 15.17 C
555 07-08-2019 22:10:00 16.9 C 89 % 15.08 C
556 07-08-2019 22:15:00 16.8 C 89 % 14.98 C
557 07-08-2019 22:20:00 16.7 C 89 % 14.88 C
558 07-08-2019 22:25:00 16.7 C 90 % 15.05 C
559 07-08-2019 22:30:00 16.7 C 90 % 15.05 C
560 07-08-2019 22:35:00 16.6 C 90 % 14.95 C
561 07-08-2019 22:40:00 16.6 C 90 % 14.95 C
562 07-08-2019 22:45:00 16.6 C 91 % 15.13 C
563 07-08-2019 22:50:00 16.6 C 91 % 15.13 C
564 07-08-2019 22:55:00 16.6 C 90 % 14.95 C
565 07-08-2019 23:00:00 16.7 C 89 % 14.88 C
566 07-08-2019 23:05:00 16.8 C 90 % 15.15 C
567 07-08-2019 23:10:00 16.8 C 89 % 14.98 C
568 07-08-2019 23:15:00 16.8 C 89 % 14.98 C
569 07-08-2019 23:20:00 16.8 C 89 % 14.98 C
570 07-08-2019 23:25:00 16.8 C 89 % 14.98 C
571 07-08-2019 23:30:00 16.8 C 89 % 14.98 C
572 07-08-2019 23:35:00 16.7 C 89 % 14.88 C
573 07-08-2019 23:40:00 16.6 C 89 % 14.78 C
574 07-08-2019 23:45:00 16.4 C 89 % 14.58 C
575 07-08-2019 23:50:00 16.3 C 89 % 14.48 C
Sensor: Nr:Datum:Temp:Feuchte:Taupunkt:
Aussen-T/F 576 07-08-2019 23:55:00 16.2 C 90 % 14.56 C
577 08-08-2019 00:00:00 16.1 C 90 % 14.46 C
578 08-08-2019 00:05:00 15.9 C 90 % 14.26 C
579 08-08-2019 00:10:00 15.8 C 90 % 14.16 C
580 08-08-2019 00:15:00 15.7 C 90 % 14.06 C
581 08-08-2019 00:20:00 15.7 C 91 % 14.24 C
582 08-08-2019 00:25:00 15.6 C 91 % 14.14 C
583 08-08-2019 00:30:00 15.6 C 92 % 14.31 C
584 08-08-2019 00:35:00 15.6 C 92 % 14.31 C
585 08-08-2019 00:40:00 15.6 C 92 % 14.31 C
586 08-08-2019 00:45:00 15.7 C 93 % 14.57 C
587 08-08-2019 00:50:00 15.8 C 93 % 14.67 C
588 08-08-2019 00:55:00 16.1 C 93 % 14.97 C
589 08-08-2019 01:00:00 16.2 C 92 % 14.9 C
590 08-08-2019 01:05:00 16.2 C 92 % 14.9 C
591 08-08-2019 01:10:00 16.3 C 92 % 15 C
592 08-08-2019 01:15:00 16.3 C 92 % 15 C
593 08-08-2019 01:20:00 16.4 C 92 % 15.1 C
594 08-08-2019 01:25:00 16.4 C 92 % 15.1 C
595 08-08-2019 01:30:00 16.4 C 92 % 15.1 C
596 08-08-2019 01:35:00 16.4 C 92 % 15.1 C
597 08-08-2019 01:40:00 16.4 C 92 % 15.1 C
598 08-08-2019 01:45:00 16.4 C 92 % 15.1 C
599 08-08-2019 01:50:00 16.4 C 92 % 15.1 C
600 08-08-2019 01:55:00 16.4 C 92 % 15.1 C
Sensor: Nr:Datum:Temp:Feuchte:Taupunkt:
Aussen-T/F 601 08-08-2019 02:00:00 16.4 C 92 % 15.1 C
602 08-08-2019 02:05:00 16.5 C 92 % 15.2 C
603 08-08-2019 02:10:00 16.5 C 92 % 15.2 C
604 08-08-2019 02:15:00 16.5 C 92 % 15.2 C
605 08-08-2019 02:20:00 16.5 C 92 % 15.2 C
606 08-08-2019 02:25:00 16.5 C 92 % 15.2 C
607 08-08-2019 02:30:00 16.5 C 92 % 15.2 C
608 08-08-2019 02:35:00 16.5 C 92 % 15.2 C
609 08-08-2019 02:40:00 16.4 C 92 % 15.1 C
610 08-08-2019 02:45:00 16.4 C 92 % 15.1 C
611 08-08-2019 02:50:00 16.4 C 92 % 15.1 C
612 08-08-2019 02:55:00 16.3 C 92 % 15 C
613 08-08-2019 03:00:00 16.3 C 92 % 15 C
614 08-08-2019 03:05:00 16.4 C 92 % 15.1 C
615 08-08-2019 03:10:00 16.4 C 92 % 15.1 C
616 08-08-2019 03:15:00 16.4 C 92 % 15.1 C
617 08-08-2019 03:20:00 16.5 C 92 % 15.2 C
618 08-08-2019 03:25:00 16.6 C 92 % 15.3 C
619 08-08-2019 03:30:00 16.6 C 92 % 15.3 C
620 08-08-2019 03:35:00 16.6 C 92 % 15.3 C
621 08-08-2019 03:40:00 16.5 C 92 % 15.2 C
622 08-08-2019 03:45:00 16.4 C 92 % 15.1 C
623 08-08-2019 03:50:00 16.3 C 91 % 14.83 C
624 08-08-2019 03:55:00 16.3 C 92 % 15 C
625 08-08-2019 04:00:00 16.2 C 92 % 14.9 C
Sensor: Nr:Datum:Temp:Feuchte:Taupunkt:
Aussen-T/F 626 08-08-2019 04:05:00 16.2 C 92 % 14.9 C
627 08-08-2019 04:10:00 16.2 C 92 % 14.9 C
628 08-08-2019 04:15:00 16.1 C 93 % 14.97 C
629 08-08-2019 04:20:00 16.1 C 92 % 14.8 C
630 08-08-2019 04:25:00 16.1 C 93 % 14.97 C
631 08-08-2019 04:30:00 16 C 93 % 14.87 C
632 08-08-2019 04:35:00 16 C 93 % 14.87 C
633 08-08-2019 04:40:00 16 C 93 % 14.87 C
634 08-08-2019 04:45:00 16 C 93 % 14.87 C
635 08-08-2019 04:50:00 16 C 93 % 14.87 C
636 08-08-2019 04:55:00 15.9 C 93 % 14.77 C
637 08-08-2019 05:00:00 15.8 C 93 % 14.67 C
638 08-08-2019 05:05:00 15.7 C 93 % 14.57 C
639 08-08-2019 05:10:00 15.6 C 92 % 14.31 C
640 08-08-2019 05:15:00 15.4 C 92 % 14.11 C
641 08-08-2019 05:20:00 15.3 C 93 % 14.18 C
642 08-08-2019 05:25:00 15.2 C 93 % 14.08 C
643 08-08-2019 05:30:00 15.1 C 93 % 13.98 C
644 08-08-2019 05:35:00 15 C 93 % 13.88 C
645 08-08-2019 05:40:00 15.1 C 94 % 14.14 C
646 08-08-2019 05:45:00 15.1 C 94 % 14.14 C
647 08-08-2019 05:50:00 15.2 C 94 % 14.24 C
648 08-08-2019 05:55:00 15.3 C 95 % 14.5 C
649 08-08-2019 06:00:00 15.3 C 95 % 14.5 C
650 08-08-2019 06:05:00 15.4 C 95 % 14.6 C
Sensor: Nr:Datum:Temp:Feuchte:Taupunkt:
Aussen-T/F 651 08-08-2019 06:10:00 15.4 C 95 % 14.6 C
652 08-08-2019 06:15:00 15.6 C 95 % 14.8 C
653 08-08-2019 06:20:00 15.7 C 94 % 14.74 C
654 08-08-2019 06:25:00 15.8 C 94 % 14.84 C
655 08-08-2019 06:30:00 15.8 C 94 % 14.84 C
656 08-08-2019 06:35:00 15.9 C 94 % 14.94 C
657 08-08-2019 06:40:00 15.9 C 93 % 14.77 C
658 08-08-2019 06:45:00 15.9 C 93 % 14.77 C
659 08-08-2019 06:50:00 15.9 C 93 % 14.77 C
660 08-08-2019 06:55:00 15.8 C 93 % 14.67 C
661 08-08-2019 07:00:00 15.8 C 93 % 14.67 C
662 08-08-2019 07:05:00 15.8 C 93 % 14.67 C
663 08-08-2019 07:10:00 15.8 C 93 % 14.67 C
664 08-08-2019 07:15:00 15.8 C 93 % 14.67 C
665 08-08-2019 07:20:00 15.8 C 93 % 14.67 C
666 08-08-2019 07:25:00 15.9 C 94 % 14.94 C
667 08-08-2019 07:30:00 15.9 C 94 % 14.94 C
668 08-08-2019 07:35:00 16 C 94 % 15.03 C
669 08-08-2019 07:40:00 16.1 C 94 % 15.13 C
670 08-08-2019 07:45:00 16.1 C 94 % 15.13 C
671 08-08-2019 07:50:00 16.2 C 94 % 15.23 C
672 08-08-2019 07:55:00 16.2 C 94 % 15.23 C
673 08-08-2019 08:00:00 16.3 C 94 % 15.33 C
674 08-08-2019 08:05:00 16.4 C 93 % 15.27 C
675 08-08-2019 08:10:00 16.6 C 93 % 15.46 C
Sensor: Nr:Datum:Temp:Feuchte:Taupunkt:
Aussen-T/F 676 08-08-2019 08:15:00 16.7 C 92 % 15.39 C
677 08-08-2019 08:20:00 16.9 C 92 % 15.59 C
678 08-08-2019 08:25:00 17.1 C 91 % 15.62 C
679 08-08-2019 08:30:00 17.2 C 91 % 15.72 C
680 08-08-2019 08:35:00 17.3 C 90 % 15.64 C
681 08-08-2019 08:40:00 17.4 C 90 % 15.74 C
682 08-08-2019 08:45:00 17.5 C 90 % 15.84 C
683 08-08-2019 08:50:00 17.6 C 89 % 15.77 C
684 08-08-2019 08:55:00 17.7 C 89 % 15.86 C
685 08-08-2019 09:00:00 17.8 C 89 % 15.96 C
686 08-08-2019 09:05:00 17.9 C 88 % 15.88 C
687 08-08-2019 09:10:00 18.1 C 88 % 16.08 C
688 08-08-2019 09:15:00 18.3 C 87 % 16.1 C
689 08-08-2019 09:20:00 18.4 C 85 % 15.83 C
690 08-08-2019 09:25:00 18.5 C 85 % 15.93 C
691 08-08-2019 09:30:00 18.6 C 84 % 15.84 C
692 08-08-2019 09:35:00 18.7 C 84 % 15.94 C
693 08-08-2019 09:40:00 18.9 C 81 % 15.57 C
694 08-08-2019 09:45:00 19.1 C 81 % 15.76 C
695 08-08-2019 09:50:00 19.2 C 80 % 15.67 C
696 08-08-2019 09:55:00 19.2 C 77 % 15.07 C
697 08-08-2019 10:00:00 19.3 C 76 % 14.97 C
698 08-08-2019 10:05:00 19.4 C 74 % 14.65 C
699 08-08-2019 10:10:00 19.5 C 76 % 15.16 C
700 08-08-2019 10:15:00 19.6 C 76 % 15.26 C
Sensor: Nr:Datum:Temp:Feuchte:Taupunkt:
Aussen-T/F 701 08-08-2019 10:20:00 19.7 C 73 % 14.73 C
702 08-08-2019 10:25:00 19.9 C 73 % 14.92 C
703 08-08-2019 10:30:00 20.2 C 72 % 14.99 C
704 08-08-2019 10:35:00 20.3 C 72 % 15.09 C
705 08-08-2019 10:40:00 20.5 C 72 % 15.28 C
706 08-08-2019 10:45:00 20.7 C 71 % 15.25 C
707 08-08-2019 10:50:00 20.8 C 71 % 15.35 C
708 08-08-2019 10:55:00 20.8 C 70 % 15.13 C
709 08-08-2019 11:00:00 21 C 70 % 15.32 C
710 08-08-2019 11:05:00 21.1 C 68 % 14.97 C
711 08-08-2019 11:10:00 21.2 C 67 % 14.83 C
712 08-08-2019 11:15:00 21.3 C 68 % 15.16 C
713 08-08-2019 11:20:00 21.5 C 67 % 15.12 C
714 08-08-2019 11:25:00 21.6 C 68 % 15.44 C
715 08-08-2019 11:30:00 21.8 C 66 % 15.17 C
716 08-08-2019 11:35:00 21.9 C 64 % 14.78 C
717 08-08-2019 11:40:00 22 C 65 % 15.12 C
718 08-08-2019 11:45:00 22.3 C 62 % 14.67 C
719 08-08-2019 11:50:00 22.5 C 62 % 14.86 C
720 08-08-2019 11:55:00 22.7 C 62 % 15.05 C
721 08-08-2019 12:00:00 22.8 C 62 % 15.14 C
722 08-08-2019 12:05:00 22.7 C 63 % 15.3 C
723 08-08-2019 12:10:00 22.6 C 63 % 15.2 C
724 08-08-2019 12:15:00 22.7 C 64 % 15.54 C
725 08-08-2019 12:20:00 22.7 C 62 % 15.05 C
Sensor: Nr:Datum:Temp:Feuchte:Taupunkt:
Aussen-T/F 726 08-08-2019 12:25:00 22.9 C 60 % 14.73 C
727 08-08-2019 12:30:00 23 C 61 % 15.08 C
728 08-08-2019 12:35:00 23 C 61 % 15.08 C
729 08-08-2019 12:40:00 23.2 C 60 % 15.01 C
730 08-08-2019 12:45:00 23.3 C 60 % 15.1 C
731 08-08-2019 12:50:00 23.4 C 60 % 15.19 C
732 08-08-2019 12:55:00 23.6 C 58 % 14.86 C
733 08-08-2019 13:00:00 23.7 C 60 % 15.48 C
734 08-08-2019 13:05:00 23.8 C 59 % 15.31 C
735 08-08-2019 13:10:00 23.9 C 59 % 15.4 C
736 08-08-2019 13:15:00 24.1 C 57 % 15.05 C
737 08-08-2019 13:20:00 24.1 C 57 % 15.05 C
738 08-08-2019 13:25:00 24.2 C 57 % 15.14 C
739 08-08-2019 13:30:00 24.2 C 55 % 14.59 C
740 08-08-2019 13:35:00 24.1 C 56 % 14.78 C
741 08-08-2019 13:40:00 24 C 58 % 15.23 C
742 08-08-2019 13:45:00 24 C 58 % 15.23 C
743 08-08-2019 13:50:00 24 C 56 % 14.68 C
744 08-08-2019 13:55:00 24.2 C 57 % 15.14 C
745 08-08-2019 14:00:00 24.2 C 58 % 15.42 C
746 08-08-2019 14:05:00 24.1 C 57 % 15.05 C
747 08-08-2019 14:10:00 24.1 C 59 % 15.59 C
748 08-08-2019 14:15:00 24.2 C 58 % 15.42 C
749 08-08-2019 14:20:00 24.3 C 59 % 15.78 C
750 08-08-2019 14:25:00 24.3 C 58 % 15.51 C
Sensor: Nr:Datum:Temp:Feuchte:Taupunkt:
Aussen-T/F 751 08-08-2019 14:30:00 24.3 C 57 % 15.24 C
752 08-08-2019 14:35:00 24.2 C 57 % 15.14 C
753 08-08-2019 14:40:00 24.2 C 55 % 14.59 C
754 08-08-2019 14:45:00 24.2 C 56 % 14.87 C
755 08-08-2019 14:50:00 24.2 C 57 % 15.14 C
756 08-08-2019 14:55:00 24.2 C 57 % 15.14 C
757 08-08-2019 15:00:00 24.2 C 56 % 14.87 C
758 08-08-2019 15:05:00 24.2 C 60 % 15.95 C
759 08-08-2019 15:10:00 24.3 C 56 % 14.96 C
760 08-08-2019 15:15:00 24.4 C 56 % 15.06 C
761 08-08-2019 15:20:00 24.6 C 57 % 15.52 C
762 08-08-2019 15:25:00 24.7 C 56 % 15.33 C
763 08-08-2019 15:30:00 24.7 C 58 % 15.88 C
764 08-08-2019 15:35:00 24.5 C 58 % 15.7 C
765 08-08-2019 15:40:00 24.3 C 60 % 16.04 C
766 08-08-2019 15:45:00 24.5 C 59 % 15.96 C
767 08-08-2019 15:50:00 24.7 C 56 % 15.33 C
768 08-08-2019 15:55:00 25.1 C 54 % 15.14 C
769 08-08-2019 16:00:00 25.4 C 53 % 15.13 C
770 08-08-2019 16:05:00 25.5 C 54 % 15.51 C
771 08-08-2019 16:10:00 25.8 C 55 % 16.07 C
772 08-08-2019 16:15:00 26.1 C 51 % 15.17 C
773 08-08-2019 16:20:00 26.3 C 55 % 16.54 C
774 08-08-2019 16:25:00 26.8 C 51 % 15.82 C
775 08-08-2019 16:30:00 26.8 C 51 % 15.82 C
Sensor: Nr:Datum:Temp:Feuchte:Taupunkt:
Aussen-T/F 776 08-08-2019 16:35:00 27.1 C 51 % 16.09 C
777 08-08-2019 16:40:00 27.3 C 48 % 15.33 C
778 08-08-2019 16:45:00 27.3 C 50 % 15.97 C
779 08-08-2019 16:50:00 27.2 C 50 % 15.87 C
780 08-08-2019 16:55:00 27.4 C 48 % 15.42 C
781 08-08-2019 17:00:00 27.5 C 48 % 15.51 C
782 08-08-2019 17:05:00 27.5 C 48 % 15.51 C
783 08-08-2019 17:10:00 27.2 C 47 % 14.91 C
784 08-08-2019 17:15:00 26.6 C 49 % 15.01 C
785 08-08-2019 17:20:00 26.6 C 53 % 16.23 C
786 08-08-2019 17:25:00 27.1 C 49 % 15.47 C
787 08-08-2019 17:30:00 27.5 C 47 % 15.18 C
788 08-08-2019 17:35:00 27.7 C 47 % 15.36 C
789 08-08-2019 17:40:00 27.4 C 46 % 14.76 C
790 08-08-2019 17:45:00 26.9 C 48 % 14.96 C
791 08-08-2019 17:50:00 27 C 48 % 15.05 C
792 08-08-2019 17:55:00 27.2 C 48 % 15.24 C
793 08-08-2019 18:00:00 27.2 C 47 % 14.91 C
794 08-08-2019 18:05:00 27.1 C 48 % 15.15 C
795 08-08-2019 18:10:00 27.4 C 47 % 15.09 C
796 08-08-2019 18:15:00 27.8 C 47 % 15.45 C
797 08-08-2019 18:20:00 27.9 C 45 % 14.87 C
798 08-08-2019 18:25:00 27.8 C 45 % 14.78 C
799 08-08-2019 18:30:00 27.7 C 46 % 15.03 C
800 08-08-2019 18:35:00 27.7 C 47 % 15.36 C
Sensor: Nr:Datum:Temp:Feuchte:Taupunkt:
Aussen-T/F 801 08-08-2019 18:40:00 27.7 C 46 % 15.03 C
802 08-08-2019 18:45:00 27.4 C 50 % 16.06 C
803 08-08-2019 18:50:00 27.1 C 50 % 15.78 C
804 08-08-2019 18:55:00 26.8 C 50 % 15.51 C
805 08-08-2019 19:00:00 26.3 C 51 % 15.36 C
806 08-08-2019 19:05:00 26.1 C 55 % 16.35 C
807 08-08-2019 19:10:00 25.9 C 58 % 17 C
808 08-08-2019 19:15:00 25.7 C 62 % 17.87 C
809 08-08-2019 19:20:00 25.6 C 62 % 17.78 C
810 08-08-2019 19:25:00 25.4 C 62 % 17.59 C
811 08-08-2019 19:30:00 25.2 C 64 % 17.9 C
812 08-08-2019 19:35:00 25.1 C 65 % 18.06 C
813 08-08-2019 19:40:00 25 C 66 % 18.2 C
814 08-08-2019 19:45:00 24.9 C 67 % 18.35 C
815 08-08-2019 19:50:00 24.9 C 66 % 18.11 C
816 08-08-2019 19:55:00 25.1 C 67 % 18.54 C
817 08-08-2019 20:00:00 25.1 C 66 % 18.3 C
818 08-08-2019 20:05:00 25.1 C 65 % 18.06 C
819 08-08-2019 20:10:00 24.9 C 64 % 17.62 C
820 08-08-2019 20:15:00 24.7 C 64 % 17.43 C
821 08-08-2019 20:20:00 24.3 C 66 % 17.54 C
822 08-08-2019 20:25:00 23.9 C 67 % 17.4 C
823 08-08-2019 20:30:00 23.4 C 68 % 17.16 C
824 08-08-2019 20:35:00 22.9 C 69 % 16.91 C
825 08-08-2019 20:40:00 22.6 C 70 % 16.85 C
Sensor: Nr:Datum:Temp:Feuchte:Taupunkt:
Aussen-T/F 826 08-08-2019 20:45:00 22.2 C 70 % 16.47 C
827 08-08-2019 20:50:00 22 C 71 % 16.5 C
828 08-08-2019 20:55:00 21.8 C 71 % 16.31 C
829 08-08-2019 21:00:00 21.6 C 72 % 16.34 C
830 08-08-2019 21:05:00 21.4 C 73 % 16.36 C
831 08-08-2019 21:10:00 21.2 C 74 % 16.38 C
832 08-08-2019 21:15:00 21 C 75 % 16.4 C
833 08-08-2019 21:20:00 20.8 C 75 % 16.21 C
834 08-08-2019 21:25:00 20.7 C 77 % 16.52 C
835 08-08-2019 21:30:00 20.5 C 78 % 16.53 C
836 08-08-2019 21:35:00 20.3 C 78 % 16.34 C
837 08-08-2019 21:40:00 20.2 C 78 % 16.24 C
838 08-08-2019 21:45:00 20.1 C 79 % 16.34 C
839 08-08-2019 21:50:00 19.9 C 79 % 16.15 C
840 08-08-2019 21:55:00 19.8 C 79 % 16.05 C
841 08-08-2019 22:00:00 19.8 C 80 % 16.25 C
842 08-08-2019 22:05:00 19.7 C 81 % 16.35 C
843 08-08-2019 22:10:00 19.6 C 82 % 16.44 C
844 08-08-2019 22:15:00 19.4 C 82 % 16.25 C
845 08-08-2019 22:20:00 19.3 C 83 % 16.34 C
846 08-08-2019 22:25:00 19.2 C 83 % 16.24 C
847 08-08-2019 22:30:00 19.1 C 83 % 16.15 C
848 08-08-2019 22:35:00 18.9 C 84 % 16.14 C
849 08-08-2019 22:40:00 18.8 C 84 % 16.04 C
850 08-08-2019 22:45:00 18.8 C 85 % 16.23 C
Sensor: Nr:Datum:Temp:Feuchte:Taupunkt:
Aussen-T/F 851 08-08-2019 22:50:00 18.7 C 85 % 16.13 C
852 08-08-2019 22:55:00 18.6 C 86 % 16.21 C
853 08-08-2019 23:00:00 18.4 C 86 % 16.02 C
854 08-08-2019 23:05:00 18.4 C 86 % 16.02 C
855 08-08-2019 23:10:00 18.3 C 87 % 16.1 C
856 08-08-2019 23:15:00 18.2 C 87 % 16 C
857 08-08-2019 23:20:00 18.2 C 88 % 16.18 C
858 08-08-2019 23:25:00 18.2 C 88 % 16.18 C
859 08-08-2019 23:30:00 18.2 C 88 % 16.18 C
860 08-08-2019 23:35:00 18.2 C 88 % 16.18 C
861 08-08-2019 23:40:00 18.1 C 88 % 16.08 C
862 08-08-2019 23:45:00 18.1 C 88 % 16.08 C
863 08-08-2019 23:50:00 17.9 C 88 % 15.88 C
864 08-08-2019 23:55:00 17.8 C 88 % 15.79 C
865 09-08-2019 00:00:00 17.7 C 88 % 15.69 C
866 09-08-2019 00:05:00 17.6 C 88 % 15.59 C
867 09-08-2019 00:10:00 17.5 C 88 % 15.49 C
868 09-08-2019 00:15:00 17.4 C 89 % 15.57 C
869 09-08-2019 00:20:00 17.3 C 89 % 15.47 C
870 09-08-2019 00:25:00 17.2 C 89 % 15.37 C
871 09-08-2019 00:30:00 17.1 C 90 % 15.45 C
872 09-08-2019 00:35:00 17 C 90 % 15.35 C
873 09-08-2019 00:40:00 16.9 C 90 % 15.25 C
874 09-08-2019 00:45:00 16.8 C 90 % 15.15 C
875 09-08-2019 00:50:00 16.7 C 91 % 15.22 C
Sensor: Nr:Datum:Temp:Feuchte:Taupunkt:
Aussen-T/F 876 09-08-2019 00:55:00 16.7 C 91 % 15.22 C
877 09-08-2019 01:00:00 16.6 C 91 % 15.13 C
878 09-08-2019 01:05:00 16.6 C 91 % 15.13 C
879 09-08-2019 01:10:00 16.4 C 91 % 14.93 C
880 09-08-2019 01:15:00 16.4 C 91 % 14.93 C
881 09-08-2019 01:20:00 16.3 C 91 % 14.83 C
882 09-08-2019 01:25:00 16.3 C 91 % 14.83 C
883 09-08-2019 01:30:00 16.2 C 91 % 14.73 C
884 09-08-2019 01:35:00 16.2 C 91 % 14.73 C
885 09-08-2019 01:40:00 16.1 C 91 % 14.63 C
886 09-08-2019 01:45:00 16 C 92 % 14.7 C
887 09-08-2019 01:50:00 16 C 92 % 14.7 C
888 09-08-2019 01:55:00 16 C 92 % 14.7 C
889 09-08-2019 02:00:00 16 C 92 % 14.7 C
890 09-08-2019 02:05:00 16 C 92 % 14.7 C
891 09-08-2019 02:10:00 16 C 92 % 14.7 C
892 09-08-2019 02:15:00 16 C 92 % 14.7 C
893 09-08-2019 02:20:00 16 C 92 % 14.7 C
894 09-08-2019 02:25:00 15.9 C 92 % 14.6 C
895 09-08-2019 02:30:00 15.9 C 92 % 14.6 C
896 09-08-2019 02:35:00 15.9 C 92 % 14.6 C
897 09-08-2019 02:40:00 15.8 C 92 % 14.5 C
898 09-08-2019 02:45:00 15.7 C 92 % 14.4 C
899 09-08-2019 02:50:00 15.7 C 92 % 14.4 C
900 09-08-2019 02:55:00 15.6 C 92 % 14.31 C
Sensor: Nr:Datum:Temp:Feuchte:Taupunkt:
Aussen-T/F 901 09-08-2019 03:00:00 15.6 C 92 % 14.31 C
902 09-08-2019 03:05:00 15.4 C 92 % 14.11 C
903 09-08-2019 03:10:00 15.4 C 93 % 14.27 C
904 09-08-2019 03:15:00 15.3 C 92 % 14.01 C
905 09-08-2019 03:20:00 15.2 C 93 % 14.08 C
906 09-08-2019 03:25:00 15.2 C 93 % 14.08 C
907 09-08-2019 03:30:00 15.2 C 93 % 14.08 C
908 09-08-2019 03:35:00 15.1 C 93 % 13.98 C
909 09-08-2019 03:40:00 15.1 C 93 % 13.98 C
910 09-08-2019 03:45:00 15.1 C 93 % 13.98 C
911 09-08-2019 03:50:00 15 C 93 % 13.88 C
912 09-08-2019 03:55:00 15 C 93 % 13.88 C
913 09-08-2019 04:00:00 14.9 C 94 % 13.94 C
914 09-08-2019 04:05:00 14.9 C 93 % 13.78 C
915 09-08-2019 04:10:00 14.8 C 94 % 13.84 C
916 09-08-2019 04:15:00 14.8 C 93 % 13.68 C
917 09-08-2019 04:20:00 14.7 C 93 % 13.58 C
918 09-08-2019 04:25:00 14.6 C 93 % 13.48 C
919 09-08-2019 04:30:00 14.6 C 94 % 13.65 C
920 09-08-2019 04:35:00 14.7 C 94 % 13.74 C
921 09-08-2019 04:40:00 14.7 C 94 % 13.74 C
922 09-08-2019 04:45:00 14.7 C 94 % 13.74 C
923 09-08-2019 04:50:00 14.7 C 94 % 13.74 C
924 09-08-2019 04:55:00 14.6 C 94 % 13.65 C
925 09-08-2019 05:00:00 14.6 C 94 % 13.65 C
Sensor: Nr:Datum:Temp:Feuchte:Taupunkt:
Aussen-T/F 926 09-08-2019 05:05:00 14.5 C 94 % 13.55 C
927 09-08-2019 05:10:00 14.5 C 94 % 13.55 C
928 09-08-2019 05:15:00 14.5 C 94 % 13.55 C
929 09-08-2019 05:20:00 14.4 C 94 % 13.45 C
930 09-08-2019 05:25:00 14.4 C 94 % 13.45 C
931 09-08-2019 05:30:00 14.4 C 94 % 13.45 C
932 09-08-2019 05:35:00 14.4 C 94 % 13.45 C
933 09-08-2019 05:40:00 14.4 C 94 % 13.45 C
934 09-08-2019 05:45:00 14.4 C 94 % 13.45 C
935 09-08-2019 05:50:00 14.4 C 94 % 13.45 C
936 09-08-2019 05:55:00 14.4 C 95 % 13.61 C
937 09-08-2019 06:00:00 14.4 C 95 % 13.61 C
938 09-08-2019 06:05:00 14.4 C 95 % 13.61 C
939 09-08-2019 06:10:00 14.4 C 95 % 13.61 C
940 09-08-2019 06:15:00 14.5 C 95 % 13.71 C
941 09-08-2019 06:20:00 14.5 C 95 % 13.71 C
942 09-08-2019 06:25:00 14.6 C 95 % 13.81 C
943 09-08-2019 06:30:00 14.6 C 95 % 13.81 C
944 09-08-2019 06:35:00 14.6 C 95 % 13.81 C
945 09-08-2019 06:40:00 14.6 C 95 % 13.81 C
946 09-08-2019 06:45:00 14.7 C 95 % 13.91 C
947 09-08-2019 06:50:00 14.7 C 95 % 13.91 C
948 09-08-2019 06:55:00 14.8 C 95 % 14.01 C
949 09-08-2019 07:00:00 14.8 C 95 % 14.01 C
950 09-08-2019 07:05:00 15 C 95 % 14.21 C
Sensor: Nr:Datum:Temp:Feuchte:Taupunkt:
Aussen-T/F 951 09-08-2019 07:10:00 15.1 C 96 % 14.47 C
952 09-08-2019 07:15:00 15.2 C 96 % 14.57 C
953 09-08-2019 07:20:00 15.3 C 96 % 14.67 C
954 09-08-2019 07:25:00 15.4 C 96 % 14.77 C
955 09-08-2019 07:30:00 15.5 C 95 % 14.7 C
956 09-08-2019 07:35:00 15.6 C 95 % 14.8 C
957 09-08-2019 07:40:00 15.6 C 95 % 14.8 C
958 09-08-2019 07:45:00 15.7 C 95 % 14.9 C
959 09-08-2019 07:50:00 15.8 C 95 % 15 C
960 09-08-2019 07:55:00 15.9 C 95 % 15.1 C
961 09-08-2019 08:00:00 15.9 C 94 % 14.94 C
962 09-08-2019 08:05:00 15.9 C 94 % 14.94 C
963 09-08-2019 08:10:00 16.1 C 94 % 15.13 C
964 09-08-2019 08:15:00 16.2 C 94 % 15.23 C
965 09-08-2019 08:20:00 16.2 C 94 % 15.23 C
966 09-08-2019 08:25:00 16.4 C 94 % 15.43 C
967 09-08-2019 08:30:00 16.5 C 93 % 15.36 C
968 09-08-2019 08:35:00 16.6 C 93 % 15.46 C
969 09-08-2019 08:40:00 16.7 C 92 % 15.39 C
970 09-08-2019 08:45:00 16.8 C 92 % 15.49 C
971 09-08-2019 08:50:00 16.9 C 92 % 15.59 C
972 09-08-2019 08:55:00 17.1 C 92 % 15.79 C
973 09-08-2019 09:00:00 17.2 C 91 % 15.72 C
974 09-08-2019 09:05:00 17.4 C 91 % 15.92 C
975 09-08-2019 09:10:00 17.6 C 91 % 16.11 C
Sensor: Nr:Datum:Temp:Feuchte:Taupunkt:
Aussen-T/F 976 09-08-2019 09:15:00 17.7 C 89 % 15.86 C
977 09-08-2019 09:20:00 17.9 C 89 % 16.06 C
978 09-08-2019 09:25:00 18.2 C 88 % 16.18 C
979 09-08-2019 09:30:00 18.4 C 87 % 16.2 C
980 09-08-2019 09:35:00 18.6 C 87 % 16.39 C
981 09-08-2019 09:40:00 18.8 C 86 % 16.41 C
982 09-08-2019 09:45:00 18.9 C 86 % 16.51 C
983 09-08-2019 09:50:00 19.2 C 85 % 16.62 C
984 09-08-2019 09:55:00 19.3 C 84 % 16.53 C
985 09-08-2019 10:00:00 19.5 C 82 % 16.35 C
986 09-08-2019 10:05:00 19.7 C 82 % 16.54 C
987 09-08-2019 10:10:00 19.9 C 82 % 16.74 C
988 09-08-2019 10:15:00 20.1 C 82 % 16.93 C
989 09-08-2019 10:20:00 20.3 C 81 % 16.93 C
990 09-08-2019 10:25:00 20.5 C 82 % 17.32 C
991 09-08-2019 10:30:00 20.7 C 80 % 17.13 C
992 09-08-2019 10:35:00 20.9 C 80 % 17.32 C
993 09-08-2019 10:40:00 21.1 C 79 % 17.32 C
994 09-08-2019 10:45:00 21.3 C 81 % 17.91 C
995 09-08-2019 10:50:00 21.6 C 79 % 17.8 C
996 09-08-2019 10:55:00 21.7 C 79 % 17.9 C
997 09-08-2019 11:00:00 21.9 C 78 % 17.89 C
998 09-08-2019 11:05:00 22.2 C 77 % 17.98 C
999 09-08-2019 11:10:00 22.6 C 75 % 17.94 C
1000 09-08-2019 11:15:00 23 C 76 % 18.54 C
Sensor: Nr:Datum:Temp:Feuchte:Taupunkt:
Aussen-T/F 1001 09-08-2019 11:20:00 23.4 C 74 % 18.5 C
1002 09-08-2019 11:25:00 23.7 C 70 % 17.9 C
1003 09-08-2019 11:30:00 24.2 C 70 % 18.38 C
1004 09-08-2019 11:35:00 24.5 C 68 % 18.2 C
1005 09-08-2019 11:40:00 24.8 C 69 % 18.72 C
1006 09-08-2019 11:45:00 25 C 67 % 18.44 C
1007 09-08-2019 11:50:00 25.1 C 66 % 18.3 C
1008 09-08-2019 11:55:00 25.2 C 69 % 19.11 C
1009 09-08-2019 12:00:00 25.1 C 66 % 18.3 C
1010 09-08-2019 12:05:00 25.2 C 68 % 18.87 C
1011 09-08-2019 12:10:00 25.2 C 68 % 18.87 C
1012 09-08-2019 12:15:00 25.3 C 66 % 18.49 C
1013 09-08-2019 12:20:00 25.2 C 63 % 17.65 C
1014 09-08-2019 12:25:00 25.3 C 71 % 19.66 C
1015 09-08-2019 12:30:00 25.3 C 64 % 18 C
1016 09-08-2019 12:35:00 25.3 C 63 % 17.75 C
1017 09-08-2019 12:40:00 25.3 C 64 % 18 C
1018 09-08-2019 12:45:00 25.3 C 64 % 18 C
1019 09-08-2019 12:50:00 25.4 C 70 % 19.53 C
1020 09-08-2019 12:55:00 25.3 C 63 % 17.75 C
1021 09-08-2019 13:00:00 25.3 C 63 % 17.75 C
1022 09-08-2019 13:05:00 25.3 C 69 % 19.2 C
1023 09-08-2019 13:10:00 25.2 C 63 % 17.65 C
1024 09-08-2019 13:15:00 25.2 C 72 % 19.79 C
1025 09-08-2019 13:20:00 25.1 C 68 % 18.78 C
Sensor: Nr:Datum:Temp:Feuchte:Taupunkt:
Aussen-T/F 1026 09-08-2019 13:25:00 25.1 C 69 % 19.01 C
1027 09-08-2019 13:30:00 25.2 C 68 % 18.87 C
1028 09-08-2019 13:35:00 25.2 C 63 % 17.65 C
1029 09-08-2019 13:40:00 25.3 C 65 % 18.25 C
1030 09-08-2019 13:45:00 25.4 C 64 % 18.09 C
1031 09-08-2019 13:50:00 25.4 C 64 % 18.09 C
1032 09-08-2019 13:55:00 25.6 C 69 % 19.49 C
1033 09-08-2019 14:00:00 25.6 C 68 % 19.25 C
1034 09-08-2019 14:05:00 25.5 C 69 % 19.39 C
1035 09-08-2019 14:10:00 25.4 C 67 % 18.82 C
1036 09-08-2019 14:15:00 25.4 C 73 % 20.21 C
1037 09-08-2019 14:20:00 25.2 C 76 % 20.67 C
1038 09-08-2019 14:25:00 25 C 78 % 20.89 C
1039 09-08-2019 14:30:00 24.8 C 80 % 21.11 C
1040 09-08-2019 14:35:00 24.4 C 82 % 21.12 C
1041 09-08-2019 14:40:00 24.2 C 83 % 21.13 C
1042 09-08-2019 14:45:00 24 C 83 % 20.93 C
1043 09-08-2019 14:50:00 23.8 C 84 % 20.93 C
1044 09-08-2019 14:55:00 23.7 C 85 % 21.03 C
1045 09-08-2019 15:00:00 23.4 C 85 % 20.73 C
1046 09-08-2019 15:05:00 23.2 C 86 % 20.73 C
1047 09-08-2019 15:10:00 23.1 C 88 % 21 C
1048 09-08-2019 15:15:00 23.3 C 89 % 21.38 C
1049 09-08-2019 15:20:00 23.7 C 85 % 21.03 C
1050 09-08-2019 15:25:00 24 C 83 % 20.93 C
Sensor: Nr:Datum:Temp:Feuchte:Taupunkt:
Aussen-T/F 1051 09-08-2019 15:30:00 24.3 C 83 % 21.22 C
1052 09-08-2019 15:35:00 24.7 C 81 % 21.22 C
1053 09-08-2019 15:40:00 25.1 C 78 % 20.99 C
1054 09-08-2019 15:45:00 25.6 C 78 % 21.48 C
1055 09-08-2019 15:50:00 26.1 C 76 % 21.53 C
1056 09-08-2019 15:55:00 26.7 C 73 % 21.45 C
1057 09-08-2019 16:00:00 27.2 C 72 % 21.71 C
1058 09-08-2019 16:05:00 27.4 C 68 % 20.97 C
1059 09-08-2019 16:10:00 27.6 C 66 % 20.67 C
1060 09-08-2019 16:15:00 27.4 C 67 % 20.73 C
1061 09-08-2019 16:20:00 27.4 C 68 % 20.97 C
1062 09-08-2019 16:25:00 27.3 C 68 % 20.87 C
1063 09-08-2019 16:30:00 27.3 C 71 % 21.58 C
1064 09-08-2019 16:35:00 27.2 C 71 % 21.48 C
1065 09-08-2019 16:40:00 27.1 C 68 % 20.68 C
1066 09-08-2019 16:45:00 27 C 70 % 21.06 C
1067 09-08-2019 16:50:00 27.1 C 75 % 22.28 C
1068 09-08-2019 16:55:00 27 C 75 % 22.19 C
1069 09-08-2019 17:00:00 26.9 C 78 % 22.73 C
1070 09-08-2019 17:05:00 26.7 C 78 % 22.54 C
1071 09-08-2019 17:10:00 26.4 C 79 % 22.46 C
1072 09-08-2019 17:15:00 26.2 C 80 % 22.47 C
1073 09-08-2019 17:20:00 25.8 C 80 % 22.08 C
1074 09-08-2019 17:25:00 25.5 C 81 % 22 C
1075 09-08-2019 17:30:00 25.2 C 81 % 21.7 C
Sensor: Nr:Datum:Temp:Feuchte:Taupunkt:
Aussen-T/F 1076 09-08-2019 17:35:00 24.9 C 82 % 21.61 C
1077 09-08-2019 17:40:00 24.8 C 83 % 21.71 C
1078 09-08-2019 17:45:00 24.6 C 85 % 21.91 C
1079 09-08-2019 17:50:00 24.3 C 85 % 21.61 C
1080 09-08-2019 17:55:00 24.1 C 86 % 21.61 C
1081 09-08-2019 18:00:00 23.8 C 87 % 21.5 C
1082 09-08-2019 18:05:00 23.6 C 87 % 21.31 C
1083 09-08-2019 18:10:00 23.4 C 88 % 21.3 C
1084 09-08-2019 18:15:00 23.2 C 88 % 21.1 C
1085 09-08-2019 18:20:00 23.1 C 88 % 21 C
1086 09-08-2019 18:25:00 22.9 C 89 % 20.99 C
1087 09-08-2019 18:30:00 22.7 C 89 % 20.79 C
1088 09-08-2019 18:35:00 22.4 C 89 % 20.5 C
1089 09-08-2019 18:40:00 22.3 C 90 % 20.58 C
1090 09-08-2019 18:45:00 22.1 C 90 % 20.38 C
1091 09-08-2019 18:50:00 22 C 91 % 20.46 C
1092 09-08-2019 18:55:00 21.9 C 91 % 20.36 C
1093 09-08-2019 19:00:00 21.8 C 92 % 20.44 C
1094 09-08-2019 19:05:00 21.8 C 92 % 20.44 C
1095 09-08-2019 19:10:00 21.7 C 92 % 20.34 C
1096 09-08-2019 19:15:00 21.7 C 93 % 20.52 C
1097 09-08-2019 19:20:00 21.7 C 93 % 20.52 C
1098 09-08-2019 19:25:00 21.7 C 94 % 20.69 C
1099 09-08-2019 19:30:00 21.7 C 94 % 20.69 C
1100 09-08-2019 19:35:00 21.6 C 94 % 20.59 C
Sensor: Nr:Datum:Temp:Feuchte:Taupunkt:
Aussen-T/F 1101 09-08-2019 19:40:00 21.5 C 94 % 20.49 C
1102 09-08-2019 19:45:00 21.2 C 93 % 20.02 C
1103 09-08-2019 19:50:00 20.9 C 93 % 19.72 C
1104 09-08-2019 19:55:00 20.7 C 93 % 19.53 C
1105 09-08-2019 20:00:00 20.4 C 93 % 19.23 C
1106 09-08-2019 20:05:00 20 C 93 % 18.83 C
1107 09-08-2019 20:10:00 19.8 C 93 % 18.63 C
1108 09-08-2019 20:15:00 19.7 C 94 % 18.71 C
1109 09-08-2019 20:20:00 19.6 C 94 % 18.61 C
1110 09-08-2019 20:25:00 19.6 C 94 % 18.61 C
1111 09-08-2019 20:30:00 19.5 C 94 % 18.51 C
1112 09-08-2019 20:35:00 19.4 C 94 % 18.41 C
1113 09-08-2019 20:40:00 19.4 C 95 % 18.58 C
1114 09-08-2019 20:45:00 19.4 C 95 % 18.58 C
1115 09-08-2019 20:50:00 19.4 C 95 % 18.58 C
1116 09-08-2019 20:55:00 19.4 C 95 % 18.58 C
1117 09-08-2019 21:00:00 19.3 C 95 % 18.48 C
1118 09-08-2019 21:05:00 19.3 C 95 % 18.48 C
1119 09-08-2019 21:10:00 19.3 C 95 % 18.48 C
1120 09-08-2019 21:15:00 19.3 C 95 % 18.48 C
1121 09-08-2019 21:20:00 19.3 C 95 % 18.48 C
1122 09-08-2019 21:25:00 19.3 C 95 % 18.48 C
1123 09-08-2019 21:30:00 19.3 C 96 % 18.65 C
1124 09-08-2019 21:35:00 19.3 C 96 % 18.65 C
1125 09-08-2019 21:40:00 19.4 C 96 % 18.75 C
Sensor: Nr:Datum:Temp:Feuchte:Taupunkt:
Aussen-T/F 1126 09-08-2019 21:45:00 19.4 C 96 % 18.75 C
1127 09-08-2019 21:50:00 19.3 C 96 % 18.65 C
1128 09-08-2019 21:55:00 19.3 C 96 % 18.65 C
1129 09-08-2019 22:00:00 19.4 C 96 % 18.75 C
1130 09-08-2019 22:05:00 19.4 C 96 % 18.75 C
1131 09-08-2019 22:10:00 19.4 C 96 % 18.75 C
1132 09-08-2019 22:15:00 19.4 C 96 % 18.75 C
1133 09-08-2019 22:20:00 19.4 C 96 % 18.75 C
1134 09-08-2019 22:25:00 19.4 C 96 % 18.75 C
1135 09-08-2019 22:30:00 19.3 C 96 % 18.65 C
1136 09-08-2019 22:35:00 19.3 C 96 % 18.65 C
1137 09-08-2019 22:40:00 19.2 C 96 % 18.55 C
1138 09-08-2019 22:45:00 19.2 C 96 % 18.55 C
1139 09-08-2019 22:50:00 19.2 C 96 % 18.55 C
1140 09-08-2019 22:55:00 19.1 C 96 % 18.45 C
1141 09-08-2019 23:00:00 19.1 C 96 % 18.45 C
1142 09-08-2019 23:05:00 19.1 C 96 % 18.45 C
1143 09-08-2019 23:10:00 19.1 C 96 % 18.45 C
1144 09-08-2019 23:15:00 19 C 96 % 18.35 C
1145 09-08-2019 23:20:00 18.9 C 96 % 18.25 C
1146 09-08-2019 23:25:00 18.8 C 96 % 18.15 C
1147 09-08-2019 23:30:00 18.8 C 96 % 18.15 C
1148 09-08-2019 23:35:00 18.8 C 96 % 18.15 C
1149 09-08-2019 23:40:00 18.7 C 96 % 18.05 C
1150 09-08-2019 23:45:00 18.7 C 96 % 18.05 C
Sensor: Nr:Datum:Temp:Feuchte:Taupunkt:
Aussen-T/F 1151 09-08-2019 23:50:00 18.7 C 96 % 18.05 C
1152 09-08-2019 23:55:00 18.7 C 96 % 18.05 C
1153 10-08-2019 00:00:00 18.6 C 96 % 17.95 C
1154 10-08-2019 00:05:00 18.6 C 96 % 17.95 C
1155 10-08-2019 00:10:00 18.6 C 96 % 17.95 C
1156 10-08-2019 00:15:00 18.7 C 96 % 18.05 C
1157 10-08-2019 00:20:00 18.8 C 96 % 18.15 C
1158 10-08-2019 00:25:00 18.8 C 97 % 18.31 C
1159 10-08-2019 00:30:00 18.8 C 97 % 18.31 C
1160 10-08-2019 00:35:00 18.8 C 97 % 18.31 C
1161 10-08-2019 00:40:00 18.9 C 97 % 18.41 C
1162 10-08-2019 00:45:00 18.9 C 97 % 18.41 C
1163 10-08-2019 00:50:00 18.9 C 97 % 18.41 C
1164 10-08-2019 00:55:00 18.9 C 97 % 18.41 C
1165 10-08-2019 01:00:00 18.9 C 97 % 18.41 C
1166 10-08-2019 01:05:00 18.9 C 97 % 18.41 C
1167 10-08-2019 01:10:00 18.9 C 97 % 18.41 C
1168 10-08-2019 01:15:00 18.8 C 97 % 18.31 C
1169 10-08-2019 01:20:00 18.8 C 97 % 18.31 C
1170 10-08-2019 01:25:00 18.7 C 96 % 18.05 C
1171 10-08-2019 01:30:00 18.7 C 97 % 18.21 C
1172 10-08-2019 01:35:00 18.7 C 97 % 18.21 C
1173 10-08-2019 01:40:00 18.6 C 97 % 18.11 C
1174 10-08-2019 01:45:00 18.6 C 97 % 18.11 C
1175 10-08-2019 01:50:00 18.6 C 97 % 18.11 C
Sensor: Nr:Datum:Temp:Feuchte:Taupunkt:
Aussen-T/F 1176 10-08-2019 01:55:00 18.6 C 97 % 18.11 C
1177 10-08-2019 02:00:00 18.6 C 97 % 18.11 C
1178 10-08-2019 02:05:00 18.7 C 97 % 18.21 C
1179 10-08-2019 02:10:00 18.6 C 97 % 18.11 C
1180 10-08-2019 02:15:00 18.6 C 97 % 18.11 C
1181 10-08-2019 02:20:00 18.5 C 97 % 18.01 C
1182 10-08-2019 02:25:00 18.4 C 97 % 17.91 C
1183 10-08-2019 02:30:00 18.4 C 97 % 17.91 C
1184 10-08-2019 02:35:00 18.4 C 97 % 17.91 C
1185 10-08-2019 02:40:00 18.5 C 97 % 18.01 C
1186 10-08-2019 02:45:00 18.5 C 97 % 18.01 C
1187 10-08-2019 02:50:00 18.5 C 97 % 18.01 C
1188 10-08-2019 02:55:00 18.4 C 97 % 17.91 C
1189 10-08-2019 03:00:00 18.4 C 97 % 17.91 C
1190 10-08-2019 03:05:00 18.4 C 97 % 17.91 C
1191 10-08-2019 03:10:00 18.3 C 97 % 17.82 C
1192 10-08-2019 03:15:00 18.3 C 97 % 17.82 C
1193 10-08-2019 03:20:00 18.3 C 97 % 17.82 C
1194 10-08-2019 03:25:00 18.2 C 97 % 17.72 C
1195 10-08-2019 03:30:00 18.2 C 97 % 17.72 C
1196 10-08-2019 03:35:00 18.2 C 97 % 17.72 C
1197 10-08-2019 03:40:00 18.3 C 97 % 17.82 C
1198 10-08-2019 03:45:00 18.3 C 97 % 17.82 C
1199 10-08-2019 03:50:00 18.3 C 97 % 17.82 C
1200 10-08-2019 03:55:00 18.3 C 97 % 17.82 C
Sensor: Nr:Datum:Temp:Feuchte:Taupunkt:
Aussen-T/F 1201 10-08-2019 04:00:00 18.3 C 97 % 17.82 C
1202 10-08-2019 04:05:00 18.3 C 97 % 17.82 C
1203 10-08-2019 04:10:00 18.4 C 97 % 17.91 C
1204 10-08-2019 04:15:00 18.4 C 97 % 17.91 C
1205 10-08-2019 04:20:00 18.3 C 97 % 17.82 C
1206 10-08-2019 04:25:00 18.2 C 97 % 17.72 C
1207 10-08-2019 04:30:00 18.1 C 97 % 17.62 C
1208 10-08-2019 04:35:00 18 C 97 % 17.52 C
1209 10-08-2019 04:40:00 17.9 C 97 % 17.42 C
1210 10-08-2019 04:45:00 17.9 C 97 % 17.42 C
1211 10-08-2019 04:50:00 17.8 C 97 % 17.32 C
1212 10-08-2019 04:55:00 17.8 C 97 % 17.32 C
1213 10-08-2019 05:00:00 17.7 C 97 % 17.22 C
1214 10-08-2019 05:05:00 17.6 C 97 % 17.12 C
1215 10-08-2019 05:10:00 17.6 C 97 % 17.12 C
1216 10-08-2019 05:15:00 17.6 C 97 % 17.12 C
1217 10-08-2019 05:20:00 17.5 C 97 % 17.02 C
1218 10-08-2019 05:25:00 17.5 C 97 % 17.02 C
1219 10-08-2019 05:30:00 17.5 C 97 % 17.02 C
1220 10-08-2019 05:35:00 17.5 C 97 % 17.02 C
1221 10-08-2019 05:40:00 17.5 C 97 % 17.02 C
1222 10-08-2019 05:45:00 17.5 C 97 % 17.02 C
1223 10-08-2019 05:50:00 17.5 C 97 % 17.02 C
1224 10-08-2019 05:55:00 17.4 C 97 % 16.92 C
1225 10-08-2019 06:00:00 17.4 C 97 % 16.92 C
Sensor: Nr:Datum:Temp:Feuchte:Taupunkt:
Aussen-T/F 1226 10-08-2019 06:05:00 17.5 C 97 % 17.02 C
1227 10-08-2019 06:10:00 17.5 C 97 % 17.02 C
1228 10-08-2019 06:15:00 17.5 C 97 % 17.02 C
1229 10-08-2019 06:20:00 17.5 C 97 % 17.02 C
1230 10-08-2019 06:25:00 17.5 C 97 % 17.02 C
1231 10-08-2019 06:30:00 17.5 C 97 % 17.02 C
1232 10-08-2019 06:35:00 17.5 C 97 % 17.02 C
1233 10-08-2019 06:40:00 17.4 C 97 % 16.92 C
1234 10-08-2019 06:45:00 17.4 C 97 % 16.92 C
1235 10-08-2019 06:50:00 17.4 C 97 % 16.92 C
1236 10-08-2019 06:55:00 17.3 C 97 % 16.82 C
1237 10-08-2019 07:00:00 17.3 C 97 % 16.82 C
1238 10-08-2019 07:05:00 17.3 C 97 % 16.82 C
1239 10-08-2019 07:10:00 17.3 C 97 % 16.82 C
1240 10-08-2019 07:15:00 17.3 C 97 % 16.82 C
1241 10-08-2019 07:20:00 17.3 C 97 % 16.82 C
1242 10-08-2019 07:25:00 17.3 C 97 % 16.82 C
1243 10-08-2019 07:30:00 17.3 C 97 % 16.82 C
1244 10-08-2019 07:35:00 17.3 C 97 % 16.82 C
1245 10-08-2019 07:40:00 17.3 C 97 % 16.82 C
1246 10-08-2019 07:45:00 17.4 C 97 % 16.92 C
1247 10-08-2019 07:50:00 17.4 C 97 % 16.92 C
1248 10-08-2019 07:55:00 17.5 C 97 % 17.02 C
1249 10-08-2019 08:00:00 17.6 C 97 % 17.12 C
1250 10-08-2019 08:05:00 17.4 C 97 % 16.92 C
Sensor: Nr:Datum:Temp:Feuchte:Taupunkt:
Aussen-T/F 1251 10-08-2019 08:10:00 17.2 C 97 % 16.72 C
1252 10-08-2019 08:15:00 17.1 C 96 % 16.46 C
1253 10-08-2019 08:20:00 17.2 C 96 % 16.56 C
1254 10-08-2019 08:25:00 17.2 C 96 % 16.56 C
1255 10-08-2019 08:30:00 17.2 C 96 % 16.56 C
1256 10-08-2019 08:35:00 17.3 C 95 % 16.49 C
1257 10-08-2019 08:40:00 17.4 C 94 % 16.42 C
1258 10-08-2019 08:45:00 17.7 C 93 % 16.55 C
1259 10-08-2019 08:50:00 17.8 C 92 % 16.48 C
1260 10-08-2019 08:55:00 17.9 C 92 % 16.58 C
1261 10-08-2019 09:00:00 18.2 C 90 % 16.53 C
1262 10-08-2019 09:05:00 18.6 C 89 % 16.75 C
1263 10-08-2019 09:10:00 18.8 C 89 % 16.95 C
1264 10-08-2019 09:15:00 18.9 C 87 % 16.69 C
1265 10-08-2019 09:20:00 19 C 86 % 16.6 C
1266 10-08-2019 09:25:00 19.1 C 85 % 16.52 C
1267 10-08-2019 09:30:00 19.2 C 86 % 16.8 C
1268 10-08-2019 09:35:00 19.3 C 85 % 16.72 C
1269 10-08-2019 09:40:00 19.4 C 85 % 16.81 C
1270 10-08-2019 09:45:00 19.6 C 84 % 16.82 C
1271 10-08-2019 09:50:00 19.7 C 83 % 16.73 C
1272 10-08-2019 09:55:00 19.7 C 83 % 16.73 C
1273 10-08-2019 10:00:00 19.8 C 82 % 16.64 C
1274 10-08-2019 10:05:00 19.9 C 82 % 16.74 C
1275 10-08-2019 10:10:00 20.1 C 81 % 16.74 C
Sensor: Nr:Datum:Temp:Feuchte:Taupunkt:
Aussen-T/F 1276 10-08-2019 10:15:00 20.2 C 81 % 16.84 C
1277 10-08-2019 10:20:00 20.2 C 80 % 16.64 C
1278 10-08-2019 10:25:00 20.3 C 80 % 16.74 C
1279 10-08-2019 10:30:00 20.3 C 80 % 16.74 C
1280 10-08-2019 10:35:00 20.4 C 80 % 16.83 C
1281 10-08-2019 10:40:00 20.6 C 80 % 17.03 C
1282 10-08-2019 10:45:00 20.7 C 77 % 16.52 C
1283 10-08-2019 10:50:00 20.8 C 75 % 16.21 C
1284 10-08-2019 10:55:00 21.1 C 76 % 16.7 C
1285 10-08-2019 11:00:00 21.3 C 76 % 16.9 C
1286 10-08-2019 11:05:00 21.6 C 78 % 17.6 C
1287 10-08-2019 11:10:00 21.6 C 74 % 16.77 C
1288 10-08-2019 11:15:00 21.6 C 73 % 16.55 C
1289 10-08-2019 11:20:00 21.4 C 73 % 16.36 C
1290 10-08-2019 11:25:00 21.2 C 74 % 16.38 C
1291 10-08-2019 11:30:00 21.2 C 74 % 16.38 C
1292 10-08-2019 11:35:00 21.3 C 75 % 16.69 C
1293 10-08-2019 11:40:00 21.4 C 74 % 16.57 C
1294 10-08-2019 11:45:00 21.5 C 73 % 16.46 C
1295 10-08-2019 11:50:00 21.5 C 74 % 16.67 C
1296 10-08-2019 11:55:00 21.6 C 74 % 16.77 C
1297 10-08-2019 12:00:00 21.6 C 72 % 16.34 C
1298 10-08-2019 12:05:00 21.7 C 72 % 16.43 C
1299 10-08-2019 12:10:00 21.8 C 72 % 16.53 C
1300 10-08-2019 12:15:00 22.1 C 72 % 16.82 C
Sensor: Nr:Datum:Temp:Feuchte:Taupunkt:
Aussen-T/F 1301 10-08-2019 12:20:00 22.3 C 70 % 16.56 C
1302 10-08-2019 12:25:00 22.4 C 68 % 16.2 C
1303 10-08-2019 12:30:00 22.6 C 69 % 16.62 C
1304 10-08-2019 12:35:00 22.7 C 68 % 16.49 C
1305 10-08-2019 12:40:00 22.8 C 67 % 16.35 C
1306 10-08-2019 12:45:00 22.9 C 67 % 16.45 C
1307 10-08-2019 12:50:00 22.9 C 65 % 15.97 C
1308 10-08-2019 12:55:00 22.8 C 66 % 16.12 C
1309 10-08-2019 13:00:00 22.8 C 65 % 15.88 C
1310 10-08-2019 13:05:00 22.9 C 65 % 15.97 C
1311 10-08-2019 13:10:00 23.1 C 63 % 15.67 C
1312 10-08-2019 13:15:00 23.3 C 64 % 16.11 C
1313 10-08-2019 13:20:00 23.4 C 62 % 15.71 C
1314 10-08-2019 13:25:00 23.4 C 64 % 16.2 C
1315 10-08-2019 13:30:00 23.4 C 64 % 16.2 C
1316 10-08-2019 13:35:00 23.4 C 63 % 15.96 C
1317 10-08-2019 13:40:00 23.6 C 63 % 16.14 C
1318 10-08-2019 13:45:00 23.5 C 62 % 15.8 C
1319 10-08-2019 13:50:00 23.3 C 63 % 15.86 C
1320 10-08-2019 13:55:00 23.1 C 63 % 15.67 C
1321 10-08-2019 14:00:00 23.1 C 63 % 15.67 C
1322 10-08-2019 14:05:00 23.4 C 62 % 15.71 C
1323 10-08-2019 14:10:00 23.6 C 62 % 15.89 C
1324 10-08-2019 14:15:00 23.7 C 61 % 15.73 C
1325 10-08-2019 14:20:00 23.8 C 62 % 16.08 C
Sensor: Nr:Datum:Temp:Feuchte:Taupunkt:
Aussen-T/F 1326 10-08-2019 14:25:00 24 C 59 % 15.5 C
1327 10-08-2019 14:30:00 23.9 C 62 % 16.18 C
1328 10-08-2019 14:35:00 23.8 C 62 % 16.08 C
1329 10-08-2019 14:40:00 24 C 60 % 15.76 C
1330 10-08-2019 14:45:00 24.1 C 60 % 15.85 C
1331 10-08-2019 14:50:00 24.2 C 58 % 15.42 C
1332 10-08-2019 14:55:00 24.4 C 58 % 15.6 C
1333 10-08-2019 15:00:00 24.6 C 57 % 15.52 C
1334 10-08-2019 15:05:00 24.6 C 55 % 14.96 C
1335 10-08-2019 15:10:00 24.6 C 57 % 15.52 C
1336 10-08-2019 15:15:00 24.8 C 57 % 15.7 C
1337 10-08-2019 15:20:00 25.1 C 55 % 15.43 C
1338 10-08-2019 15:25:00 24.9 C 55 % 15.24 C
1339 10-08-2019 15:30:00 24.7 C 56 % 15.33 C
1340 10-08-2019 15:35:00 24.8 C 59 % 16.24 C
1341 10-08-2019 15:40:00 25.2 C 55 % 15.52 C
1342 10-08-2019 15:45:00 25.5 C 54 % 15.51 C
1343 10-08-2019 15:50:00 25.7 C 52 % 15.11 C
1344 10-08-2019 15:55:00 25.4 C 53 % 15.13 C
1345 10-08-2019 16:00:00 25.1 C 55 % 15.43 C
1346 10-08-2019 16:05:00 25.2 C 53 % 14.94 C
1347 10-08-2019 16:10:00 24.9 C 52 % 14.37 C
1348 10-08-2019 16:15:00 24.8 C 54 % 14.86 C
1349 10-08-2019 16:20:00 25.3 C 53 % 15.03 C
1350 10-08-2019 16:25:00 25.6 C 55 % 15.89 C
Sensor: Nr:Datum:Temp:Feuchte:Taupunkt:
Aussen-T/F 1351 10-08-2019 16:30:00 25.7 C 52 % 15.11 C
1352 10-08-2019 16:35:00 25.4 C 52 % 14.83 C
1353 10-08-2019 16:40:00 25.1 C 55 % 15.43 C
1354 10-08-2019 16:45:00 25.1 C 53 % 14.85 C
1355 10-08-2019 16:50:00 25.3 C 58 % 16.44 C
1356 10-08-2019 16:55:00 25.4 C 50 % 14.22 C
1357 10-08-2019 17:00:00 25.8 C 52 % 15.2 C
1358 10-08-2019 17:05:00 25.8 C 49 % 14.28 C
1359 10-08-2019 17:10:00 25.7 C 49 % 14.19 C
1360 10-08-2019 17:15:00 25.9 C 50 % 14.68 C
1361 10-08-2019 17:20:00 26.2 C 51 % 15.27 C
1362 10-08-2019 17:25:00 26.4 C 48 % 14.51 C
1363 10-08-2019 17:30:00 26.6 C 50 % 15.32 C
1364 10-08-2019 17:35:00 26.8 C 48 % 14.87 C
1365 10-08-2019 17:40:00 26.8 C 47 % 14.55 C
1366 10-08-2019 17:45:00 26.7 C 47 % 14.45 C
1367 10-08-2019 17:50:00 26.4 C 49 % 14.83 C
1368 10-08-2019 17:55:00 26.4 C 51 % 15.45 C
1369 10-08-2019 18:00:00 26.8 C 48 % 14.87 C
1370 10-08-2019 18:05:00 26.7 C 46 % 14.12 C
1371 10-08-2019 18:10:00 26.4 C 47 % 14.18 C
1372 10-08-2019 18:15:00 26.4 C 47 % 14.18 C
1373 10-08-2019 18:20:00 26.3 C 48 % 14.42 C
1374 10-08-2019 18:25:00 26.2 C 51 % 15.27 C
1375 10-08-2019 18:30:00 25.9 C 49 % 14.37 C
Sensor: Nr:Datum:Temp:Feuchte:Taupunkt:
Aussen-T/F 1376 10-08-2019 18:35:00 25.5 C 49 % 14 C
1377 10-08-2019 18:40:00 25.2 C 50 % 14.04 C
1378 10-08-2019 18:45:00 25.2 C 52 % 14.65 C
1379 10-08-2019 18:50:00 25.5 C 50 % 14.32 C
1380 10-08-2019 18:55:00 25.8 C 52 % 15.2 C
1381 10-08-2019 19:00:00 25.8 C 49 % 14.28 C
1382 10-08-2019 19:05:00 25.9 C 47 % 13.73 C
1383 10-08-2019 19:10:00 25.8 C 47 % 13.64 C
1384 10-08-2019 19:15:00 25.7 C 48 % 13.87 C
1385 10-08-2019 19:20:00 25.5 C 48 % 13.69 C
1386 10-08-2019 19:25:00 25.1 C 49 % 13.64 C
1387 10-08-2019 19:30:00 24.9 C 51 % 14.07 C
1388 10-08-2019 19:35:00 24.8 C 49 % 13.36 C
1389 10-08-2019 19:40:00 24.4 C 50 % 13.31 C
1390 10-08-2019 19:45:00 24.2 C 53 % 14.02 C
1391 10-08-2019 19:50:00 24.1 C 52 % 13.63 C
1392 10-08-2019 19:55:00 23.9 C 53 % 13.74 C
1393 10-08-2019 20:00:00 23.9 C 52 % 13.45 C
1394 10-08-2019 20:05:00 23.8 C 52 % 13.36 C
1395 10-08-2019 20:10:00 23.8 C 55 % 14.22 C
1396 10-08-2019 20:15:00 23.7 C 56 % 14.4 C
1397 10-08-2019 20:20:00 23.4 C 60 % 15.19 C
1398 10-08-2019 20:25:00 23 C 62 % 15.33 C
1399 10-08-2019 20:30:00 22.7 C 64 % 15.54 C
1400 10-08-2019 20:35:00 22.2 C 66 % 15.55 C
Sensor: Nr:Datum:Temp:Feuchte:Taupunkt:
Aussen-T/F 1401 10-08-2019 20:40:00 21.8 C 64 % 14.69 C
1402 10-08-2019 20:45:00 21.4 C 67 % 15.02 C
1403 10-08-2019 20:50:00 21.1 C 68 % 14.97 C
1404 10-08-2019 20:55:00 20.8 C 69 % 14.91 C
1405 10-08-2019 21:00:00 20.5 C 69 % 14.62 C
1406 10-08-2019 21:05:00 20.2 C 68 % 14.11 C
1407 10-08-2019 21:10:00 20 C 71 % 14.58 C
1408 10-08-2019 21:15:00 19.8 C 71 % 14.39 C
1409 10-08-2019 21:20:00 19.6 C 71 % 14.2 C
1410 10-08-2019 21:25:00 19.4 C 72 % 14.22 C
1411 10-08-2019 21:30:00 19.3 C 73 % 14.34 C
1412 10-08-2019 21:35:00 19.1 C 74 % 14.36 C
1413 10-08-2019 21:40:00 19 C 75 % 14.47 C
1414 10-08-2019 21:45:00 18.8 C 75 % 14.28 C
1415 10-08-2019 21:50:00 18.7 C 76 % 14.39 C
1416 10-08-2019 21:55:00 18.6 C 77 % 14.49 C
1417 10-08-2019 22:00:00 18.4 C 76 % 14.1 C
1418 10-08-2019 22:05:00 18.3 C 77 % 14.2 C
1419 10-08-2019 22:10:00 18.2 C 77 % 14.1 C
1420 10-08-2019 22:15:00 18.1 C 79 % 14.4 C
1421 10-08-2019 22:20:00 17.9 C 79 % 14.21 C
1422 10-08-2019 22:25:00 17.7 C 78 % 13.82 C
1423 10-08-2019 22:30:00 17.6 C 79 % 13.92 C
1424 10-08-2019 22:35:00 17.4 C 79 % 13.72 C
1425 10-08-2019 22:40:00 17.3 C 79 % 13.63 C
Sensor: Nr:Datum:Temp:Feuchte:Taupunkt:
Aussen-T/F 1426 10-08-2019 22:45:00 17.3 C 80 % 13.82 C
1427 10-08-2019 22:50:00 17.2 C 81 % 13.91 C
1428 10-08-2019 22:55:00 17.2 C 81 % 13.91 C
1429 10-08-2019 23:00:00 17.1 C 81 % 13.82 C
1430 10-08-2019 23:05:00 16.9 C 81 % 13.62 C
1431 10-08-2019 23:10:00 16.8 C 82 % 13.71 C
1432 10-08-2019 23:15:00 16.7 C 82 % 13.61 C
1433 10-08-2019 23:20:00 16.6 C 82 % 13.52 C
1434 10-08-2019 23:25:00 16.4 C 81 % 13.13 C
1435 10-08-2019 23:30:00 16.3 C 81 % 13.04 C
1436 10-08-2019 23:35:00 16.2 C 82 % 13.13 C
1437 10-08-2019 23:40:00 16.2 C 83 % 13.31 C
1438 10-08-2019 23:45:00 16.1 C 83 % 13.21 C
1439 10-08-2019 23:50:00 16.1 C 83 % 13.21 C
1440 10-08-2019 23:55:00 16.1 C 83 % 13.21 C
1441 11-08-2019 00:00:00 16 C 84 % 13.3 C
1442 11-08-2019 00:05:00 15.9 C 85 % 13.38 C
1443 11-08-2019 00:10:00 15.9 C 85 % 13.38 C
1444 11-08-2019 00:15:00 15.8 C 85 % 13.28 C
1445 11-08-2019 00:20:00 15.8 C 84 % 13.1 C
1446 11-08-2019 00:25:00 15.8 C 85 % 13.28 C
1447 11-08-2019 00:30:00 15.7 C 84 % 13.01 C
1448 11-08-2019 00:35:00 15.7 C 85 % 13.19 C
1449 11-08-2019 00:40:00 15.7 C 85 % 13.19 C
1450 11-08-2019 00:45:00 15.6 C 85 % 13.09 C
Sensor: Nr:Datum:Temp:Feuchte:Taupunkt:
Aussen-T/F 1451 11-08-2019 00:50:00 15.6 C 85 % 13.09 C
1452 11-08-2019 00:55:00 15.6 C 86 % 13.27 C
1453 11-08-2019 01:00:00 15.6 C 87 % 13.45 C
1454 11-08-2019 01:05:00 15.6 C 87 % 13.45 C
1455 11-08-2019 01:10:00 15.5 C 87 % 13.35 C
1456 11-08-2019 01:15:00 15.4 C 87 % 13.25 C
1457 11-08-2019 01:20:00 15.4 C 87 % 13.25 C
1458 11-08-2019 01:25:00 15.4 C 87 % 13.25 C
1459 11-08-2019 01:30:00 15.3 C 87 % 13.15 C
1460 11-08-2019 01:35:00 15.3 C 87 % 13.15 C
1461 11-08-2019 01:40:00 15.2 C 88 % 13.23 C
1462 11-08-2019 01:45:00 15.2 C 88 % 13.23 C
1463 11-08-2019 01:50:00 15.3 C 88 % 13.33 C
1464 11-08-2019 01:55:00 15.3 C 88 % 13.33 C
1465 11-08-2019 02:00:00 15.4 C 88 % 13.42 C
1466 11-08-2019 02:05:00 15.5 C 87 % 13.35 C
1467 11-08-2019 02:10:00 15.6 C 87 % 13.45 C
1468 11-08-2019 02:15:00 15.7 C 87 % 13.54 C
1469 11-08-2019 02:20:00 15.7 C 87 % 13.54 C
1470 11-08-2019 02:25:00 15.8 C 86 % 13.46 C
1471 11-08-2019 02:30:00 15.8 C 86 % 13.46 C
1472 11-08-2019 02:35:00 15.8 C 87 % 13.64 C
1473 11-08-2019 02:40:00 15.8 C 86 % 13.46 C
1474 11-08-2019 02:45:00 15.8 C 86 % 13.46 C
1475 11-08-2019 02:50:00 15.8 C 86 % 13.46 C
Sensor: Nr:Datum:Temp:Feuchte:Taupunkt:
Aussen-T/F 1476 11-08-2019 02:55:00 15.7 C 85 % 13.19 C
1477 11-08-2019 03:00:00 15.7 C 85 % 13.19 C
1478 11-08-2019 03:05:00 15.6 C 85 % 13.09 C
1479 11-08-2019 03:10:00 15.6 C 86 % 13.27 C
1480 11-08-2019 03:15:00 15.4 C 86 % 13.07 C
1481 11-08-2019 03:20:00 15.3 C 86 % 12.97 C
1482 11-08-2019 03:25:00 15.2 C 86 % 12.88 C
1483 11-08-2019 03:30:00 15.1 C 87 % 12.95 C
1484 11-08-2019 03:35:00 15.1 C 87 % 12.95 C
1485 11-08-2019 03:40:00 15 C 87 % 12.86 C
1486 11-08-2019 03:45:00 14.9 C 87 % 12.76 C
1487 11-08-2019 03:50:00 14.8 C 88 % 12.83 C
1488 11-08-2019 03:55:00 14.8 C 88 % 12.83 C
1489 11-08-2019 04:00:00 14.7 C 88 % 12.73 C
1490 11-08-2019 04:05:00 14.7 C 88 % 12.73 C
1491 11-08-2019 04:10:00 14.6 C 88 % 12.64 C
1492 11-08-2019 04:15:00 14.6 C 88 % 12.64 C
1493 11-08-2019 04:20:00 14.6 C 88 % 12.64 C
1494 11-08-2019 04:25:00 14.5 C 88 % 12.54 C
1495 11-08-2019 04:30:00 14.4 C 88 % 12.44 C
1496 11-08-2019 04:35:00 14.3 C 88 % 12.34 C
1497 11-08-2019 04:40:00 14.2 C 89 % 12.41 C
1498 11-08-2019 04:45:00 14.2 C 89 % 12.41 C
1499 11-08-2019 04:50:00 14.2 C 89 % 12.41 C
1500 11-08-2019 04:55:00 14.2 C 89 % 12.41 C
Sensor: Nr:Datum:Temp:Feuchte:Taupunkt:
Aussen-T/F 1501 11-08-2019 05:00:00 14.1 C 89 % 12.32 C
1502 11-08-2019 05:05:00 13.9 C 89 % 12.12 C
1503 11-08-2019 05:10:00 13.8 C 90 % 12.19 C
1504 11-08-2019 05:15:00 13.7 C 90 % 12.09 C
1505 11-08-2019 05:20:00 13.7 C 90 % 12.09 C
1506 11-08-2019 05:25:00 13.6 C 90 % 11.99 C
1507 11-08-2019 05:30:00 13.6 C 90 % 11.99 C
1508 11-08-2019 05:35:00 13.4 C 90 % 11.79 C
1509 11-08-2019 05:40:00 13.3 C 91 % 11.86 C
1510 11-08-2019 05:45:00 13.3 C 91 % 11.86 C
1511 11-08-2019 05:50:00 13.3 C 91 % 11.86 C
1512 11-08-2019 05:55:00 13.3 C 91 % 11.86 C
1513 11-08-2019 06:00:00 13.2 C 91 % 11.76 C
1514 11-08-2019 06:05:00 13.2 C 92 % 11.93 C
1515 11-08-2019 06:10:00 13.1 C 92 % 11.83 C
1516 11-08-2019 06:15:00 13.1 C 92 % 11.83 C
1517 11-08-2019 06:20:00 13.2 C 93 % 12.09 C
1518 11-08-2019 06:25:00 13.3 C 93 % 12.19 C
1519 11-08-2019 06:30:00 13.5 C 94 % 12.55 C
1520 11-08-2019 06:35:00 13.6 C 93 % 12.49 C
1521 11-08-2019 06:40:00 13.6 C 93 % 12.49 C
1522 11-08-2019 06:45:00 13.7 C 93 % 12.59 C
1523 11-08-2019 06:50:00 13.7 C 93 % 12.59 C
1524 11-08-2019 06:55:00 13.7 C 93 % 12.59 C
1525 11-08-2019 07:00:00 13.7 C 93 % 12.59 C
Sensor: Nr:Datum:Temp:Feuchte:Taupunkt:
Aussen-T/F 1526 11-08-2019 07:05:00 13.8 C 93 % 12.69 C
1527 11-08-2019 07:10:00 13.8 C 93 % 12.69 C
1528 11-08-2019 07:15:00 13.8 C 92 % 12.52 C
1529 11-08-2019 07:20:00 13.9 C 93 % 12.79 C
1530 11-08-2019 07:25:00 13.9 C 93 % 12.79 C
1531 11-08-2019 07:30:00 14.1 C 92 % 12.82 C
1532 11-08-2019 07:35:00 14.3 C 92 % 13.02 C
1533 11-08-2019 07:40:00 14.3 C 92 % 13.02 C
1534 11-08-2019 07:45:00 14.3 C 91 % 12.85 C
1535 11-08-2019 07:50:00 14.3 C 91 % 12.85 C
1536 11-08-2019 07:55:00 14.3 C 92 % 13.02 C
1537 11-08-2019 08:00:00 14.4 C 92 % 13.12 C
1538 11-08-2019 08:05:00 14.6 C 92 % 13.32 C
1539 11-08-2019 08:10:00 14.7 C 92 % 13.41 C
1540 11-08-2019 08:15:00 14.8 C 92 % 13.51 C
1541 11-08-2019 08:20:00 14.8 C 92 % 13.51 C
1542 11-08-2019 08:25:00 14.9 C 91 % 13.44 C
1543 11-08-2019 08:30:00 14.9 C 91 % 13.44 C
1544 11-08-2019 08:35:00 15 C 91 % 13.54 C
1545 11-08-2019 08:40:00 15.1 C 90 % 13.47 C
1546 11-08-2019 08:45:00 15.1 C 91 % 13.64 C
1547 11-08-2019 08:50:00 15.2 C 91 % 13.74 C
1548 11-08-2019 08:55:00 15.3 C 91 % 13.84 C
1549 11-08-2019 09:00:00 15.3 C 90 % 13.67 C
1550 11-08-2019 09:05:00 15.3 C 90 % 13.67 C
Sensor: Nr:Datum:Temp:Feuchte:Taupunkt:
Aussen-T/F 1551 11-08-2019 09:10:00 15.4 C 90 % 13.77 C
1552 11-08-2019 09:15:00 15.6 C 91 % 14.14 C
1553 11-08-2019 09:20:00 15.8 C 90 % 14.16 C
1554 11-08-2019 09:25:00 15.9 C 89 % 14.09 C
1555 11-08-2019 09:30:00 16.2 C 86 % 13.86 C
1556 11-08-2019 09:35:00 16.6 C 86 % 14.25 C
1557 11-08-2019 09:40:00 16.8 C 86 % 14.45 C
1558 11-08-2019 09:45:00 16.9 C 84 % 14.18 C
1559 11-08-2019 09:50:00 17.2 C 82 % 14.1 C
1560 11-08-2019 09:55:00 17.6 C 81 % 14.3 C
1561 11-08-2019 10:00:00 17.9 C 78 % 14.01 C
1562 11-08-2019 10:05:00 18.3 C 75 % 13.79 C
1563 11-08-2019 10:10:00 18.7 C 75 % 14.18 C
1564 11-08-2019 10:15:00 18.8 C 75 % 14.28 C
1565 11-08-2019 10:20:00 18.9 C 72 % 13.74 C
1566 11-08-2019 10:25:00 19.2 C 71 % 13.82 C
1567 11-08-2019 10:30:00 19.5 C 68 % 13.44 C
1568 11-08-2019 10:35:00 19.8 C 68 % 13.73 C
1569 11-08-2019 10:40:00 20.1 C 65 % 13.32 C
1570 11-08-2019 10:45:00 20.3 C 64 % 13.27 C
1571 11-08-2019 10:50:00 20.4 C 63 % 13.12 C
1572 11-08-2019 10:55:00 20.6 C 63 % 13.31 C
1573 11-08-2019 11:00:00 20.7 C 62 % 13.16 C
1574 11-08-2019 11:05:00 20.7 C 61 % 12.91 C
1575 11-08-2019 11:10:00 20.8 C 60 % 12.76 C
Sensor: Nr:Datum:Temp:Feuchte:Taupunkt:
Aussen-T/F 1576 11-08-2019 11:15:00 20.8 C 60 % 12.76 C
1577 11-08-2019 11:20:00 20.9 C 60 % 12.85 C
1578 11-08-2019 11:25:00 21.2 C 60 % 13.13 C
1579 11-08-2019 11:30:00 21.3 C 62 % 13.73 C
1580 11-08-2019 11:35:00 21.6 C 59 % 13.25 C
1581 11-08-2019 11:40:00 21.8 C 57 % 12.91 C
1582 11-08-2019 11:45:00 21.8 C 55 % 12.36 C
1583 11-08-2019 11:50:00 21.8 C 59 % 13.44 C
1584 11-08-2019 11:55:00 21.8 C 56 % 12.64 C
1585 11-08-2019 12:00:00 21.8 C 58 % 13.17 C
1586 11-08-2019 12:05:00 21.8 C 58 % 13.17 C
1587 11-08-2019 12:10:00 21.8 C 58 % 13.17 C
1588 11-08-2019 12:15:00 22 C 56 % 12.82 C
1589 11-08-2019 12:20:00 22.1 C 57 % 13.19 C
1590 11-08-2019 12:25:00 22.2 C 55 % 12.73 C
1591 11-08-2019 12:30:00 22.1 C 55 % 12.64 C
1592 11-08-2019 12:35:00 22.2 C 55 % 12.73 C
1593 11-08-2019 12:40:00 22.1 C 56 % 12.92 C
1594 11-08-2019 12:45:00 22.2 C 54 % 12.45 C
1595 11-08-2019 12:50:00 22.3 C 55 % 12.83 C
1596 11-08-2019 12:55:00 22.5 C 53 % 12.45 C
1597 11-08-2019 13:00:00 22.6 C 50 % 11.66 C
1598 11-08-2019 13:05:00 22.6 C 51 % 11.96 C
1599 11-08-2019 13:10:00 22.7 C 52 % 12.34 C
1600 11-08-2019 13:15:00 22.7 C 51 % 12.05 C
Sensor: Nr:Datum:Temp:Feuchte:Taupunkt:
Aussen-T/F 1601 11-08-2019 13:20:00 22.7 C 51 % 12.05 C
1602 11-08-2019 13:25:00 22.7 C 52 % 12.34 C
1603 11-08-2019 13:30:00 22.8 C 51 % 12.14 C
1604 11-08-2019 13:35:00 22.7 C 50 % 11.75 C
1605 11-08-2019 13:40:00 22.8 C 53 % 12.73 C
1606 11-08-2019 13:45:00 22.9 C 51 % 12.23 C
1607 11-08-2019 13:50:00 23 C 50 % 12.02 C
1608 11-08-2019 13:55:00 23.1 C 51 % 12.42 C
1609 11-08-2019 14:00:00 23.1 C 51 % 12.42 C
1610 11-08-2019 14:05:00 23.1 C 50 % 12.11 C
1611 11-08-2019 14:10:00 23.1 C 52 % 12.71 C
1612 11-08-2019 14:15:00 23.2 C 52 % 12.8 C
1613 11-08-2019 14:20:00 23.3 C 53 % 13.19 C
1614 11-08-2019 14:25:00 23.2 C 51 % 12.51 C
1615 11-08-2019 14:30:00 22.9 C 51 % 12.23 C
1616 11-08-2019 14:35:00 22.7 C 51 % 12.05 C
1617 11-08-2019 14:40:00 22.6 C 51 % 11.96 C
1618 11-08-2019 14:45:00 22.6 C 52 % 12.25 C
1619 11-08-2019 14:50:00 22.5 C 58 % 13.83 C
1620 11-08-2019 14:55:00 22.4 C 59 % 14 C
1621 11-08-2019 15:00:00 22.2 C 56 % 13.01 C
1622 11-08-2019 15:05:00 22 C 57 % 13.09 C
1623 11-08-2019 15:10:00 21.8 C 55 % 12.36 C
1624 11-08-2019 15:15:00 21.7 C 59 % 13.34 C
1625 11-08-2019 15:20:00 21.6 C 56 % 12.45 C
Sensor: Nr:Datum:Temp:Feuchte:Taupunkt:
Aussen-T/F 1626 11-08-2019 15:25:00 21.6 C 62 % 14.01 C
1627 11-08-2019 15:30:00 21.4 C 64 % 14.31 C
1628 11-08-2019 15:35:00 21.4 C 66 % 14.79 C
1629 11-08-2019 15:40:00 21.3 C 63 % 13.97 C
1630 11-08-2019 15:45:00 21.2 C 67 % 14.83 C
1631 11-08-2019 15:50:00 21 C 65 % 14.17 C
1632 11-08-2019 15:55:00 20.9 C 66 % 14.31 C
1633 11-08-2019 16:00:00 20.8 C 60 % 12.76 C
1634 11-08-2019 16:05:00 20.8 C 66 % 14.22 C
1635 11-08-2019 16:10:00 20.7 C 63 % 13.41 C
1636 11-08-2019 16:15:00 20.6 C 65 % 13.79 C
1637 11-08-2019 16:20:00 20.5 C 65 % 13.7 C
1638 11-08-2019 16:25:00 20.4 C 68 % 14.3 C
1639 11-08-2019 16:30:00 20.3 C 66 % 13.74 C
1640 11-08-2019 16:35:00 20.2 C 73 % 15.21 C
1641 11-08-2019 16:40:00 19.8 C 75 % 15.24 C
1642 11-08-2019 16:45:00 19.3 C 78 % 15.37 C
1643 11-08-2019 16:50:00 18.8 C 80 % 15.28 C
1644 11-08-2019 16:55:00 18.4 C 81 % 15.08 C
1645 11-08-2019 17:00:00 18.2 C 83 % 15.27 C
1646 11-08-2019 17:05:00 17.8 C 84 % 15.06 C
1647 11-08-2019 17:10:00 17.6 C 85 % 15.05 C
1648 11-08-2019 17:15:00 17.4 C 86 % 15.03 C
1649 11-08-2019 17:20:00 17.2 C 86 % 14.84 C
1650 11-08-2019 17:25:00 17.1 C 87 % 14.92 C
Sensor: Nr:Datum:Temp:Feuchte:Taupunkt:
Aussen-T/F 1651 11-08-2019 17:30:00 17 C 87 % 14.82 C
1652 11-08-2019 17:35:00 16.8 C 87 % 14.62 C
1653 11-08-2019 17:40:00 16.8 C 89 % 14.98 C
1654 11-08-2019 17:45:00 16.8 C 89 % 14.98 C
1655 11-08-2019 17:50:00 16.8 C 89 % 14.98 C
1656 11-08-2019 17:55:00 16.7 C 90 % 15.05 C
1657 11-08-2019 18:00:00 16.7 C 90 % 15.05 C
1658 11-08-2019 18:05:00 16.6 C 90 % 14.95 C
1659 11-08-2019 18:10:00 16.5 C 90 % 14.85 C
1660 11-08-2019 18:15:00 16.5 C 91 % 15.03 C
1661 11-08-2019 18:20:00 16.6 C 91 % 15.13 C
1662 11-08-2019 18:25:00 16.6 C 91 % 15.13 C
1663 11-08-2019 18:30:00 16.6 C 91 % 15.13 C
1664 11-08-2019 18:35:00 16.5 C 91 % 15.03 C
1665 11-08-2019 18:40:00 16.4 C 91 % 14.93 C
1666 11-08-2019 18:45:00 16.3 C 90 % 14.66 C
1667 11-08-2019 18:50:00 16.2 C 90 % 14.56 C
1668 11-08-2019 18:55:00 16.2 C 89 % 14.39 C
1669 11-08-2019 19:00:00 16.1 C 89 % 14.29 C
1670 11-08-2019 19:05:00 16.1 C 89 % 14.29 C
1671 11-08-2019 19:10:00 16 C 89 % 14.19 C
1672 11-08-2019 19:15:00 15.9 C 88 % 13.92 C
1673 11-08-2019 19:20:00 15.9 C 89 % 14.09 C
1674 11-08-2019 19:25:00 16 C 89 % 14.19 C
1675 11-08-2019 19:30:00 16.1 C 90 % 14.46 C
Sensor: Nr:Datum:Temp:Feuchte:Taupunkt:
Aussen-T/F 1676 11-08-2019 19:35:00 16.2 C 90 % 14.56 C
1677 11-08-2019 19:40:00 16.2 C 91 % 14.73 C
1678 11-08-2019 19:45:00 16.2 C 91 % 14.73 C
1679 11-08-2019 19:50:00 16.1 C 90 % 14.46 C
1680 11-08-2019 19:55:00 16.1 C 91 % 14.63 C
1681 11-08-2019 20:00:00 16.1 C 91 % 14.63 C
1682 11-08-2019 20:05:00 16 C 91 % 14.53 C
1683 11-08-2019 20:10:00 15.9 C 91 % 14.43 C
1684 11-08-2019 20:15:00 15.9 C 91 % 14.43 C
1685 11-08-2019 20:20:00 15.8 C 91 % 14.33 C
1686 11-08-2019 20:25:00 15.8 C 91 % 14.33 C
1687 11-08-2019 20:30:00 15.7 C 91 % 14.24 C
1688 11-08-2019 20:35:00 15.7 C 91 % 14.24 C
1689 11-08-2019 20:40:00 15.6 C 91 % 14.14 C
1690 11-08-2019 20:45:00 15.6 C 91 % 14.14 C
1691 11-08-2019 20:50:00 15.6 C 91 % 14.14 C
1692 11-08-2019 20:55:00 15.6 C 91 % 14.14 C
1693 11-08-2019 21:00:00 15.5 C 91 % 14.04 C
1694 11-08-2019 21:05:00 15.4 C 92 % 14.11 C
1695 11-08-2019 21:10:00 15.4 C 92 % 14.11 C
1696 11-08-2019 21:15:00 15.4 C 92 % 14.11 C
1697 11-08-2019 21:20:00 15.3 C 92 % 14.01 C
1698 11-08-2019 21:25:00 15.3 C 92 % 14.01 C
1699 11-08-2019 21:30:00 15.3 C 92 % 14.01 C
1700 11-08-2019 21:35:00 15.2 C 92 % 13.91 C
Sensor: Nr:Datum:Temp:Feuchte:Taupunkt:
Aussen-T/F 1701 11-08-2019 21:40:00 15.2 C 92 % 13.91 C
1702 11-08-2019 21:45:00 15.1 C 92 % 13.81 C
1703 11-08-2019 21:50:00 14.9 C 91 % 13.44 C
1704 11-08-2019 21:55:00 14.8 C 91 % 13.35 C
1705 11-08-2019 22:00:00 14.7 C 91 % 13.25 C
1706 11-08-2019 22:05:00 14.6 C 91 % 13.15 C
1707 11-08-2019 22:10:00 14.5 C 91 % 13.05 C
1708 11-08-2019 22:15:00 14.4 C 91 % 12.95 C
1709 11-08-2019 22:20:00 14.3 C 92 % 13.02 C
1710 11-08-2019 22:25:00 14.3 C 92 % 13.02 C
1711 11-08-2019 22:30:00 14.2 C 92 % 12.92 C
1712 11-08-2019 22:35:00 14.2 C 92 % 12.92 C
1713 11-08-2019 22:40:00 14.1 C 92 % 12.82 C
1714 11-08-2019 22:45:00 14.1 C 92 % 12.82 C
1715 11-08-2019 22:50:00 14.1 C 93 % 12.99 C
1716 11-08-2019 22:55:00 14.1 C 93 % 12.99 C
1717 11-08-2019 23:00:00 14.1 C 93 % 12.99 C
1718 11-08-2019 23:05:00 14.1 C 93 % 12.99 C
1719 11-08-2019 23:10:00 14.2 C 93 % 13.08 C
1720 11-08-2019 23:15:00 14.2 C 93 % 13.08 C
1721 11-08-2019 23:20:00 14.2 C 93 % 13.08 C
1722 11-08-2019 23:25:00 14.2 C 93 % 13.08 C
1723 11-08-2019 23:30:00 14.2 C 93 % 13.08 C
1724 11-08-2019 23:35:00 14.2 C 93 % 13.08 C
1725 11-08-2019 23:40:00 14.2 C 94 % 13.25 C
Sensor: Nr:Datum:Temp:Feuchte:Taupunkt:
Aussen-T/F 1726 11-08-2019 23:45:00 14.3 C 94 % 13.35 C
1727 11-08-2019 23:50:00 14.4 C 94 % 13.45 C
1728 11-08-2019 23:55:00 14.6 C 94 % 13.65 C
1729 12-08-2019 00:00:00 14.7 C 94 % 13.74 C
1730 12-08-2019 00:05:00 14.7 C 93 % 13.58 C
1731 12-08-2019 00:10:00 14.8 C 93 % 13.68 C
1732 12-08-2019 00:15:00 14.8 C 93 % 13.68 C
1733 12-08-2019 00:20:00 14.8 C 93 % 13.68 C
1734 12-08-2019 00:25:00 14.9 C 93 % 13.78 C
1735 12-08-2019 00:30:00 14.8 C 93 % 13.68 C
1736 12-08-2019 00:35:00 14.9 C 92 % 13.61 C
1737 12-08-2019 00:40:00 15 C 92 % 13.71 C
1738 12-08-2019 00:45:00 15 C 92 % 13.71 C
1739 12-08-2019 00:50:00 15 C 92 % 13.71 C
1740 12-08-2019 00:55:00 14.9 C 91 % 13.44 C
1741 12-08-2019 01:00:00 14.8 C 91 % 13.35 C
1742 12-08-2019 01:05:00 14.7 C 91 % 13.25 C
1743 12-08-2019 01:10:00 14.6 C 92 % 13.32 C
1744 12-08-2019 01:15:00 14.5 C 92 % 13.22 C
1745 12-08-2019 01:20:00 14.4 C 92 % 13.12 C
1746 12-08-2019 01:25:00 14.3 C 92 % 13.02 C
1747 12-08-2019 01:30:00 14.3 C 92 % 13.02 C
1748 12-08-2019 01:35:00 14.2 C 92 % 12.92 C
1749 12-08-2019 01:40:00 14.1 C 92 % 12.82 C
1750 12-08-2019 01:45:00 14.1 C 93 % 12.99 C
Sensor: Nr:Datum:Temp:Feuchte:Taupunkt:
Aussen-T/F 1751 12-08-2019 01:50:00 14 C 93 % 12.89 C
1752 12-08-2019 01:55:00 13.9 C 93 % 12.79 C
1753 12-08-2019 02:00:00 13.9 C 93 % 12.79 C
1754 12-08-2019 02:05:00 13.8 C 93 % 12.69 C
1755 12-08-2019 02:10:00 13.8 C 93 % 12.69 C
1756 12-08-2019 02:15:00 13.8 C 93 % 12.69 C
1757 12-08-2019 02:20:00 13.7 C 93 % 12.59 C
1758 12-08-2019 02:25:00 13.7 C 93 % 12.59 C
1759 12-08-2019 02:30:00 13.6 C 93 % 12.49 C
1760 12-08-2019 02:35:00 13.6 C 94 % 12.65 C
1761 12-08-2019 02:40:00 13.6 C 94 % 12.65 C
1762 12-08-2019 02:45:00 13.6 C 94 % 12.65 C
1763 12-08-2019 02:50:00 13.5 C 94 % 12.55 C
1764 12-08-2019 02:55:00 13.4 C 94 % 12.45 C
1765 12-08-2019 03:00:00 13.3 C 94 % 12.36 C
1766 12-08-2019 03:05:00 13.3 C 94 % 12.36 C
1767 12-08-2019 03:10:00 13.3 C 94 % 12.36 C
1768 12-08-2019 03:15:00 13.2 C 94 % 12.26 C
1769 12-08-2019 03:20:00 13.2 C 94 % 12.26 C
1770 12-08-2019 03:25:00 13.1 C 94 % 12.16 C
1771 12-08-2019 03:30:00 13.1 C 94 % 12.16 C
1772 12-08-2019 03:35:00 13.1 C 94 % 12.16 C
1773 12-08-2019 03:40:00 13 C 94 % 12.06 C
1774 12-08-2019 03:45:00 13 C 94 % 12.06 C
1775 12-08-2019 03:50:00 13 C 94 % 12.06 C
Sensor: Nr:Datum:Temp:Feuchte:Taupunkt:
Aussen-T/F 1776 12-08-2019 03:55:00 12.9 C 94 % 11.96 C
1777 12-08-2019 04:00:00 12.9 C 95 % 12.12 C
1778 12-08-2019 04:05:00 12.9 C 95 % 12.12 C
1779 12-08-2019 04:10:00 12.9 C 95 % 12.12 C
1780 12-08-2019 04:15:00 12.9 C 95 % 12.12 C
1781 12-08-2019 04:20:00 13 C 95 % 12.22 C
1782 12-08-2019 04:25:00 13 C 95 % 12.22 C
1783 12-08-2019 04:30:00 12.9 C 95 % 12.12 C
1784 12-08-2019 04:35:00 12.9 C 95 % 12.12 C
1785 12-08-2019 04:40:00 12.9 C 95 % 12.12 C
1786 12-08-2019 04:45:00 12.8 C 95 % 12.02 C
1787 12-08-2019 04:50:00 12.8 C 95 % 12.02 C
1788 12-08-2019 04:55:00 12.8 C 95 % 12.02 C
1789 12-08-2019 05:00:00 12.8 C 95 % 12.02 C
1790 12-08-2019 05:05:00 12.8 C 95 % 12.02 C
1791 12-08-2019 05:10:00 12.8 C 95 % 12.02 C
1792 12-08-2019 05:15:00 12.8 C 95 % 12.02 C
1793 12-08-2019 05:20:00 12.8 C 95 % 12.02 C
1794 12-08-2019 05:25:00 12.7 C 95 % 11.92 C
1795 12-08-2019 05:30:00 12.6 C 95 % 11.82 C
1796 12-08-2019 05:35:00 12.6 C 95 % 11.82 C
1797 12-08-2019 05:40:00 12.6 C 95 % 11.82 C
1798 12-08-2019 05:45:00 12.6 C 95 % 11.82 C
1799 12-08-2019 05:50:00 12.5 C 95 % 11.72 C
1800 12-08-2019 05:55:00 12.5 C 95 % 11.72 C
Sensor: Nr:Datum:Temp:Feuchte:Taupunkt:
Aussen-T/F 1801 12-08-2019 06:00:00 12.5 C 95 % 11.72 C
1802 12-08-2019 06:05:00 12.5 C 95 % 11.72 C
1803 12-08-2019 06:10:00 12.5 C 95 % 11.72 C
1804 12-08-2019 06:15:00 12.5 C 95 % 11.72 C
1805 12-08-2019 06:20:00 12.6 C 95 % 11.82 C
1806 12-08-2019 06:25:00 12.6 C 96 % 11.98 C
1807 12-08-2019 06:30:00 12.7 C 96 % 12.08 C
1808 12-08-2019 06:35:00 12.8 C 96 % 12.18 C
1809 12-08-2019 06:40:00 12.8 C 96 % 12.18 C
1810 12-08-2019 06:45:00 12.9 C 96 % 12.28 C
1811 12-08-2019 06:50:00 12.9 C 96 % 12.28 C
1812 12-08-2019 06:55:00 13 C 96 % 12.38 C
1813 12-08-2019 07:00:00 13 C 96 % 12.38 C
1814 12-08-2019 07:05:00 13.1 C 96 % 12.48 C
1815 12-08-2019 07:10:00 13.1 C 96 % 12.48 C
1816 12-08-2019 07:15:00 13.1 C 96 % 12.48 C
1817 12-08-2019 07:20:00 13.1 C 96 % 12.48 C
1818 12-08-2019 07:25:00 13.1 C 96 % 12.48 C
1819 12-08-2019 07:30:00 13 C 96 % 12.38 C
1820 12-08-2019 07:35:00 13 C 96 % 12.38 C
1821 12-08-2019 07:40:00 13 C 96 % 12.38 C
1822 12-08-2019 07:45:00 13 C 96 % 12.38 C
1823 12-08-2019 07:50:00 13.1 C 96 % 12.48 C
1824 12-08-2019 07:55:00 13.1 C 96 % 12.48 C
1825 12-08-2019 08:00:00 13.2 C 96 % 12.58 C
Sensor: Nr:Datum:Temp:Feuchte:Taupunkt:
Aussen-T/F 1826 12-08-2019 08:05:00 13.2 C 96 % 12.58 C
1827 12-08-2019 08:10:00 13.2 C 96 % 12.58 C
1828 12-08-2019 08:15:00 13.3 C 96 % 12.68 C
1829 12-08-2019 08:20:00 13.3 C 96 % 12.68 C
1830 12-08-2019 08:25:00 13.4 C 96 % 12.78 C
1831 12-08-2019 08:30:00 13.5 C 96 % 12.87 C
1832 12-08-2019 08:35:00 13.6 C 96 % 12.97 C
1833 12-08-2019 08:40:00 13.7 C 96 % 13.07 C
1834 12-08-2019 08:45:00 13.7 C 96 % 13.07 C
1835 12-08-2019 08:50:00 13.9 C 96 % 13.27 C
1836 12-08-2019 08:55:00 14 C 96 % 13.37 C
1837 12-08-2019 09:00:00 14.2 C 96 % 13.57 C
1838 12-08-2019 09:05:00 14.3 C 96 % 13.67 C
1839 12-08-2019 09:10:00 14.4 C 95 % 13.61 C
1840 12-08-2019 09:15:00 14.7 C 94 % 13.74 C
1841 12-08-2019 09:20:00 14.8 C 94 % 13.84 C
1842 12-08-2019 09:25:00 15 C 93 % 13.88 C
1843 12-08-2019 09:30:00 15.1 C 93 % 13.98 C
1844 12-08-2019 09:35:00 15.2 C 92 % 13.91 C
1845 12-08-2019 09:40:00 15.3 C 91 % 13.84 C
1846 12-08-2019 09:45:00 15.6 C 90 % 13.97 C
1847 12-08-2019 09:50:00 15.9 C 89 % 14.09 C
1848 12-08-2019 09:55:00 16.1 C 88 % 14.11 C
1849 12-08-2019 10:00:00 16.3 C 87 % 14.13 C
1850 12-08-2019 10:05:00 16.6 C 87 % 14.43 C
Sensor: Nr:Datum:Temp:Feuchte:Taupunkt:
Aussen-T/F 1851 12-08-2019 10:10:00 16.8 C 85 % 14.26 C
1852 12-08-2019 10:15:00 17.1 C 86 % 14.74 C
1853 12-08-2019 10:20:00 17.3 C 84 % 14.57 C
1854 12-08-2019 10:25:00 17.6 C 83 % 14.68 C
1855 12-08-2019 10:30:00 17.8 C 82 % 14.69 C
1856 12-08-2019 10:35:00 18.1 C 80 % 14.6 C
1857 12-08-2019 10:40:00 18.3 C 81 % 14.98 C
1858 12-08-2019 10:45:00 18.5 C 78 % 14.59 C
1859 12-08-2019 10:50:00 18.7 C 79 % 14.99 C
1860 12-08-2019 10:55:00 18.7 C 78 % 14.79 C
1861 12-08-2019 11:00:00 18.8 C 79 % 15.08 C
1862 12-08-2019 11:05:00 19.1 C 78 % 15.18 C
1863 12-08-2019 11:10:00 19.3 C 76 % 14.97 C
1864 12-08-2019 11:15:00 19.6 C 75 % 15.05 C
1865 12-08-2019 11:20:00 19.8 C 75 % 15.24 C
1866 12-08-2019 11:25:00 20.1 C 72 % 14.9 C
1867 12-08-2019 11:30:00 20.3 C 72 % 15.09 C
1868 12-08-2019 11:35:00 20.4 C 69 % 14.52 C
1869 12-08-2019 11:40:00 20.7 C 69 % 14.81 C
1870 12-08-2019 11:45:00 20.8 C 70 % 15.13 C
1871 12-08-2019 11:50:00 21 C 68 % 14.87 C
1872 12-08-2019 11:55:00 21.1 C 68 % 14.97 C
1873 12-08-2019 12:00:00 21.1 C 69 % 15.19 C
1874 12-08-2019 12:05:00 21.1 C 67 % 14.74 C
1875 12-08-2019 12:10:00 21.2 C 70 % 15.51 C
Sensor: Nr:Datum:Temp:Feuchte:Taupunkt:
Aussen-T/F 1876 12-08-2019 12:15:00 21.3 C 67 % 14.93 C
1877 12-08-2019 12:20:00 21.2 C 67 % 14.83 C
1878 12-08-2019 12:25:00 21.1 C 66 % 14.5 C
1879 12-08-2019 12:30:00 21.1 C 68 % 14.97 C
1880 12-08-2019 12:35:00 21.2 C 66 % 14.6 C
1881 12-08-2019 12:40:00 21.3 C 63 % 13.97 C
1882 12-08-2019 12:45:00 21.4 C 65 % 14.55 C
1883 12-08-2019 12:50:00 21.6 C 61 % 13.76 C
1884 12-08-2019 12:55:00 21.7 C 59 % 13.34 C
1885 12-08-2019 13:00:00 21.7 C 58 % 13.08 C
1886 12-08-2019 13:05:00 21.8 C 59 % 13.44 C
1887 12-08-2019 13:10:00 21.8 C 59 % 13.44 C
1888 12-08-2019 13:15:00 21.8 C 60 % 13.69 C
1889 12-08-2019 13:20:00 21.8 C 61 % 13.95 C
1890 12-08-2019 13:25:00 21.9 C 61 % 14.04 C
1891 12-08-2019 13:30:00 21.9 C 59 % 13.53 C
1892 12-08-2019 13:35:00 21.9 C 62 % 14.29 C
1893 12-08-2019 13:40:00 21.8 C 61 % 13.95 C
1894 12-08-2019 13:45:00 21.6 C 64 % 14.5 C
1895 12-08-2019 13:50:00 21.6 C 63 % 14.26 C
1896 12-08-2019 13:55:00 21.7 C 62 % 14.1 C
1897 12-08-2019 14:00:00 21.8 C 62 % 14.2 C
1898 12-08-2019 14:05:00 21.9 C 62 % 14.29 C
1899 12-08-2019 14:10:00 22.1 C 63 % 14.73 C
1900 12-08-2019 14:15:00 22.3 C 61 % 14.42 C
Sensor: Nr:Datum:Temp:Feuchte:Taupunkt:
Aussen-T/F 1901 12-08-2019 14:20:00 22.4 C 61 % 14.51 C
1902 12-08-2019 14:25:00 22.5 C 60 % 14.35 C
1903 12-08-2019 14:30:00 22.6 C 58 % 13.92 C
1904 12-08-2019 14:35:00 22.7 C 61 % 14.79 C
1905 12-08-2019 14:40:00 22.9 C 59 % 14.47 C
1906 12-08-2019 14:45:00 22.9 C 61 % 14.98 C
1907 12-08-2019 14:50:00 23.2 C 58 % 14.48 C
1908 12-08-2019 14:55:00 23.3 C 57 % 14.31 C
1909 12-08-2019 15:00:00 23.6 C 59 % 15.12 C
1910 12-08-2019 15:05:00 23.6 C 56 % 14.31 C
1911 12-08-2019 15:10:00 23.7 C 56 % 14.4 C
1912 12-08-2019 15:15:00 23.7 C 54 % 13.84 C
1913 12-08-2019 15:20:00 23.5 C 54 % 13.66 C
1914 12-08-2019 15:25:00 23.3 C 56 % 14.03 C
1915 12-08-2019 15:30:00 23.2 C 56 % 13.94 C
1916 12-08-2019 15:35:00 23.4 C 57 % 14.4 C
1917 12-08-2019 15:40:00 23.2 C 55 % 13.66 C
1918 12-08-2019 15:45:00 23 C 56 % 13.75 C
1919 12-08-2019 15:50:00 23.5 C 55 % 13.94 C
1920 12-08-2019 15:55:00 24 C 53 % 13.83 C
1921 12-08-2019 16:00:00 23.7 C 53 % 13.56 C
1922 12-08-2019 16:05:00 23.6 C 54 % 13.75 C
1923 12-08-2019 16:10:00 23.4 C 55 % 13.85 C
1924 12-08-2019 16:15:00 23.3 C 56 % 14.03 C
1925 12-08-2019 16:20:00 23.1 C 57 % 14.12 C
Sensor: Nr:Datum:Temp:Feuchte:Taupunkt:
Aussen-T/F 1926 12-08-2019 16:25:00 22.9 C 57 % 13.93 C
1927 12-08-2019 16:30:00 23 C 58 % 14.29 C
1928 12-08-2019 16:35:00 22.9 C 59 % 14.47 C
1929 12-08-2019 16:40:00 22.6 C 57 % 13.65 C
1930 12-08-2019 16:45:00 21.5 C 63 % 14.16 C
1931 12-08-2019 16:50:00 20.5 C 66 % 13.93 C
1932 12-08-2019 16:55:00 20 C 67 % 13.69 C
1933 12-08-2019 17:00:00 19.7 C 68 % 13.63 C
1934 12-08-2019 17:05:00 19.6 C 69 % 13.76 C
1935 12-08-2019 17:10:00 19.4 C 67 % 13.12 C
1936 12-08-2019 17:15:00 19.1 C 70 % 13.5 C
1937 12-08-2019 17:20:00 18.7 C 73 % 13.76 C
1938 12-08-2019 17:25:00 18 C 77 % 13.91 C
1939 12-08-2019 17:30:00 17.5 C 80 % 14.01 C
1940 12-08-2019 17:35:00 17.1 C 83 % 14.19 C
1941 12-08-2019 17:40:00 16.8 C 84 % 14.08 C
1942 12-08-2019 17:45:00 16.5 C 85 % 13.97 C
1943 12-08-2019 17:50:00 16.2 C 85 % 13.68 C
1944 12-08-2019 17:55:00 16.1 C 86 % 13.76 C
1945 12-08-2019 18:00:00 16.1 C 88 % 14.11 C
1946 12-08-2019 18:05:00 16 C 88 % 14.01 C
1947 12-08-2019 18:10:00 16.1 C 89 % 14.29 C
1948 12-08-2019 18:15:00 16.1 C 90 % 14.46 C
1949 12-08-2019 18:20:00 16.1 C 90 % 14.46 C
1950 12-08-2019 18:25:00 15.9 C 90 % 14.26 C
Sensor: Nr:Datum:Temp:Feuchte:Taupunkt:
Aussen-T/F 1951 12-08-2019 18:30:00 15.8 C 90 % 14.16 C
1952 12-08-2019 18:35:00 15.8 C 90 % 14.16 C
1953 12-08-2019 18:40:00 15.8 C 91 % 14.33 C
1954 12-08-2019 18:45:00 15.8 C 91 % 14.33 C
1955 12-08-2019 18:50:00 15.8 C 91 % 14.33 C
1956 12-08-2019 18:55:00 15.8 C 92 % 14.5 C
1957 12-08-2019 19:00:00 15.8 C 92 % 14.5 C
1958 12-08-2019 19:05:00 15.9 C 92 % 14.6 C
1959 12-08-2019 19:10:00 15.9 C 92 % 14.6 C
1960 12-08-2019 19:15:00 16 C 92 % 14.7 C
1961 12-08-2019 19:20:00 16 C 92 % 14.7 C
1962 12-08-2019 19:25:00 16 C 92 % 14.7 C
1963 12-08-2019 19:30:00 16 C 92 % 14.7 C
1964 12-08-2019 19:35:00 16 C 92 % 14.7 C
1965 12-08-2019 19:40:00 15.9 C 92 % 14.6 C
1966 12-08-2019 19:45:00 15.9 C 92 % 14.6 C
1967 12-08-2019 19:50:00 15.9 C 92 % 14.6 C
1968 12-08-2019 19:55:00 15.8 C 92 % 14.5 C
1969 12-08-2019 20:00:00 15.9 C 92 % 14.6 C
1970 12-08-2019 20:05:00 15.9 C 92 % 14.6 C
1971 12-08-2019 20:10:00 15.9 C 93 % 14.77 C
1972 12-08-2019 20:15:00 15.9 C 92 % 14.6 C
1973 12-08-2019 20:20:00 15.7 C 92 % 14.4 C
1974 12-08-2019 20:25:00 15.6 C 91 % 14.14 C
1975 12-08-2019 20:30:00 15.4 C 92 % 14.11 C
Sensor: Nr:Datum:Temp:Feuchte:Taupunkt:
Aussen-T/F 1976 12-08-2019 20:35:00 15.3 C 92 % 14.01 C
1977 12-08-2019 20:40:00 15.3 C 92 % 14.01 C
1978 12-08-2019 20:45:00 15.2 C 92 % 13.91 C
1979 12-08-2019 20:50:00 15.2 C 93 % 14.08 C
1980 12-08-2019 20:55:00 15.2 C 93 % 14.08 C
1981 12-08-2019 21:00:00 15.2 C 93 % 14.08 C
1982 12-08-2019 21:05:00 15.1 C 93 % 13.98 C
1983 12-08-2019 21:10:00 15.2 C 93 % 14.08 C
1984 12-08-2019 21:15:00 15.2 C 93 % 14.08 C
1985 12-08-2019 21:20:00 15.2 C 94 % 14.24 C
1986 12-08-2019 21:25:00 15.2 C 93 % 14.08 C
1987 12-08-2019 21:30:00 15.2 C 94 % 14.24 C
1988 12-08-2019 21:35:00 15.2 C 94 % 14.24 C
1989 12-08-2019 21:40:00 15.2 C 94 % 14.24 C
1990 12-08-2019 21:45:00 15.2 C 94 % 14.24 C
1991 12-08-2019 21:50:00 15.2 C 94 % 14.24 C
1992 12-08-2019 21:55:00 15.2 C 94 % 14.24 C
1993 12-08-2019 22:00:00 15.2 C 94 % 14.24 C
1994 12-08-2019 22:05:00 15.1 C 94 % 14.14 C
1995 12-08-2019 22:10:00 15.1 C 94 % 14.14 C
1996 12-08-2019 22:15:00 15.1 C 94 % 14.14 C
1997 12-08-2019 22:20:00 15 C 94 % 14.04 C
1998 12-08-2019 22:25:00 14.9 C 94 % 13.94 C
1999 12-08-2019 22:30:00 14.9 C 94 % 13.94 C
2000 12-08-2019 22:35:00 14.9 C 94 % 13.94 C
Sensor: Nr:Datum:Temp:Feuchte:Taupunkt:
Aussen-T/F 2001 12-08-2019 22:40:00 14.9 C 94 % 13.94 C
2002 12-08-2019 22:45:00 14.9 C 94 % 13.94 C
2003 12-08-2019 22:50:00 14.9 C 94 % 13.94 C
2004 12-08-2019 22:55:00 14.8 C 94 % 13.84 C
2005 12-08-2019 23:00:00 14.7 C 94 % 13.74 C
2006 12-08-2019 23:05:00 14.7 C 93 % 13.58 C
2007 12-08-2019 23:10:00 14.5 C 93 % 13.38 C
2008 12-08-2019 23:15:00 14.4 C 93 % 13.28 C
2009 12-08-2019 23:20:00 14.2 C 93 % 13.08 C
2010 12-08-2019 23:25:00 14.1 C 92 % 12.82 C
2011 12-08-2019 23:30:00 13.9 C 92 % 12.62 C
2012 12-08-2019 23:35:00 13.8 C 92 % 12.52 C
2013 12-08-2019 23:40:00 13.7 C 92 % 12.42 C
2014 12-08-2019 23:45:00 13.5 C 92 % 12.23 C
2015 12-08-2019 23:50:00 13.4 C 93 % 12.29 C
2016 12-08-2019 23:55:00 13.3 C 93 % 12.19 C
2017 13-08-2019 00:00:00 13.4 C 94 % 12.45 C
2018 13-08-2019 00:05:00 13.4 C 94 % 12.45 C
2019 13-08-2019 00:10:00 13.4 C 94 % 12.45 C
2020 13-08-2019 00:15:00 13.5 C 94 % 12.55 C
2021 13-08-2019 00:20:00 13.6 C 95 % 12.81 C
2022 13-08-2019 00:25:00 13.6 C 95 % 12.81 C
2023 13-08-2019 00:30:00 13.7 C 95 % 12.91 C
2024 13-08-2019 00:35:00 13.7 C 94 % 12.75 C
2025 13-08-2019 00:40:00 13.7 C 94 % 12.75 C
Sensor: Nr:Datum:Temp:Feuchte:Taupunkt:
Aussen-T/F 2026 13-08-2019 00:45:00 13.6 C 94 % 12.65 C
2027 13-08-2019 00:50:00 13.6 C 94 % 12.65 C
2028 13-08-2019 00:55:00 13.5 C 94 % 12.55 C
2029 13-08-2019 01:00:00 13.4 C 94 % 12.45 C
2030 13-08-2019 01:05:00 13.3 C 94 % 12.36 C
2031 13-08-2019 01:10:00 13.2 C 94 % 12.26 C
2032 13-08-2019 01:15:00 13.2 C 94 % 12.26 C
2033 13-08-2019 01:20:00 13.1 C 94 % 12.16 C
2034 13-08-2019 01:25:00 13 C 94 % 12.06 C
2035 13-08-2019 01:30:00 13 C 94 % 12.06 C
2036 13-08-2019 01:35:00 12.9 C 94 % 11.96 C
2037 13-08-2019 01:40:00 12.9 C 94 % 11.96 C
2038 13-08-2019 01:45:00 12.8 C 95 % 12.02 C
2039 13-08-2019 01:50:00 12.8 C 95 % 12.02 C
2040 13-08-2019 01:55:00 12.7 C 95 % 11.92 C
2041 13-08-2019 02:00:00 12.7 C 95 % 11.92 C
2042 13-08-2019 02:05:00 12.7 C 95 % 11.92 C
2043 13-08-2019 02:10:00 12.8 C 95 % 12.02 C
2044 13-08-2019 02:15:00 12.8 C 95 % 12.02 C
2045 13-08-2019 02:20:00 12.8 C 95 % 12.02 C
2046 13-08-2019 02:25:00 12.8 C 95 % 12.02 C
2047 13-08-2019 02:30:00 12.8 C 95 % 12.02 C
2048 13-08-2019 02:35:00 12.8 C 95 % 12.02 C
2049 13-08-2019 02:40:00 12.8 C 95 % 12.02 C
2050 13-08-2019 02:45:00 12.9 C 96 % 12.28 C
Sensor: Nr:Datum:Temp:Feuchte:Taupunkt:
Aussen-T/F 2051 13-08-2019 02:50:00 13 C 96 % 12.38 C
2052 13-08-2019 02:55:00 13.1 C 96 % 12.48 C
2053 13-08-2019 03:00:00 13.1 C 96 % 12.48 C
2054 13-08-2019 03:05:00 13.1 C 96 % 12.48 C
2055 13-08-2019 03:10:00 13.1 C 96 % 12.48 C
2056 13-08-2019 03:15:00 13 C 96 % 12.38 C
2057 13-08-2019 03:20:00 12.9 C 95 % 12.12 C
2058 13-08-2019 03:25:00 12.8 C 95 % 12.02 C
2059 13-08-2019 03:30:00 12.8 C 95 % 12.02 C
2060 13-08-2019 03:35:00 12.8 C 95 % 12.02 C
2061 13-08-2019 03:40:00 12.8 C 95 % 12.02 C
2062 13-08-2019 03:45:00 12.8 C 96 % 12.18 C
2063 13-08-2019 03:50:00 12.8 C 96 % 12.18 C
2064 13-08-2019 03:55:00 12.8 C 96 % 12.18 C
2065 13-08-2019 04:00:00 12.8 C 96 % 12.18 C
2066 13-08-2019 04:05:00 12.9 C 96 % 12.28 C
2067 13-08-2019 04:10:00 13 C 96 % 12.38 C
2068 13-08-2019 04:15:00 13.1 C 96 % 12.48 C
2069 13-08-2019 04:20:00 13.2 C 96 % 12.58 C
2070 13-08-2019 04:25:00 13.3 C 96 % 12.68 C
2071 13-08-2019 04:30:00 13.4 C 96 % 12.78 C
2072 13-08-2019 04:35:00 13.5 C 96 % 12.87 C
2073 13-08-2019 04:40:00 13.6 C 96 % 12.97 C
2074 13-08-2019 04:45:00 13.5 C 96 % 12.87 C
2075 13-08-2019 04:50:00 13.5 C 95 % 12.72 C
Sensor: Nr:Datum:Temp:Feuchte:Taupunkt:
Aussen-T/F 2076 13-08-2019 04:55:00 13.5 C 95 % 12.72 C
2077 13-08-2019 05:00:00 13.5 C 95 % 12.72 C
2078 13-08-2019 05:05:00 13.4 C 95 % 12.62 C
2079 13-08-2019 05:10:00 13.4 C 95 % 12.62 C
2080 13-08-2019 05:15:00 13.3 C 95 % 12.52 C
2081 13-08-2019 05:20:00 13.2 C 95 % 12.42 C
2082 13-08-2019 05:25:00 13.2 C 95 % 12.42 C
2083 13-08-2019 05:30:00 13.2 C 95 % 12.42 C
2084 13-08-2019 05:35:00 13.1 C 95 % 12.32 C
2085 13-08-2019 05:40:00 13.1 C 95 % 12.32 C
2086 13-08-2019 05:45:00 13 C 95 % 12.22 C
2087 13-08-2019 05:50:00 12.9 C 95 % 12.12 C
2088 13-08-2019 05:55:00 12.9 C 95 % 12.12 C
2089 13-08-2019 06:00:00 12.9 C 95 % 12.12 C
2090 13-08-2019 06:05:00 12.9 C 95 % 12.12 C
2091 13-08-2019 06:10:00 12.8 C 95 % 12.02 C
2092 13-08-2019 06:15:00 12.8 C 95 % 12.02 C
2093 13-08-2019 06:20:00 12.8 C 95 % 12.02 C
2094 13-08-2019 06:25:00 12.7 C 95 % 11.92 C
2095 13-08-2019 06:30:00 12.7 C 95 % 11.92 C
2096 13-08-2019 06:35:00 12.6 C 95 % 11.82 C
2097 13-08-2019 06:40:00 12.6 C 95 % 11.82 C
2098 13-08-2019 06:45:00 12.7 C 95 % 11.92 C
2099 13-08-2019 06:50:00 12.7 C 96 % 12.08 C
2100 13-08-2019 06:55:00 12.8 C 96 % 12.18 C
Sensor: Nr:Datum:Temp:Feuchte:Taupunkt:
Aussen-T/F 2101 13-08-2019 07:00:00 12.8 C 96 % 12.18 C
2102 13-08-2019 07:05:00 12.9 C 96 % 12.28 C
2103 13-08-2019 07:10:00 12.9 C 96 % 12.28 C
2104 13-08-2019 07:15:00 12.9 C 96 % 12.28 C
2105 13-08-2019 07:20:00 12.9 C 96 % 12.28 C
2106 13-08-2019 07:25:00 12.9 C 95 % 12.12 C
2107 13-08-2019 07:30:00 12.9 C 95 % 12.12 C
2108 13-08-2019 07:35:00 12.9 C 95 % 12.12 C
2109 13-08-2019 07:40:00 12.9 C 95 % 12.12 C
2110 13-08-2019 07:45:00 12.9 C 95 % 12.12 C
2111 13-08-2019 07:50:00 12.9 C 94 % 11.96 C
2112 13-08-2019 07:55:00 13 C 94 % 12.06 C
2113 13-08-2019 08:00:00 13 C 94 % 12.06 C
2114 13-08-2019 08:05:00 13.1 C 94 % 12.16 C
2115 13-08-2019 08:10:00 13.1 C 94 % 12.16 C
2116 13-08-2019 08:15:00 13.2 C 94 % 12.26 C
2117 13-08-2019 08:20:00 13.2 C 93 % 12.09 C
2118 13-08-2019 08:25:00 13.3 C 93 % 12.19 C
2119 13-08-2019 08:30:00 13.3 C 94 % 12.36 C
2120 13-08-2019 08:35:00 13.4 C 93 % 12.29 C
2121 13-08-2019 08:40:00 13.6 C 92 % 12.33 C
2122 13-08-2019 08:45:00 13.7 C 92 % 12.42 C
2123 13-08-2019 08:50:00 13.8 C 90 % 12.19 C
2124 13-08-2019 08:55:00 14 C 90 % 12.39 C
2125 13-08-2019 09:00:00 14.2 C 89 % 12.41 C
Sensor: Nr:Datum:Temp:Feuchte:Taupunkt:
Aussen-T/F 2126 13-08-2019 09:05:00 14.3 C 89 % 12.51 C
2127 13-08-2019 09:10:00 14.5 C 89 % 12.71 C
2128 13-08-2019 09:15:00 14.6 C 88 % 12.64 C
2129 13-08-2019 09:20:00 14.7 C 88 % 12.73 C
2130 13-08-2019 09:25:00 14.8 C 88 % 12.83 C
2131 13-08-2019 09:30:00 14.9 C 87 % 12.76 C
2132 13-08-2019 09:35:00 15.1 C 87 % 12.95 C
2133 13-08-2019 09:40:00 15.2 C 86 % 12.88 C
2134 13-08-2019 09:45:00 15.3 C 86 % 12.97 C
2135 13-08-2019 09:50:00 15.3 C 83 % 12.43 C
2136 13-08-2019 09:55:00 15.3 C 82 % 12.25 C
2137 13-08-2019 10:00:00 15.5 C 79 % 11.88 C
2138 13-08-2019 10:05:00 15.8 C 78 % 11.97 C
2139 13-08-2019 10:10:00 15.9 C 76 % 11.68 C
2140 13-08-2019 10:15:00 16.2 C 76 % 11.97 C
2141 13-08-2019 10:20:00 16.2 C 76 % 11.97 C
2142 13-08-2019 10:25:00 16.3 C 75 % 11.86 C
2143 13-08-2019 10:30:00 16.3 C 75 % 11.86 C
2144 13-08-2019 10:35:00 16.2 C 73 % 11.36 C
2145 13-08-2019 10:40:00 16.3 C 72 % 11.25 C
2146 13-08-2019 10:45:00 16.6 C 73 % 11.74 C
2147 13-08-2019 10:50:00 16.7 C 72 % 11.63 C
2148 13-08-2019 10:55:00 16.7 C 71 % 11.42 C
2149 13-08-2019 11:00:00 16.8 C 70 % 11.3 C
2150 13-08-2019 11:05:00 16.8 C 69 % 11.09 C
Sensor: Nr:Datum:Temp:Feuchte:Taupunkt:
Aussen-T/F 2151 13-08-2019 11:10:00 16.8 C 68 % 10.87 C
2152 13-08-2019 11:15:00 16.9 C 69 % 11.18 C
2153 13-08-2019 11:20:00 17.1 C 66 % 10.7 C
2154 13-08-2019 11:25:00 17.1 C 65 % 10.47 C
2155 13-08-2019 11:30:00 17.2 C 68 % 11.25 C
2156 13-08-2019 11:35:00 17.3 C 68 % 11.34 C
2157 13-08-2019 11:40:00 17.3 C 66 % 10.89 C
2158 13-08-2019 11:45:00 17.6 C 68 % 11.63 C
2159 13-08-2019 11:50:00 17.6 C 64 % 10.72 C
2160 13-08-2019 11:55:00 17.6 C 66 % 11.18 C
2161 13-08-2019 12:00:00 17.6 C 66 % 11.18 C
2162 13-08-2019 12:05:00 17.7 C 66 % 11.27 C
2163 13-08-2019 12:10:00 17.9 C 64 % 11 C
2164 13-08-2019 12:15:00 18.2 C 62 % 10.81 C
2165 13-08-2019 12:20:00 18.3 C 62 % 10.9 C
2166 13-08-2019 12:25:00 18.3 C 61 % 10.66 C
2167 13-08-2019 12:30:00 18.2 C 66 % 11.75 C
2168 13-08-2019 12:35:00 17.9 C 64 % 11 C
2169 13-08-2019 12:40:00 18.1 C 63 % 10.95 C
2170 13-08-2019 12:45:00 18.3 C 62 % 10.9 C
2171 13-08-2019 12:50:00 18.5 C 63 % 11.33 C
2172 13-08-2019 12:55:00 18.6 C 62 % 11.18 C
2173 13-08-2019 13:00:00 18.6 C 60 % 10.69 C
2174 13-08-2019 13:05:00 18.7 C 61 % 11.03 C
2175 13-08-2019 13:10:00 18.8 C 58 % 10.37 C
Sensor: Nr:Datum:Temp:Feuchte:Taupunkt:
Aussen-T/F 2176 13-08-2019 13:15:00 18.9 C 56 % 9.94 C
2177 13-08-2019 13:20:00 18.9 C 58 % 10.46 C
2178 13-08-2019 13:25:00 19 C 57 % 10.3 C
2179 13-08-2019 13:30:00 19 C 54 % 9.49 C
2180 13-08-2019 13:35:00 18.9 C 55 % 9.67 C
2181 13-08-2019 13:40:00 19.1 C 51 % 8.73 C
2182 13-08-2019 13:45:00 19.3 C 54 % 9.77 C
2183 13-08-2019 13:50:00 19.4 C 54 % 9.86 C
2184 13-08-2019 13:55:00 19.7 C 50 % 8.99 C
2185 13-08-2019 14:00:00 19.8 C 50 % 9.09 C
2186 13-08-2019 14:05:00 19.9 C 52 % 9.76 C
2187 13-08-2019 14:10:00 19.9 C 52 % 9.76 C
2188 13-08-2019 14:15:00 19.8 C 52 % 9.67 C
2189 13-08-2019 14:20:00 19.7 C 54 % 10.14 C
2190 13-08-2019 14:25:00 19.5 C 56 % 10.5 C
2191 13-08-2019 14:30:00 19.6 C 55 % 10.32 C
2192 13-08-2019 14:35:00 19.7 C 51 % 9.29 C
2193 13-08-2019 14:40:00 19.9 C 57 % 11.14 C
2194 13-08-2019 14:45:00 20.2 C 53 % 10.32 C
2195 13-08-2019 14:50:00 20.3 C 51 % 9.84 C
2196 13-08-2019 14:55:00 20.2 C 51 % 9.75 C
2197 13-08-2019 15:00:00 20.3 C 52 % 10.13 C
2198 13-08-2019 15:05:00 20.6 C 53 % 10.69 C
2199 13-08-2019 15:10:00 20.9 C 51 % 10.39 C
2200 13-08-2019 15:15:00 21 C 51 % 10.48 C
Sensor: Nr:Datum:Temp:Feuchte:Taupunkt:
Aussen-T/F 2201 13-08-2019 15:20:00 21.2 C 49 % 10.07 C
2202 13-08-2019 15:25:00 21.5 C 51 % 10.94 C
2203 13-08-2019 15:30:00 21.7 C 49 % 10.53 C
2204 13-08-2019 15:35:00 21.5 C 49 % 10.34 C
2205 13-08-2019 15:40:00 21.6 C 49 % 10.44 C
2206 13-08-2019 15:45:00 21.7 C 51 % 11.13 C
2207 13-08-2019 15:50:00 21.7 C 49 % 10.53 C
2208 13-08-2019 15:55:00 21.6 C 50 % 10.74 C
2209 13-08-2019 16:00:00 21.5 C 50 % 10.65 C
2210 13-08-2019 16:05:00 21.6 C 52 % 11.33 C
2211 13-08-2019 16:10:00 21.4 C 50 % 10.55 C
2212 13-08-2019 16:15:00 21.2 C 52 % 10.96 C
2213 13-08-2019 16:20:00 20.9 C 51 % 10.39 C
2214 13-08-2019 16:25:00 20.8 C 55 % 11.43 C
2215 13-08-2019 16:30:00 21.1 C 51 % 10.58 C
2216 13-08-2019 16:35:00 21.3 C 52 % 11.05 C
2217 13-08-2019 16:40:00 21.2 C 52 % 10.96 C
2218 13-08-2019 16:45:00 21.5 C 51 % 10.94 C
2219 13-08-2019 16:50:00 21.9 C 48 % 10.4 C
2220 13-08-2019 16:55:00 22.2 C 47 % 10.36 C
2221 13-08-2019 17:00:00 22.3 C 47 % 10.45 C
2222 13-08-2019 17:05:00 22.4 C 45 % 9.89 C
2223 13-08-2019 17:10:00 22.2 C 46 % 10.04 C
2224 13-08-2019 17:15:00 21.6 C 49 % 10.44 C
2225 13-08-2019 17:20:00 21.1 C 51 % 10.58 C
Sensor: Nr:Datum:Temp:Feuchte:Taupunkt:
Aussen-T/F 2226 13-08-2019 17:25:00 20.8 C 53 % 10.88 C
2227 13-08-2019 17:30:00 20.7 C 51 % 10.21 C
2228 13-08-2019 17:35:00 20.7 C 54 % 11.07 C
2229 13-08-2019 17:40:00 20.9 C 53 % 10.97 C
2230 13-08-2019 17:45:00 20.9 C 52 % 10.68 C
2231 13-08-2019 17:50:00 20.8 C 53 % 10.88 C
2232 13-08-2019 17:55:00 20.7 C 52 % 10.5 C
2233 13-08-2019 18:00:00 20.7 C 55 % 11.34 C
2234 13-08-2019 18:05:00 20.7 C 53 % 10.78 C
2235 13-08-2019 18:10:00 20.7 C 52 % 10.5 C
2236 13-08-2019 18:15:00 21.2 C 54 % 11.53 C
2237 13-08-2019 18:20:00 21.6 C 50 % 10.74 C
2238 13-08-2019 18:25:00 21.8 C 49 % 10.62 C
2239 13-08-2019 18:30:00 21.9 C 48 % 10.4 C
2240 13-08-2019 18:35:00 21.7 C 51 % 11.13 C
2241 13-08-2019 18:40:00 21.4 C 50 % 10.55 C
2242 13-08-2019 18:45:00 21.1 C 52 % 10.87 C
2243 13-08-2019 18:50:00 20.8 C 54 % 11.16 C
2244 13-08-2019 18:55:00 20.5 C 54 % 10.88 C
2245 13-08-2019 19:00:00 20.3 C 57 % 11.51 C
2246 13-08-2019 19:05:00 20.1 C 59 % 11.84 C
2247 13-08-2019 19:10:00 19.9 C 60 % 11.91 C
2248 13-08-2019 19:15:00 19.8 C 57 % 11.04 C
2249 13-08-2019 19:20:00 19.6 C 59 % 11.37 C
2250 13-08-2019 19:25:00 19.3 C 59 % 11.09 C
Sensor: Nr:Datum:Temp:Feuchte:Taupunkt:
Aussen-T/F 2251 13-08-2019 19:30:00 18.5 C 62 % 11.09 C
2252 13-08-2019 19:35:00 17.9 C 67 % 11.69 C
2253 13-08-2019 19:40:00 17.3 C 72 % 12.21 C
2254 13-08-2019 19:45:00 16.9 C 72 % 11.82 C
2255 13-08-2019 19:50:00 16.6 C 75 % 12.15 C
2256 13-08-2019 19:55:00 16.2 C 78 % 12.36 C
2257 13-08-2019 20:00:00 15.9 C 81 % 12.65 C
2258 13-08-2019 20:05:00 15.6 C 82 % 12.54 C
2259 13-08-2019 20:10:00 15.4 C 84 % 12.71 C
2260 13-08-2019 20:15:00 15.2 C 85 % 12.7 C
2261 13-08-2019 20:20:00 15 C 86 % 12.68 C
2262 13-08-2019 20:25:00 14.8 C 87 % 12.66 C
2263 13-08-2019 20:30:00 14.7 C 88 % 12.73 C
2264 13-08-2019 20:35:00 14.6 C 88 % 12.64 C
2265 13-08-2019 20:40:00 14.6 C 89 % 12.81 C
2266 13-08-2019 20:45:00 14.5 C 90 % 12.88 C
2267 13-08-2019 20:50:00 14.4 C 90 % 12.78 C
2268 13-08-2019 20:55:00 14.3 C 90 % 12.68 C
2269 13-08-2019 21:00:00 14.3 C 90 % 12.68 C
2270 13-08-2019 21:05:00 14.2 C 91 % 12.75 C
2271 13-08-2019 21:10:00 14.2 C 91 % 12.75 C
2272 13-08-2019 21:15:00 14.2 C 91 % 12.75 C
2273 13-08-2019 21:20:00 14.1 C 91 % 12.65 C
2274 13-08-2019 21:25:00 14 C 91 % 12.56 C
2275 13-08-2019 21:30:00 13.9 C 91 % 12.46 C
Sensor: Nr:Datum:Temp:Feuchte:Taupunkt:
Aussen-T/F 2276 13-08-2019 21:35:00 13.9 C 92 % 12.62 C
2277 13-08-2019 21:40:00 13.8 C 92 % 12.52 C
2278 13-08-2019 21:45:00 13.8 C 92 % 12.52 C
2279 13-08-2019 21:50:00 13.8 C 92 % 12.52 C
2280 13-08-2019 21:55:00 13.7 C 92 % 12.42 C
2281 13-08-2019 22:00:00 13.7 C 92 % 12.42 C
2282 13-08-2019 22:05:00 13.7 C 92 % 12.42 C
2283 13-08-2019 22:10:00 13.7 C 92 % 12.42 C
2284 13-08-2019 22:15:00 13.7 C 92 % 12.42 C
2285 13-08-2019 22:20:00 13.6 C 92 % 12.33 C
2286 13-08-2019 22:25:00 13.6 C 93 % 12.49 C
2287 13-08-2019 22:30:00 13.6 C 93 % 12.49 C
2288 13-08-2019 22:35:00 13.6 C 93 % 12.49 C
2289 13-08-2019 22:40:00 13.6 C 93 % 12.49 C
2290 13-08-2019 22:45:00 13.6 C 93 % 12.49 C
2291 13-08-2019 22:50:00 13.6 C 93 % 12.49 C
2292 13-08-2019 22:55:00 13.6 C 93 % 12.49 C
2293 13-08-2019 23:00:00 13.5 C 93 % 12.39 C
2294 13-08-2019 23:05:00 13.5 C 93 % 12.39 C
2295 13-08-2019 23:10:00 13.4 C 93 % 12.29 C
2296 13-08-2019 23:15:00 13.4 C 93 % 12.29 C
2297 13-08-2019 23:20:00 13.4 C 93 % 12.29 C
2298 13-08-2019 23:25:00 13.4 C 93 % 12.29 C
2299 13-08-2019 23:30:00 13.3 C 93 % 12.19 C
2300 13-08-2019 23:35:00 13.3 C 93 % 12.19 C
Sensor: Nr:Datum:Temp:Feuchte:Taupunkt:
Aussen-T/F 2301 13-08-2019 23:40:00 13.3 C 93 % 12.19 C
2302 13-08-2019 23:45:00 13.3 C 93 % 12.19 C
2303 13-08-2019 23:50:00 13.3 C 93 % 12.19 C
2304 13-08-2019 23:55:00 13.3 C 93 % 12.19 C
2305 14-08-2019 00:00:00 13.3 C 93 % 12.19 C
2306 14-08-2019 00:05:00 13.2 C 93 % 12.09 C
2307 14-08-2019 00:10:00 13.2 C 93 % 12.09 C
2308 14-08-2019 00:15:00 13.1 C 93 % 11.99 C
2309 14-08-2019 00:20:00 13.1 C 93 % 11.99 C
2310 14-08-2019 00:25:00 13.1 C 93 % 11.99 C
2311 14-08-2019 00:30:00 13 C 93 % 11.9 C
2312 14-08-2019 00:35:00 13 C 93 % 11.9 C
2313 14-08-2019 00:40:00 13 C 94 % 12.06 C
2314 14-08-2019 00:45:00 12.9 C 93 % 11.8 C
2315 14-08-2019 00:50:00 12.9 C 93 % 11.8 C
2316 14-08-2019 00:55:00 12.8 C 93 % 11.7 C
2317 14-08-2019 01:00:00 12.8 C 93 % 11.7 C
2318 14-08-2019 01:05:00 12.7 C 93 % 11.6 C
2319 14-08-2019 01:10:00 12.7 C 93 % 11.6 C
2320 14-08-2019 01:15:00 12.6 C 93 % 11.5 C
2321 14-08-2019 01:20:00 12.6 C 93 % 11.5 C
2322 14-08-2019 01:25:00 12.6 C 94 % 11.66 C
2323 14-08-2019 01:30:00 12.6 C 94 % 11.66 C
2324 14-08-2019 01:35:00 12.6 C 93 % 11.5 C
2325 14-08-2019 01:40:00 12.6 C 93 % 11.5 C
Sensor: Nr:Datum:Temp:Feuchte:Taupunkt:
Aussen-T/F 2326 14-08-2019 01:45:00 12.6 C 93 % 11.5 C
2327 14-08-2019 01:50:00 12.5 C 93 % 11.4 C
2328 14-08-2019 01:55:00 12.5 C 93 % 11.4 C
2329 14-08-2019 02:00:00 12.4 C 93 % 11.3 C
2330 14-08-2019 02:05:00 12.4 C 93 % 11.3 C
2331 14-08-2019 02:10:00 12.3 C 93 % 11.2 C
2332 14-08-2019 02:15:00 12.2 C 93 % 11.1 C
2333 14-08-2019 02:20:00 12.2 C 93 % 11.1 C
2334 14-08-2019 02:25:00 12.1 C 93 % 11 C
2335 14-08-2019 02:30:00 12.1 C 93 % 11 C
2336 14-08-2019 02:35:00 12 C 93 % 10.9 C
2337 14-08-2019 02:40:00 11.9 C 93 % 10.81 C
2338 14-08-2019 02:45:00 11.9 C 93 % 10.81 C
2339 14-08-2019 02:50:00 11.9 C 94 % 10.97 C
2340 14-08-2019 02:55:00 11.9 C 94 % 10.97 C
2341 14-08-2019 03:00:00 11.9 C 94 % 10.97 C
2342 14-08-2019 03:05:00 11.9 C 94 % 10.97 C
2343 14-08-2019 03:10:00 12 C 94 % 11.07 C
2344 14-08-2019 03:15:00 11.9 C 94 % 10.97 C
2345 14-08-2019 03:20:00 11.9 C 94 % 10.97 C
2346 14-08-2019 03:25:00 11.9 C 94 % 10.97 C
2347 14-08-2019 03:30:00 11.9 C 94 % 10.97 C
2348 14-08-2019 03:35:00 12 C 94 % 11.07 C
2349 14-08-2019 03:40:00 12 C 94 % 11.07 C
2350 14-08-2019 03:45:00 12 C 94 % 11.07 C
Sensor: Nr:Datum:Temp:Feuchte:Taupunkt:
Aussen-T/F 2351 14-08-2019 03:50:00 11.9 C 94 % 10.97 C
2352 14-08-2019 03:55:00 11.9 C 94 % 10.97 C
2353 14-08-2019 04:00:00 11.8 C 94 % 10.87 C
2354 14-08-2019 04:05:00 11.8 C 94 % 10.87 C
2355 14-08-2019 04:10:00 11.7 C 94 % 10.77 C
2356 14-08-2019 04:15:00 11.6 C 94 % 10.67 C
2357 14-08-2019 04:20:00 11.5 C 94 % 10.57 C
2358 14-08-2019 04:25:00 11.4 C 94 % 10.47 C
2359 14-08-2019 04:30:00 11.3 C 94 % 10.37 C
2360 14-08-2019 04:35:00 11.3 C 94 % 10.37 C
2361 14-08-2019 04:40:00 11.2 C 94 % 10.27 C
2362 14-08-2019 04:45:00 11.2 C 94 % 10.27 C
2363 14-08-2019 04:50:00 11.2 C 94 % 10.27 C
2364 14-08-2019 04:55:00 11.2 C 95 % 10.43 C
2365 14-08-2019 05:00:00 11.2 C 95 % 10.43 C
2366 14-08-2019 05:05:00 11.2 C 95 % 10.43 C
2367 14-08-2019 05:10:00 11.1 C 95 % 10.33 C
2368 14-08-2019 05:15:00 11.1 C 95 % 10.33 C
2369 14-08-2019 05:20:00 11.1 C 95 % 10.33 C
2370 14-08-2019 05:25:00 11 C 95 % 10.23 C
2371 14-08-2019 05:30:00 10.9 C 95 % 10.13 C
2372 14-08-2019 05:35:00 10.9 C 95 % 10.13 C
2373 14-08-2019 05:40:00 10.9 C 95 % 10.13 C
2374 14-08-2019 05:45:00 10.9 C 95 % 10.13 C
2375 14-08-2019 05:50:00 10.9 C 95 % 10.13 C
Sensor: Nr:Datum:Temp:Feuchte:Taupunkt:
Aussen-T/F 2376 14-08-2019 05:55:00 10.9 C 95 % 10.13 C
2377 14-08-2019 06:00:00 10.8 C 95 % 10.03 C
2378 14-08-2019 06:05:00 10.8 C 95 % 10.03 C
2379 14-08-2019 06:10:00 10.7 C 95 % 9.93 C
2380 14-08-2019 06:15:00 10.7 C 95 % 9.93 C
2381 14-08-2019 06:20:00 10.6 C 95 % 9.83 C
2382 14-08-2019 06:25:00 10.5 C 95 % 9.73 C
2383 14-08-2019 06:30:00 10.5 C 95 % 9.73 C
2384 14-08-2019 06:35:00 10.5 C 95 % 9.73 C
2385 14-08-2019 06:40:00 10.6 C 96 % 9.99 C
2386 14-08-2019 06:45:00 10.6 C 96 % 9.99 C
2387 14-08-2019 06:50:00 10.6 C 95 % 9.83 C
2388 14-08-2019 06:55:00 10.5 C 95 % 9.73 C
2389 14-08-2019 07:00:00 10.5 C 96 % 9.89 C
2390 14-08-2019 07:05:00 10.5 C 96 % 9.89 C
2391 14-08-2019 07:10:00 10.5 C 96 % 9.89 C
2392 14-08-2019 07:15:00 10.5 C 96 % 9.89 C
2393 14-08-2019 07:20:00 10.6 C 96 % 9.99 C
2394 14-08-2019 07:25:00 10.6 C 96 % 9.99 C
2395 14-08-2019 07:30:00 10.6 C 96 % 9.99 C
2396 14-08-2019 07:35:00 10.6 C 96 % 9.99 C
2397 14-08-2019 07:40:00 10.7 C 96 % 10.09 C
2398 14-08-2019 07:45:00 10.7 C 96 % 10.09 C
2399 14-08-2019 07:50:00 10.8 C 96 % 10.19 C
2400 14-08-2019 07:55:00 10.8 C 96 % 10.19 C
Sensor: Nr:Datum:Temp:Feuchte:Taupunkt:
Aussen-T/F 2401 14-08-2019 08:00:00 10.9 C 96 % 10.29 C
2402 14-08-2019 08:05:00 10.9 C 96 % 10.29 C
2403 14-08-2019 08:10:00 11 C 96 % 10.39 C
2404 14-08-2019 08:15:00 11.1 C 96 % 10.49 C
2405 14-08-2019 08:20:00 11.1 C 96 % 10.49 C
2406 14-08-2019 08:25:00 11.2 C 96 % 10.59 C
2407 14-08-2019 08:30:00 11.3 C 96 % 10.69 C
2408 14-08-2019 08:35:00 11.4 C 96 % 10.79 C
2409 14-08-2019 08:40:00 11.6 C 97 % 11.14 C
2410 14-08-2019 08:45:00 11.9 C 97 % 11.44 C
2411 14-08-2019 08:50:00 12.1 C 97 % 11.64 C
2412 14-08-2019 08:55:00 12.3 C 97 % 11.84 C
2413 14-08-2019 09:00:00 12.4 C 97 % 11.94 C
2414 14-08-2019 09:05:00 12.6 C 96 % 11.98 C
2415 14-08-2019 09:10:00 12.8 C 96 % 12.18 C
2416 14-08-2019 09:15:00 12.9 C 95 % 12.12 C
2417 14-08-2019 09:20:00 13 C 95 % 12.22 C
2418 14-08-2019 09:25:00 13.2 C 94 % 12.26 C
2419 14-08-2019 09:30:00 13.3 C 93 % 12.19 C
2420 14-08-2019 09:35:00 13.6 C 92 % 12.33 C
2421 14-08-2019 09:40:00 13.7 C 92 % 12.42 C
2422 14-08-2019 09:45:00 13.8 C 91 % 12.36 C
2423 14-08-2019 09:50:00 14 C 90 % 12.39 C
2424 14-08-2019 09:55:00 14.1 C 91 % 12.65 C
2425 14-08-2019 10:00:00 14.2 C 91 % 12.75 C
Sensor: Nr:Datum:Temp:Feuchte:Taupunkt:
Aussen-T/F 2426 14-08-2019 10:05:00 14.2 C 91 % 12.75 C
2427 14-08-2019 10:10:00 14.2 C 91 % 12.75 C
2428 14-08-2019 10:15:00 14.2 C 91 % 12.75 C
2429 14-08-2019 10:20:00 14.2 C 92 % 12.92 C
2430 14-08-2019 10:25:00 14.2 C 92 % 12.92 C
2431 14-08-2019 10:30:00 14.2 C 92 % 12.92 C
2432 14-08-2019 10:35:00 14.3 C 92 % 13.02 C
2433 14-08-2019 10:40:00 14.3 C 92 % 13.02 C
2434 14-08-2019 10:45:00 14.3 C 93 % 13.18 C
2435 14-08-2019 10:50:00 14.4 C 93 % 13.28 C
2436 14-08-2019 10:55:00 14.5 C 92 % 13.22 C
2437 14-08-2019 11:00:00 14.6 C 90 % 12.98 C
2438 14-08-2019 11:05:00 14.8 C 90 % 13.18 C
2439 14-08-2019 11:10:00 15 C 87 % 12.86 C
2440 14-08-2019 11:15:00 15.3 C 88 % 13.33 C
2441 14-08-2019 11:20:00 15.5 C 87 % 13.35 C
2442 14-08-2019 11:25:00 15.7 C 87 % 13.54 C
2443 14-08-2019 11:30:00 15.8 C 86 % 13.46 C
2444 14-08-2019 11:35:00 15.9 C 87 % 13.74 C
2445 14-08-2019 11:40:00 15.9 C 76 % 11.68 C
2446 14-08-2019 11:45:00 16.2 C 78 % 12.36 C
2447 14-08-2019 11:50:00 16.5 C 72 % 11.44 C
2448 14-08-2019 11:55:00 16.8 C 71 % 11.52 C
2449 14-08-2019 12:00:00 16.9 C 70 % 11.4 C
2450 14-08-2019 12:05:00 17.2 C 68 % 11.25 C
Sensor: Nr:Datum:Temp:Feuchte:Taupunkt:
Aussen-T/F 2451 14-08-2019 12:10:00 17.6 C 67 % 11.4 C
2452 14-08-2019 12:15:00 17.8 C 64 % 10.9 C
2453 14-08-2019 12:20:00 17.9 C 61 % 10.28 C
2454 14-08-2019 12:25:00 18.1 C 63 % 10.95 C
2455 14-08-2019 12:30:00 18.3 C 63 % 11.14 C
2456 14-08-2019 12:35:00 18.4 C 61 % 10.75 C
2457 14-08-2019 12:40:00 18.6 C 59 % 10.44 C
2458 14-08-2019 12:45:00 18.7 C 58 % 10.28 C
2459 14-08-2019 12:50:00 18.8 C 62 % 11.37 C
2460 14-08-2019 12:55:00 18.9 C 57 % 10.2 C
2461 14-08-2019 13:00:00 19 C 56 % 10.03 C
2462 14-08-2019 13:05:00 19.2 C 57 % 10.48 C
2463 14-08-2019 13:10:00 19.3 C 55 % 10.04 C
2464 14-08-2019 13:15:00 19.3 C 56 % 10.31 C
2465 14-08-2019 13:20:00 19.4 C 55 % 10.13 C
2466 14-08-2019 13:25:00 19.6 C 55 % 10.32 C
2467 14-08-2019 13:30:00 19.7 C 56 % 10.68 C
2468 14-08-2019 13:35:00 19.8 C 58 % 11.3 C
2469 14-08-2019 13:40:00 19.9 C 55 % 10.6 C
2470 14-08-2019 13:45:00 19.8 C 54 % 10.23 C
2471 14-08-2019 13:50:00 19.9 C 53 % 10.04 C
2472 14-08-2019 13:55:00 20.2 C 50 % 9.45 C
2473 14-08-2019 14:00:00 20.3 C 51 % 9.84 C
2474 14-08-2019 14:05:00 20.6 C 51 % 10.12 C
2475 14-08-2019 14:10:00 20.7 C 51 % 10.21 C
Sensor: Nr:Datum:Temp:Feuchte:Taupunkt:
Aussen-T/F 2476 14-08-2019 14:15:00 20.8 C 52 % 10.59 C
2477 14-08-2019 14:20:00 21 C 49 % 9.89 C
2478 14-08-2019 14:25:00 21.2 C 50 % 10.37 C
2479 14-08-2019 14:30:00 21.2 C 48 % 9.76 C
2480 14-08-2019 14:35:00 21.1 C 50 % 10.28 C
2481 14-08-2019 14:40:00 21.2 C 52 % 10.96 C
2482 14-08-2019 14:45:00 21.5 C 50 % 10.65 C
2483 14-08-2019 14:50:00 21.7 C 49 % 10.53 C
2484 14-08-2019 14:55:00 21.7 C 49 % 10.53 C
2485 14-08-2019 15:00:00 21.8 C 51 % 11.22 C
2486 14-08-2019 15:05:00 21.9 C 51 % 11.31 C
2487 14-08-2019 15:10:00 22.3 C 48 % 10.77 C
2488 14-08-2019 15:15:00 22.6 C 49 % 11.35 C
2489 14-08-2019 15:20:00 22.8 C 48 % 11.22 C
2490 14-08-2019 15:25:00 22.9 C 47 % 11 C
2491 14-08-2019 15:30:00 23.1 C 48 % 11.5 C
2492 14-08-2019 15:35:00 22.9 C 52 % 12.53 C
2493 14-08-2019 15:40:00 22.7 C 47 % 10.81 C
2494 14-08-2019 15:45:00 22.4 C 53 % 12.36 C
2495 14-08-2019 15:50:00 22.7 C 49 % 11.44 C
2496 14-08-2019 15:55:00 23.2 C 48 % 11.59 C
2497 14-08-2019 16:00:00 23.1 C 49 % 11.81 C
2498 14-08-2019 16:05:00 23.2 C 48 % 11.59 C
2499 14-08-2019 16:10:00 23.6 C 46 % 11.31 C
2500 14-08-2019 16:15:00 23.7 C 45 % 11.07 C
Sensor: Nr:Datum:Temp:Feuchte:Taupunkt:
Aussen-T/F 2501 14-08-2019 16:20:00 23.7 C 45 % 11.07 C
2502 14-08-2019 16:25:00 23.9 C 46 % 11.58 C
2503 14-08-2019 16:30:00 23.9 C 46 % 11.58 C
2504 14-08-2019 16:35:00 24.1 C 46 % 11.76 C
2505 14-08-2019 16:40:00 24 C 46 % 11.67 C
2506 14-08-2019 16:45:00 23.9 C 46 % 11.58 C
2507 14-08-2019 16:50:00 23.9 C 45 % 11.25 C
2508 14-08-2019 16:55:00 23.9 C 47 % 11.91 C
2509 14-08-2019 17:00:00 24.3 C 45 % 11.61 C
2510 14-08-2019 17:05:00 24.7 C 45 % 11.97 C
2511 14-08-2019 17:10:00 24.8 C 44 % 11.72 C
2512 14-08-2019 17:15:00 24.6 C 43 % 11.2 C
2513 14-08-2019 17:20:00 24.5 C 46 % 12.13 C
2514 14-08-2019 17:25:00 24.3 C 46 % 11.94 C
2515 14-08-2019 17:30:00 24.2 C 46 % 11.85 C
2516 14-08-2019 17:35:00 24.2 C 45 % 11.52 C
2517 14-08-2019 17:40:00 24.4 C 45 % 11.7 C
2518 14-08-2019 17:45:00 24.4 C 44 % 11.36 C
2519 14-08-2019 17:50:00 24.5 C 44 % 11.45 C
2520 14-08-2019 17:55:00 24.4 C 44 % 11.36 C
2521 14-08-2019 18:00:00 24.4 C 46 % 12.04 C
2522 14-08-2019 18:05:00 24.4 C 44 % 11.36 C
2523 14-08-2019 18:10:00 24.3 C 46 % 11.94 C
2524 14-08-2019 18:15:00 23.8 C 45 % 11.16 C
2525 14-08-2019 18:20:00 23.7 C 47 % 11.73 C
Sensor: Nr:Datum:Temp:Feuchte:Taupunkt:
Aussen-T/F 2526 14-08-2019 18:25:00 24 C 49 % 12.63 C
2527 14-08-2019 18:30:00 24.2 C 46 % 11.85 C
2528 14-08-2019 18:35:00 24.3 C 48 % 12.59 C
2529 14-08-2019 18:40:00 24 C 47 % 12 C
2530 14-08-2019 18:45:00 23.8 C 48 % 12.14 C
2531 14-08-2019 18:50:00 23.5 C 47 % 11.54 C
2532 14-08-2019 18:55:00 23.6 C 48 % 11.95 C
2533 14-08-2019 19:00:00 23.8 C 48 % 12.14 C
2534 14-08-2019 19:05:00 23.9 C 49 % 12.54 C
2535 14-08-2019 19:10:00 23.7 C 49 % 12.36 C
2536 14-08-2019 19:15:00 23.2 C 49 % 11.9 C
2537 14-08-2019 19:20:00 22.7 C 53 % 12.63 C
2538 14-08-2019 19:25:00 22.3 C 54 % 12.55 C
2539 14-08-2019 19:30:00 21.9 C 60 % 13.79 C
2540 14-08-2019 19:35:00 21.6 C 60 % 13.51 C
2541 14-08-2019 19:40:00 21.3 C 62 % 13.73 C
2542 14-08-2019 19:45:00 21.2 C 64 % 14.12 C
2543 14-08-2019 19:50:00 21.1 C 65 % 14.27 C
2544 14-08-2019 19:55:00 21.1 C 65 % 14.27 C
2545 14-08-2019 20:00:00 20.9 C 64 % 13.84 C
2546 14-08-2019 20:05:00 20.7 C 66 % 14.12 C
2547 14-08-2019 20:10:00 20.3 C 66 % 13.74 C
2548 14-08-2019 20:15:00 20.1 C 66 % 13.55 C
2549 14-08-2019 20:20:00 19.8 C 66 % 13.27 C
2550 14-08-2019 20:25:00 19.6 C 67 % 13.31 C
Sensor: Nr:Datum:Temp:Feuchte:Taupunkt:
Aussen-T/F 2551 14-08-2019 20:30:00 19.4 C 68 % 13.34 C
2552 14-08-2019 20:35:00 19.3 C 68 % 13.25 C
2553 14-08-2019 20:40:00 19.2 C 69 % 13.38 C
2554 14-08-2019 20:45:00 19.1 C 70 % 13.5 C
2555 14-08-2019 20:50:00 18.9 C 70 % 13.31 C
2556 14-08-2019 20:55:00 18.8 C 71 % 13.43 C
2557 14-08-2019 21:00:00 18.7 C 71 % 13.34 C
2558 14-08-2019 21:05:00 18.6 C 72 % 13.46 C
2559 14-08-2019 21:10:00 18.4 C 72 % 13.26 C
2560 14-08-2019 21:15:00 18.3 C 73 % 13.38 C
2561 14-08-2019 21:20:00 18.2 C 74 % 13.49 C
2562 14-08-2019 21:25:00 18.1 C 75 % 13.6 C
2563 14-08-2019 21:30:00 18 C 75 % 13.51 C
2564 14-08-2019 21:35:00 17.9 C 75 % 13.41 C
2565 14-08-2019 21:40:00 17.8 C 75 % 13.31 C
2566 14-08-2019 21:45:00 17.8 C 76 % 13.52 C
2567 14-08-2019 21:50:00 17.7 C 75 % 13.22 C
2568 14-08-2019 21:55:00 17.7 C 76 % 13.42 C
2569 14-08-2019 22:00:00 17.7 C 76 % 13.42 C
2570 14-08-2019 22:05:00 17.7 C 76 % 13.42 C
2571 14-08-2019 22:10:00 17.7 C 76 % 13.42 C
2572 14-08-2019 22:15:00 17.7 C 76 % 13.42 C
2573 14-08-2019 22:20:00 17.7 C 76 % 13.42 C
2574 14-08-2019 22:25:00 17.6 C 76 % 13.32 C
2575 14-08-2019 22:30:00 17.6 C 76 % 13.32 C
Sensor: Nr:Datum:Temp:Feuchte:Taupunkt:
Aussen-T/F 2576 14-08-2019 22:35:00 17.6 C 77 % 13.52 C
2577 14-08-2019 22:40:00 17.6 C 76 % 13.32 C
2578 14-08-2019 22:45:00 17.6 C 76 % 13.32 C
2579 14-08-2019 22:50:00 17.6 C 77 % 13.52 C
2580 14-08-2019 22:55:00 17.5 C 76 % 13.23 C
2581 14-08-2019 23:00:00 17.5 C 76 % 13.23 C
2582 14-08-2019 23:05:00 17.5 C 77 % 13.43 C
2583 14-08-2019 23:10:00 17.4 C 76 % 13.13 C
2584 14-08-2019 23:15:00 17.4 C 76 % 13.13 C
2585 14-08-2019 23:20:00 17.4 C 76 % 13.13 C
2586 14-08-2019 23:25:00 17.4 C 78 % 13.53 C
2587 14-08-2019 23:30:00 17.4 C 77 % 13.33 C
2588 14-08-2019 23:35:00 17.4 C 77 % 13.33 C
2589 14-08-2019 23:40:00 17.4 C 77 % 13.33 C
2590 14-08-2019 23:45:00 17.4 C 77 % 13.33 C
2591 14-08-2019 23:50:00 17.3 C 75 % 12.83 C
2592 14-08-2019 23:55:00 17.3 C 76 % 13.03 C
2593 15-08-2019 00:00:00 17.4 C 76 % 13.13 C
2594 15-08-2019 00:05:00 17.4 C 76 % 13.13 C
2595 15-08-2019 00:10:00 17.4 C 77 % 13.33 C
2596 15-08-2019 00:15:00 17.4 C 77 % 13.33 C
2597 15-08-2019 00:20:00 17.3 C 78 % 13.43 C
2598 15-08-2019 00:25:00 17.3 C 77 % 13.23 C
2599 15-08-2019 00:30:00 17.3 C 78 % 13.43 C
2600 15-08-2019 00:35:00 17.3 C 77 % 13.23 C
Sensor: Nr:Datum:Temp:Feuchte:Taupunkt:
Aussen-T/F 2601 15-08-2019 00:40:00 17.3 C 75 % 12.83 C
2602 15-08-2019 00:45:00 17.3 C 76 % 13.03 C
2603 15-08-2019 00:50:00 17.4 C 76 % 13.13 C
2604 15-08-2019 00:55:00 17.5 C 76 % 13.23 C
2605 15-08-2019 01:00:00 17.5 C 78 % 13.62 C
2606 15-08-2019 01:05:00 17.5 C 76 % 13.23 C
2607 15-08-2019 01:10:00 17.5 C 76 % 13.23 C
2608 15-08-2019 01:15:00 17.5 C 77 % 13.43 C
2609 15-08-2019 01:20:00 17.4 C 77 % 13.33 C
2610 15-08-2019 01:25:00 17.4 C 77 % 13.33 C
2611 15-08-2019 01:30:00 17.3 C 76 % 13.03 C
2612 15-08-2019 01:35:00 17.3 C 76 % 13.03 C
2613 15-08-2019 01:40:00 17.3 C 77 % 13.23 C
2614 15-08-2019 01:45:00 17.3 C 77 % 13.23 C
2615 15-08-2019 01:50:00 17.3 C 80 % 13.82 C
2616 15-08-2019 01:55:00 17.3 C 83 % 14.39 C
2617 15-08-2019 02:00:00 17.2 C 84 % 14.47 C
2618 15-08-2019 02:05:00 16.9 C 85 % 14.36 C
2619 15-08-2019 02:10:00 16.7 C 86 % 14.35 C
2620 15-08-2019 02:15:00 16.4 C 87 % 14.23 C
2621 15-08-2019 02:20:00 16.3 C 88 % 14.31 C
2622 15-08-2019 02:25:00 16.1 C 88 % 14.11 C
2623 15-08-2019 02:30:00 16 C 89 % 14.19 C
2624 15-08-2019 02:35:00 15.9 C 90 % 14.26 C
2625 15-08-2019 02:40:00 15.8 C 90 % 14.16 C
Sensor: Nr:Datum:Temp:Feuchte:Taupunkt:
Aussen-T/F 2626 15-08-2019 02:45:00 15.8 C 91 % 14.33 C
2627 15-08-2019 02:50:00 15.7 C 91 % 14.24 C
2628 15-08-2019 02:55:00 15.6 C 92 % 14.31 C
2629 15-08-2019 03:00:00 15.6 C 92 % 14.31 C
2630 15-08-2019 03:05:00 15.5 C 92 % 14.21 C
2631 15-08-2019 03:10:00 15.4 C 92 % 14.11 C
2632 15-08-2019 03:15:00 15.3 C 92 % 14.01 C
2633 15-08-2019 03:20:00 15.3 C 92 % 14.01 C
2634 15-08-2019 03:25:00 15.3 C 92 % 14.01 C
2635 15-08-2019 03:30:00 15.2 C 92 % 13.91 C
2636 15-08-2019 03:35:00 15.2 C 93 % 14.08 C
2637 15-08-2019 03:40:00 15.2 C 93 % 14.08 C
2638 15-08-2019 03:45:00 15.1 C 93 % 13.98 C
2639 15-08-2019 03:50:00 15.1 C 93 % 13.98 C
2640 15-08-2019 03:55:00 15.1 C 93 % 13.98 C
2641 15-08-2019 04:00:00 15 C 93 % 13.88 C
2642 15-08-2019 04:05:00 14.9 C 93 % 13.78 C
2643 15-08-2019 04:10:00 14.9 C 93 % 13.78 C
2644 15-08-2019 04:15:00 14.9 C 93 % 13.78 C
2645 15-08-2019 04:20:00 14.9 C 94 % 13.94 C
2646 15-08-2019 04:25:00 14.9 C 94 % 13.94 C
2647 15-08-2019 04:30:00 14.9 C 94 % 13.94 C
2648 15-08-2019 04:35:00 14.9 C 94 % 13.94 C
2649 15-08-2019 04:40:00 14.9 C 94 % 13.94 C
2650 15-08-2019 04:45:00 14.9 C 94 % 13.94 C
Sensor: Nr:Datum:Temp:Feuchte:Taupunkt:
Aussen-T/F 2651 15-08-2019 04:50:00 14.9 C 94 % 13.94 C
2652 15-08-2019 04:55:00 14.9 C 94 % 13.94 C
2653 15-08-2019 05:00:00 14.9 C 94 % 13.94 C
2654 15-08-2019 05:05:00 14.9 C 94 % 13.94 C
2655 15-08-2019 05:10:00 14.9 C 94 % 13.94 C
2656 15-08-2019 05:15:00 14.9 C 94 % 13.94 C
2657 15-08-2019 05:20:00 14.8 C 94 % 13.84 C
2658 15-08-2019 05:25:00 14.8 C 94 % 13.84 C
2659 15-08-2019 05:30:00 14.8 C 94 % 13.84 C
2660 15-08-2019 05:35:00 14.8 C 94 % 13.84 C
2661 15-08-2019 05:40:00 14.8 C 94 % 13.84 C
2662 15-08-2019 05:45:00 14.8 C 94 % 13.84 C
2663 15-08-2019 05:50:00 14.8 C 95 % 14.01 C
2664 15-08-2019 05:55:00 14.9 C 95 % 14.11 C
2665 15-08-2019 06:00:00 14.9 C 95 % 14.11 C
2666 15-08-2019 06:05:00 14.9 C 95 % 14.11 C
2667 15-08-2019 06:10:00 15 C 95 % 14.21 C
2668 15-08-2019 06:15:00 14.9 C 95 % 14.11 C
2669 15-08-2019 06:20:00 14.9 C 95 % 14.11 C
2670 15-08-2019 06:25:00 14.9 C 95 % 14.11 C
2671 15-08-2019 06:30:00 15 C 95 % 14.21 C
2672 15-08-2019 06:35:00 15 C 95 % 14.21 C
2673 15-08-2019 06:40:00 15 C 95 % 14.21 C
2674 15-08-2019 06:45:00 15 C 95 % 14.21 C
2675 15-08-2019 06:50:00 15 C 94 % 14.04 C
Sensor: Nr:Datum:Temp:Feuchte:Taupunkt:
Aussen-T/F 2676 15-08-2019 06:55:00 15.1 C 94 % 14.14 C
2677 15-08-2019 07:00:00 15.2 C 94 % 14.24 C
2678 15-08-2019 07:05:00 15.2 C 94 % 14.24 C
2679 15-08-2019 07:10:00 15.2 C 94 % 14.24 C
2680 15-08-2019 07:15:00 15.3 C 94 % 14.34 C
2681 15-08-2019 07:20:00 15.3 C 94 % 14.34 C
2682 15-08-2019 07:25:00 15.4 C 93 % 14.27 C
2683 15-08-2019 07:30:00 15.5 C 93 % 14.37 C
2684 15-08-2019 07:35:00 15.6 C 93 % 14.47 C
2685 15-08-2019 07:40:00 15.7 C 91 % 14.24 C
2686 15-08-2019 07:45:00 16 C 91 % 14.53 C
2687 15-08-2019 07:50:00 16.2 C 90 % 14.56 C
2688 15-08-2019 07:55:00 16.6 C 87 % 14.43 C
2689 15-08-2019 08:00:00 16.9 C 85 % 14.36 C
2690 15-08-2019 08:05:00 17.3 C 84 % 14.57 C
2691 15-08-2019 08:10:00 17.5 C 84 % 14.77 C
2692 15-08-2019 08:15:00 17.6 C 83 % 14.68 C
2693 15-08-2019 08:20:00 17.6 C 84 % 14.87 C
2694 15-08-2019 08:25:00 17.6 C 86 % 15.23 C
2695 15-08-2019 08:30:00 17.6 C 86 % 15.23 C
2696 15-08-2019 08:35:00 17.5 C 84 % 14.77 C
2697 15-08-2019 08:40:00 17.7 C 84 % 14.96 C
2698 15-08-2019 08:45:00 17.8 C 83 % 14.88 C
2699 15-08-2019 08:50:00 17.9 C 82 % 14.78 C
2700 15-08-2019 08:55:00 18.1 C 82 % 14.98 C
Sensor: Nr:Datum:Temp:Feuchte:Taupunkt:
Aussen-T/F 2701 15-08-2019 09:00:00 18.2 C 82 % 15.08 C
2702 15-08-2019 09:05:00 18.3 C 81 % 14.98 C
2703 15-08-2019 09:10:00 18.3 C 82 % 15.17 C
2704 15-08-2019 09:15:00 18.4 C 82 % 15.27 C
2705 15-08-2019 09:20:00 18.4 C 81 % 15.08 C
2706 15-08-2019 09:25:00 18.5 C 81 % 15.18 C
2707 15-08-2019 09:30:00 18.5 C 81 % 15.18 C
2708 15-08-2019 09:35:00 18.5 C 82 % 15.37 C
2709 15-08-2019 09:40:00 18.6 C 81 % 15.28 C
2710 15-08-2019 09:45:00 18.6 C 81 % 15.28 C
2711 15-08-2019 09:50:00 18.7 C 82 % 15.57 C
2712 15-08-2019 09:55:00 18.8 C 82 % 15.66 C
2713 15-08-2019 10:00:00 18.8 C 81 % 15.47 C
2714 15-08-2019 10:05:00 18.9 C 82 % 15.76 C
2715 15-08-2019 10:10:00 18.9 C 81 % 15.57 C
2716 15-08-2019 10:15:00 19 C 81 % 15.67 C
2717 15-08-2019 10:20:00 19 C 81 % 15.67 C
2718 15-08-2019 10:25:00 19.1 C 82 % 15.96 C
2719 15-08-2019 10:30:00 19.2 C 81 % 15.86 C
2720 15-08-2019 10:35:00 19.3 C 81 % 15.96 C
2721 15-08-2019 10:40:00 19.3 C 81 % 15.96 C
2722 15-08-2019 10:45:00 19.4 C 80 % 15.86 C
2723 15-08-2019 10:50:00 19.4 C 81 % 16.06 C
2724 15-08-2019 10:55:00 19.4 C 80 % 15.86 C
2725 15-08-2019 11:00:00 19.4 C 80 % 15.86 C
Sensor: Nr:Datum:Temp:Feuchte:Taupunkt:
Aussen-T/F 2726 15-08-2019 11:05:00 19.3 C 81 % 15.96 C
2727 15-08-2019 11:10:00 19.3 C 82 % 16.15 C
2728 15-08-2019 11:15:00 19.3 C 82 % 16.15 C
2729 15-08-2019 11:20:00 19.2 C 82 % 16.05 C
2730 15-08-2019 11:25:00 19.2 C 82 % 16.05 C
2731 15-08-2019 11:30:00 19.2 C 82 % 16.05 C
2732 15-08-2019 11:35:00 19.2 C 82 % 16.05 C
2733 15-08-2019 11:40:00 19.3 C 82 % 16.15 C
2734 15-08-2019 11:45:00 19.4 C 82 % 16.25 C
2735 15-08-2019 11:50:00 19.4 C 81 % 16.06 C
2736 15-08-2019 11:55:00 19.2 C 81 % 15.86 C
2737 15-08-2019 12:00:00 19.2 C 83 % 16.24 C
2738 15-08-2019 12:05:00 19.3 C 82 % 16.15 C
2739 15-08-2019 12:10:00 19.5 C 81 % 16.15 C
2740 15-08-2019 12:15:00 19.7 C 80 % 16.15 C
2741 15-08-2019 12:20:00 19.8 C 79 % 16.05 C
2742 15-08-2019 12:25:00 20.1 C 79 % 16.34 C
2743 15-08-2019 12:30:00 20.3 C 79 % 16.54 C
2744 15-08-2019 12:35:00 20.4 C 77 % 16.23 C
2745 15-08-2019 12:40:00 20.4 C 76 % 16.03 C
2746 15-08-2019 12:45:00 20.3 C 77 % 16.14 C
2747 15-08-2019 12:50:00 20.1 C 80 % 16.54 C
2748 15-08-2019 12:55:00 19.8 C 83 % 16.83 C
2749 15-08-2019 13:00:00 19.7 C 85 % 17.11 C
2750 15-08-2019 13:05:00 19.4 C 85 % 16.81 C
Sensor: Nr:Datum:Temp:Feuchte:Taupunkt:
Aussen-T/F 2751 15-08-2019 13:10:00 19.1 C 85 % 16.52 C
2752 15-08-2019 13:15:00 18.9 C 86 % 16.51 C
2753 15-08-2019 13:20:00 18.7 C 88 % 16.67 C
2754 15-08-2019 13:25:00 18.7 C 90 % 17.03 C
2755 15-08-2019 13:30:00 18.8 C 90 % 17.12 C
2756 15-08-2019 13:35:00 18.8 C 90 % 17.12 C
2757 15-08-2019 13:40:00 18.7 C 91 % 17.2 C
2758 15-08-2019 13:45:00 18.7 C 91 % 17.2 C
2759 15-08-2019 13:50:00 18.8 C 92 % 17.47 C
2760 15-08-2019 13:55:00 19 C 91 % 17.5 C
2761 15-08-2019 14:00:00 19.2 C 90 % 17.52 C
2762 15-08-2019 14:05:00 19.3 C 90 % 17.62 C
2763 15-08-2019 14:10:00 19.4 C 89 % 17.54 C
2764 15-08-2019 14:15:00 19.5 C 87 % 17.28 C
2765 15-08-2019 14:20:00 19.5 C 86 % 17.1 C
2766 15-08-2019 14:25:00 19.6 C 87 % 17.38 C
2767 15-08-2019 14:30:00 19.7 C 86 % 17.29 C
2768 15-08-2019 14:35:00 19.6 C 85 % 17.01 C
2769 15-08-2019 14:40:00 19.8 C 85 % 17.21 C
2770 15-08-2019 14:45:00 20.1 C 84 % 17.31 C
2771 15-08-2019 14:50:00 20.4 C 82 % 17.22 C
2772 15-08-2019 14:55:00 20.7 C 81 % 17.32 C
2773 15-08-2019 15:00:00 20.9 C 81 % 17.52 C
2774 15-08-2019 15:05:00 21.2 C 79 % 17.41 C
2775 15-08-2019 15:10:00 21.5 C 77 % 17.3 C
Sensor: Nr:Datum:Temp:Feuchte:Taupunkt:
Aussen-T/F 2776 15-08-2019 15:15:00 21.7 C 76 % 17.28 C
2777 15-08-2019 15:20:00 21.8 C 76 % 17.38 C
2778 15-08-2019 15:25:00 21.5 C 77 % 17.3 C
2779 15-08-2019 15:30:00 21 C 78 % 17.02 C
2780 15-08-2019 15:35:00 20.6 C 81 % 17.22 C
2781 15-08-2019 15:40:00 20.2 C 85 % 17.6 C
2782 15-08-2019 15:45:00 19.9 C 87 % 17.67 C
2783 15-08-2019 15:50:00 19.6 C 89 % 17.74 C
2784 15-08-2019 15:55:00 19.6 C 90 % 17.91 C
2785 15-08-2019 16:00:00 19.3 C 90 % 17.62 C
2786 15-08-2019 16:05:00 19.4 C 92 % 18.07 C
2787 15-08-2019 16:10:00 19.4 C 92 % 18.07 C
2788 15-08-2019 16:15:00 19.7 C 92 % 18.36 C
2789 15-08-2019 16:20:00 19.8 C 91 % 18.29 C
2790 15-08-2019 16:25:00 19.9 C 90 % 18.21 C
2791 15-08-2019 16:30:00 19.8 C 88 % 17.75 C
2792 15-08-2019 16:35:00 19.7 C 88 % 17.66 C
2793 15-08-2019 16:40:00 19.6 C 89 % 17.74 C
2794 15-08-2019 16:45:00 19 C 86 % 16.6 C
2795 15-08-2019 16:50:00 18.4 C 88 % 16.38 C
2796 15-08-2019 16:55:00 17.9 C 89 % 16.06 C
2797 15-08-2019 17:00:00 17.6 C 91 % 16.11 C
2798 15-08-2019 17:05:00 17.6 C 92 % 16.28 C
2799 15-08-2019 17:10:00 17.5 C 92 % 16.19 C
2800 15-08-2019 17:15:00 17.3 C 92 % 15.99 C
Sensor: Nr:Datum:Temp:Feuchte:Taupunkt:
Aussen-T/F 2801 15-08-2019 17:20:00 17.3 C 93 % 16.16 C
2802 15-08-2019 17:25:00 17.2 C 93 % 16.06 C
2803 15-08-2019 17:30:00 17.3 C 93 % 16.16 C
2804 15-08-2019 17:35:00 17.3 C 94 % 16.33 C
2805 15-08-2019 17:40:00 17.2 C 93 % 16.06 C
2806 15-08-2019 17:45:00 17.2 C 94 % 16.23 C
2807 15-08-2019 17:50:00 17.1 C 94 % 16.13 C
2808 15-08-2019 17:55:00 17 C 94 % 16.03 C
2809 15-08-2019 18:00:00 17.1 C 94 % 16.13 C
2810 15-08-2019 18:05:00 17.1 C 94 % 16.13 C
2811 15-08-2019 18:10:00 17.1 C 94 % 16.13 C
2812 15-08-2019 18:15:00 17.1 C 94 % 16.13 C
2813 15-08-2019 18:20:00 17 C 94 % 16.03 C
2814 15-08-2019 18:25:00 16.9 C 94 % 15.93 C
2815 15-08-2019 18:30:00 16.9 C 94 % 15.93 C
2816 15-08-2019 18:35:00 16.9 C 94 % 15.93 C
2817 15-08-2019 18:40:00 16.9 C 94 % 15.93 C
2818 15-08-2019 18:45:00 16.9 C 95 % 16.09 C
2819 15-08-2019 18:50:00 16.9 C 95 % 16.09 C
2820 15-08-2019 18:55:00 16.9 C 94 % 15.93 C
2821 15-08-2019 19:00:00 16.9 C 95 % 16.09 C
2822 15-08-2019 19:05:00 17.1 C 95 % 16.29 C
2823 15-08-2019 19:10:00 17.3 C 95 % 16.49 C
2824 15-08-2019 19:15:00 17.5 C 96 % 16.85 C
2825 15-08-2019 19:20:00 17.5 C 95 % 16.69 C
Sensor: Nr:Datum:Temp:Feuchte:Taupunkt:
Aussen-T/F 2826 15-08-2019 19:25:00 17.5 C 95 % 16.69 C
2827 15-08-2019 19:30:00 17.4 C 94 % 16.42 C
2828 15-08-2019 19:35:00 17.3 C 94 % 16.33 C
2829 15-08-2019 19:40:00 17.2 C 94 % 16.23 C
2830 15-08-2019 19:45:00 17.1 C 94 % 16.13 C
2831 15-08-2019 19:50:00 17.1 C 94 % 16.13 C
2832 15-08-2019 19:55:00 17.1 C 94 % 16.13 C
2833 15-08-2019 20:00:00 17.2 C 95 % 16.39 C
2834 15-08-2019 20:05:00 17.2 C 95 % 16.39 C
2835 15-08-2019 20:10:00 17.3 C 95 % 16.49 C
2836 15-08-2019 20:15:00 17.3 C 95 % 16.49 C
2837 15-08-2019 20:20:00 17.3 C 95 % 16.49 C
2838 15-08-2019 20:25:00 17.2 C 95 % 16.39 C
2839 15-08-2019 20:30:00 17.1 C 95 % 16.29 C
2840 15-08-2019 20:35:00 17.1 C 94 % 16.13 C
2841 15-08-2019 20:40:00 17 C 94 % 16.03 C
2842 15-08-2019 20:45:00 16.9 C 94 % 15.93 C
2843 15-08-2019 20:50:00 16.8 C 94 % 15.83 C
2844 15-08-2019 20:55:00 16.7 C 94 % 15.73 C
2845 15-08-2019 21:00:00 16.6 C 94 % 15.63 C
2846 15-08-2019 21:05:00 16.5 C 94 % 15.53 C
2847 15-08-2019 21:10:00 16.4 C 95 % 15.6 C
2848 15-08-2019 21:15:00 16.4 C 95 % 15.6 C
2849 15-08-2019 21:20:00 16.4 C 95 % 15.6 C
2850 15-08-2019 21:25:00 16.4 C 95 % 15.6 C
Sensor: Nr:Datum:Temp:Feuchte:Taupunkt:
Aussen-T/F 2851 15-08-2019 21:30:00 16.4 C 95 % 15.6 C
2852 15-08-2019 21:35:00 16.4 C 95 % 15.6 C
2853 15-08-2019 21:40:00 16.4 C 95 % 15.6 C
2854 15-08-2019 21:45:00 16.4 C 95 % 15.6 C
2855 15-08-2019 21:50:00 16.3 C 95 % 15.5 C
2856 15-08-2019 21:55:00 16.3 C 94 % 15.33 C
2857 15-08-2019 22:00:00 16.2 C 94 % 15.23 C
2858 15-08-2019 22:05:00 16.2 C 94 % 15.23 C
2859 15-08-2019 22:10:00 16.2 C 95 % 15.4 C
2860 15-08-2019 22:15:00 16.1 C 94 % 15.13 C
2861 15-08-2019 22:20:00 16.1 C 95 % 15.3 C
2862 15-08-2019 22:25:00 15.9 C 94 % 14.94 C
2863 15-08-2019 22:30:00 15.9 C 94 % 14.94 C
2864 15-08-2019 22:35:00 15.8 C 95 % 15 C
2865 15-08-2019 22:40:00 15.8 C 95 % 15 C
2866 15-08-2019 22:45:00 15.7 C 95 % 14.9 C
2867 15-08-2019 22:50:00 15.7 C 95 % 14.9 C
2868 15-08-2019 22:55:00 15.6 C 95 % 14.8 C
2869 15-08-2019 23:00:00 15.6 C 95 % 14.8 C
2870 15-08-2019 23:05:00 15.6 C 95 % 14.8 C
2871 15-08-2019 23:10:00 15.6 C 95 % 14.8 C
2872 15-08-2019 23:15:00 15.6 C 95 % 14.8 C
2873 15-08-2019 23:20:00 15.6 C 95 % 14.8 C
2874 15-08-2019 23:25:00 15.6 C 95 % 14.8 C
2875 15-08-2019 23:30:00 15.6 C 95 % 14.8 C
Sensor: Nr:Datum:Temp:Feuchte:Taupunkt:
Aussen-T/F 2876 15-08-2019 23:35:00 15.5 C 95 % 14.7 C
2877 15-08-2019 23:40:00 15.4 C 95 % 14.6 C
2878 15-08-2019 23:45:00 15.5 C 95 % 14.7 C
2879 15-08-2019 23:50:00 15.5 C 95 % 14.7 C
2880 15-08-2019 23:55:00 15.4 C 95 % 14.6 C
2881 16-08-2019 00:00:00 15.4 C 95 % 14.6 C
2882 16-08-2019 00:05:00 15.4 C 95 % 14.6 C
2883 16-08-2019 00:10:00 15.4 C 95 % 14.6 C
2884 16-08-2019 00:15:00 15.4 C 96 % 14.77 C
2885 16-08-2019 00:20:00 15.4 C 95 % 14.6 C
2886 16-08-2019 00:25:00 15.4 C 95 % 14.6 C
2887 16-08-2019 00:30:00 15.4 C 95 % 14.6 C
2888 16-08-2019 00:35:00 15.3 C 95 % 14.5 C
2889 16-08-2019 00:40:00 15.2 C 95 % 14.4 C
2890 16-08-2019 00:45:00 15.2 C 95 % 14.4 C
2891 16-08-2019 00:50:00 15.1 C 95 % 14.31 C
2892 16-08-2019 00:55:00 14.9 C 95 % 14.11 C
2893 16-08-2019 01:00:00 14.8 C 95 % 14.01 C
2894 16-08-2019 01:05:00 14.8 C 95 % 14.01 C
2895 16-08-2019 01:10:00 14.7 C 95 % 13.91 C
2896 16-08-2019 01:15:00 14.7 C 95 % 13.91 C
2897 16-08-2019 01:20:00 14.7 C 95 % 13.91 C
2898 16-08-2019 01:25:00 14.6 C 95 % 13.81 C
2899 16-08-2019 01:30:00 14.6 C 95 % 13.81 C
2900 16-08-2019 01:35:00 14.6 C 95 % 13.81 C
Sensor: Nr:Datum:Temp:Feuchte:Taupunkt:
Aussen-T/F 2901 16-08-2019 01:40:00 14.6 C 95 % 13.81 C
2902 16-08-2019 01:45:00 14.5 C 96 % 13.87 C
2903 16-08-2019 01:50:00 14.5 C 96 % 13.87 C
2904 16-08-2019 01:55:00 14.5 C 96 % 13.87 C
2905 16-08-2019 02:00:00 14.5 C 96 % 13.87 C
2906 16-08-2019 02:05:00 14.5 C 96 % 13.87 C
2907 16-08-2019 02:10:00 14.5 C 96 % 13.87 C
2908 16-08-2019 02:15:00 14.6 C 96 % 13.97 C
2909 16-08-2019 02:20:00 14.6 C 96 % 13.97 C
2910 16-08-2019 02:25:00 14.6 C 96 % 13.97 C
2911 16-08-2019 02:30:00 14.6 C 96 % 13.97 C
2912 16-08-2019 02:35:00 14.6 C 96 % 13.97 C
2913 16-08-2019 02:40:00 14.6 C 96 % 13.97 C
2914 16-08-2019 02:45:00 14.6 C 96 % 13.97 C
2915 16-08-2019 02:50:00 14.6 C 96 % 13.97 C
2916 16-08-2019 02:55:00 14.6 C 96 % 13.97 C
2917 16-08-2019 03:00:00 14.6 C 96 % 13.97 C
2918 16-08-2019 03:05:00 14.6 C 96 % 13.97 C
2919 16-08-2019 03:10:00 14.6 C 96 % 13.97 C
2920 16-08-2019 03:15:00 14.6 C 96 % 13.97 C
2921 16-08-2019 03:20:00 14.6 C 96 % 13.97 C
2922 16-08-2019 03:25:00 14.7 C 96 % 14.07 C
2923 16-08-2019 03:30:00 14.7 C 96 % 14.07 C
2924 16-08-2019 03:35:00 14.7 C 96 % 14.07 C
2925 16-08-2019 03:40:00 14.7 C 96 % 14.07 C
Sensor: Nr:Datum:Temp:Feuchte:Taupunkt:
Aussen-T/F 2926 16-08-2019 03:45:00 14.7 C 96 % 14.07 C
2927 16-08-2019 03:50:00 14.6 C 96 % 13.97 C
2928 16-08-2019 03:55:00 14.6 C 96 % 13.97 C
2929 16-08-2019 04:00:00 14.6 C 96 % 13.97 C
2930 16-08-2019 04:05:00 14.6 C 96 % 13.97 C
2931 16-08-2019 04:10:00 14.5 C 96 % 13.87 C
2932 16-08-2019 04:15:00 14.4 C 96 % 13.77 C
2933 16-08-2019 04:20:00 14.3 C 96 % 13.67 C
2934 16-08-2019 04:25:00 14.1 C 96 % 13.47 C
2935 16-08-2019 04:30:00 14 C 96 % 13.37 C
2936 16-08-2019 04:35:00 13.8 C 96 % 13.17 C
2937 16-08-2019 04:40:00 13.8 C 96 % 13.17 C
2938 16-08-2019 04:45:00 13.7 C 96 % 13.07 C
2939 16-08-2019 04:50:00 13.6 C 96 % 12.97 C
2940 16-08-2019 04:55:00 13.6 C 96 % 12.97 C
2941 16-08-2019 05:00:00 13.6 C 96 % 12.97 C
2942 16-08-2019 05:05:00 13.5 C 96 % 12.87 C
2943 16-08-2019 05:10:00 13.5 C 96 % 12.87 C
2944 16-08-2019 05:15:00 13.6 C 96 % 12.97 C
2945 16-08-2019 05:20:00 13.6 C 96 % 12.97 C
2946 16-08-2019 05:25:00 13.6 C 96 % 12.97 C
2947 16-08-2019 05:30:00 13.6 C 96 % 12.97 C
2948 16-08-2019 05:35:00 13.6 C 96 % 12.97 C
2949 16-08-2019 05:40:00 13.6 C 96 % 12.97 C
2950 16-08-2019 05:45:00 13.6 C 97 % 13.13 C
Sensor: Nr:Datum:Temp:Feuchte:Taupunkt:
Aussen-T/F 2951 16-08-2019 05:50:00 13.5 C 97 % 13.03 C
2952 16-08-2019 05:55:00 13.6 C 97 % 13.13 C
2953 16-08-2019 06:00:00 13.6 C 97 % 13.13 C
2954 16-08-2019 06:05:00 13.6 C 97 % 13.13 C
2955 16-08-2019 06:10:00 13.6 C 97 % 13.13 C
2956 16-08-2019 06:15:00 13.6 C 97 % 13.13 C
2957 16-08-2019 06:20:00 13.6 C 97 % 13.13 C
2958 16-08-2019 06:25:00 13.6 C 97 % 13.13 C
2959 16-08-2019 06:30:00 13.6 C 97 % 13.13 C
2960 16-08-2019 06:35:00 13.7 C 97 % 13.23 C
2961 16-08-2019 06:40:00 13.8 C 97 % 13.33 C
2962 16-08-2019 06:45:00 13.8 C 97 % 13.33 C
2963 16-08-2019 06:50:00 13.9 C 97 % 13.43 C
2964 16-08-2019 06:55:00 13.9 C 97 % 13.43 C
2965 16-08-2019 07:00:00 14.1 C 97 % 13.63 C
2966 16-08-2019 07:05:00 14.1 C 97 % 13.63 C
2967 16-08-2019 07:10:00 14.1 C 97 % 13.63 C
2968 16-08-2019 07:15:00 14.1 C 97 % 13.63 C
2969 16-08-2019 07:20:00 14.1 C 97 % 13.63 C
2970 16-08-2019 07:25:00 14.2 C 97 % 13.73 C
2971 16-08-2019 07:30:00 14.2 C 97 % 13.73 C
2972 16-08-2019 07:35:00 14.2 C 96 % 13.57 C
2973 16-08-2019 07:40:00 14.2 C 96 % 13.57 C
2974 16-08-2019 07:45:00 14.3 C 96 % 13.67 C
2975 16-08-2019 07:50:00 14.3 C 96 % 13.67 C
Sensor: Nr:Datum:Temp:Feuchte:Taupunkt:
Aussen-T/F 2976 16-08-2019 07:55:00 14.3 C 96 % 13.67 C
2977 16-08-2019 08:00:00 14.3 C 96 % 13.67 C
2978 16-08-2019 08:05:00 14.3 C 96 % 13.67 C
2979 16-08-2019 08:10:00 14.3 C 96 % 13.67 C
2980 16-08-2019 08:15:00 14.3 C 96 % 13.67 C
2981 16-08-2019 08:20:00 14.3 C 96 % 13.67 C
2982 16-08-2019 08:25:00 14.3 C 96 % 13.67 C
2983 16-08-2019 08:30:00 14.4 C 96 % 13.77 C
2984 16-08-2019 08:35:00 14.4 C 95 % 13.61 C
2985 16-08-2019 08:40:00 14.6 C 95 % 13.81 C
2986 16-08-2019 08:45:00 14.7 C 94 % 13.74 C
2987 16-08-2019 08:50:00 14.8 C 93 % 13.68 C
2988 16-08-2019 08:55:00 14.8 C 92 % 13.51 C
2989 16-08-2019 09:00:00 14.9 C 92 % 13.61 C
2990 16-08-2019 09:05:00 15.1 C 91 % 13.64 C
2991 16-08-2019 09:10:00 15.2 C 91 % 13.74 C
2992 16-08-2019 09:15:00 15.3 C 91 % 13.84 C
2993 16-08-2019 09:20:00 15.3 C 90 % 13.67 C
2994 16-08-2019 09:25:00 15.4 C 90 % 13.77 C
2995 16-08-2019 09:30:00 15.6 C 89 % 13.79 C
2996 16-08-2019 09:35:00 15.7 C 89 % 13.89 C
2997 16-08-2019 09:40:00 15.8 C 89 % 13.99 C
2998 16-08-2019 09:45:00 16 C 89 % 14.19 C
2999 16-08-2019 09:50:00 16.1 C 88 % 14.11 C
3000 16-08-2019 09:55:00 16.1 C 88 % 14.11 C
Sensor: Nr:Datum:Temp:Feuchte:Taupunkt:
Aussen-T/F 3001 16-08-2019 10:00:00 16.1 C 87 % 13.94 C
3002 16-08-2019 10:05:00 16.1 C 87 % 13.94 C
3003 16-08-2019 10:10:00 16.1 C 86 % 13.76 C
3004 16-08-2019 10:15:00 16.2 C 87 % 14.03 C
3005 16-08-2019 10:20:00 16.2 C 87 % 14.03 C
3006 16-08-2019 10:25:00 16.3 C 86 % 13.95 C
3007 16-08-2019 10:30:00 16.3 C 85 % 13.77 C
3008 16-08-2019 10:35:00 16.2 C 85 % 13.68 C
3009 16-08-2019 10:40:00 16.3 C 85 % 13.77 C
3010 16-08-2019 10:45:00 16.4 C 85 % 13.87 C
3011 16-08-2019 10:50:00 16.4 C 85 % 13.87 C
3012 16-08-2019 10:55:00 16.6 C 84 % 13.89 C
3013 16-08-2019 11:00:00 16.7 C 84 % 13.98 C
3014 16-08-2019 11:05:00 16.7 C 84 % 13.98 C
3015 16-08-2019 11:10:00 16.7 C 84 % 13.98 C
3016 16-08-2019 11:15:00 16.8 C 84 % 14.08 C
3017 16-08-2019 11:20:00 16.9 C 83 % 14 C
3018 16-08-2019 11:25:00 17.1 C 83 % 14.19 C
3019 16-08-2019 11:30:00 17.1 C 82 % 14 C
3020 16-08-2019 11:35:00 17.2 C 83 % 14.29 C
3021 16-08-2019 11:40:00 17.3 C 81 % 14.01 C
3022 16-08-2019 11:45:00 17.4 C 81 % 14.11 C
3023 16-08-2019 11:50:00 17.6 C 80 % 14.11 C
3024 16-08-2019 11:55:00 17.7 C 80 % 14.21 C
3025 16-08-2019 12:00:00 17.8 C 80 % 14.31 C
Sensor: Nr:Datum:Temp:Feuchte:Taupunkt:
Aussen-T/F 3026 16-08-2019 12:05:00 17.8 C 78 % 13.91 C
3027 16-08-2019 12:10:00 17.9 C 79 % 14.21 C
3028 16-08-2019 12:15:00 18 C 78 % 14.11 C
3029 16-08-2019 12:20:00 18.2 C 78 % 14.3 C
3030 16-08-2019 12:25:00 18.3 C 76 % 14 C
3031 16-08-2019 12:30:00 18.5 C 76 % 14.19 C
3032 16-08-2019 12:35:00 18.7 C 76 % 14.39 C
3033 16-08-2019 12:40:00 18.8 C 75 % 14.28 C
3034 16-08-2019 12:45:00 18.9 C 74 % 14.17 C
3035 16-08-2019 12:50:00 19.1 C 74 % 14.36 C
3036 16-08-2019 12:55:00 19.2 C 73 % 14.25 C
3037 16-08-2019 13:00:00 19.3 C 72 % 14.13 C
3038 16-08-2019 13:05:00 19.4 C 72 % 14.22 C
3039 16-08-2019 13:10:00 19.4 C 70 % 13.79 C
3040 16-08-2019 13:15:00 19.5 C 71 % 14.1 C
3041 16-08-2019 13:20:00 19.6 C 70 % 13.98 C
3042 16-08-2019 13:25:00 19.7 C 70 % 14.08 C
3043 16-08-2019 13:30:00 19.7 C 71 % 14.3 C
3044 16-08-2019 13:35:00 19.8 C 70 % 14.17 C
3045 16-08-2019 13:40:00 19.8 C 71 % 14.39 C
3046 16-08-2019 13:45:00 19.8 C 71 % 14.39 C
3047 16-08-2019 13:50:00 19.9 C 70 % 14.27 C
3048 16-08-2019 13:55:00 19.9 C 71 % 14.49 C
3049 16-08-2019 14:00:00 19.9 C 71 % 14.49 C
3050 16-08-2019 14:05:00 19.9 C 69 % 14.05 C
Sensor: Nr:Datum:Temp:Feuchte:Taupunkt:
Aussen-T/F 3051 16-08-2019 14:10:00 19.9 C 69 % 14.05 C
3052 16-08-2019 14:15:00 20.1 C 69 % 14.24 C
3053 16-08-2019 14:20:00 20.2 C 69 % 14.33 C
3054 16-08-2019 14:25:00 20.2 C 68 % 14.11 C
3055 16-08-2019 14:30:00 20.4 C 67 % 14.07 C
3056 16-08-2019 14:35:00 20.5 C 67 % 14.16 C
3057 16-08-2019 14:40:00 20.7 C 67 % 14.36 C
3058 16-08-2019 14:45:00 20.9 C 66 % 14.31 C
3059 16-08-2019 14:50:00 21 C 65 % 14.17 C
3060 16-08-2019 14:55:00 21.1 C 65 % 14.27 C
3061 16-08-2019 15:00:00 21.3 C 65 % 14.46 C
3062 16-08-2019 15:05:00 21.5 C 65 % 14.65 C
3063 16-08-2019 15:10:00 21.7 C 62 % 14.1 C
3064 16-08-2019 15:15:00 21.8 C 63 % 14.45 C
3065 16-08-2019 15:20:00 21.8 C 60 % 13.69 C
3066 16-08-2019 15:25:00 21.7 C 61 % 13.85 C
3067 16-08-2019 15:30:00 21.8 C 60 % 13.69 C
3068 16-08-2019 15:35:00 22.1 C 58 % 13.45 C
3069 16-08-2019 15:40:00 22.3 C 61 % 14.42 C
3070 16-08-2019 15:45:00 22.2 C 59 % 13.81 C
3071 16-08-2019 15:50:00 22.1 C 59 % 13.72 C
3072 16-08-2019 15:55:00 22.6 C 59 % 14.18 C
3073 16-08-2019 16:00:00 22.7 C 56 % 13.47 C
3074 16-08-2019 16:05:00 22.9 C 55 % 13.38 C
3075 16-08-2019 16:10:00 23.1 C 57 % 14.12 C
Sensor: Nr:Datum:Temp:Feuchte:Taupunkt:
Aussen-T/F 3076 16-08-2019 16:15:00 23.2 C 54 % 13.38 C
3077 16-08-2019 16:20:00 23.4 C 59 % 14.93 C
3078 16-08-2019 16:25:00 23.8 C 55 % 14.22 C
3079 16-08-2019 16:30:00 24 C 54 % 14.12 C
3080 16-08-2019 16:35:00 24 C 53 % 13.83 C
3081 16-08-2019 16:40:00 23.9 C 54 % 14.03 C
3082 16-08-2019 16:45:00 24.1 C 52 % 13.63 C
3083 16-08-2019 16:50:00 24.3 C 53 % 14.11 C
3084 16-08-2019 16:55:00 24.2 C 52 % 13.73 C
3085 16-08-2019 17:00:00 24.2 C 51 % 13.43 C
3086 16-08-2019 17:05:00 24.4 C 53 % 14.2 C
3087 16-08-2019 17:10:00 24.4 C 52 % 13.91 C
3088 16-08-2019 17:15:00 24.5 C 50 % 13.4 C
3089 16-08-2019 17:20:00 24.5 C 51 % 13.7 C
3090 16-08-2019 17:25:00 24.4 C 52 % 13.91 C
3091 16-08-2019 17:30:00 24.4 C 50 % 13.31 C
3092 16-08-2019 17:35:00 24.6 C 53 % 14.39 C
3093 16-08-2019 17:40:00 24.7 C 51 % 13.89 C
3094 16-08-2019 17:45:00 24.3 C 54 % 14.4 C
3095 16-08-2019 17:50:00 24.5 C 54 % 14.58 C
3096 16-08-2019 17:55:00 24.8 C 51 % 13.98 C
3097 16-08-2019 18:00:00 24.8 C 55 % 15.15 C
3098 16-08-2019 18:05:00 24.9 C 52 % 14.37 C
3099 16-08-2019 18:10:00 24.7 C 51 % 13.89 C
3100 16-08-2019 18:15:00 24.4 C 54 % 14.49 C
Sensor: Nr:Datum:Temp:Feuchte:Taupunkt:
Aussen-T/F 3101 16-08-2019 18:20:00 24.6 C 52 % 14.09 C
3102 16-08-2019 18:25:00 24.6 C 52 % 14.09 C
3103 16-08-2019 18:30:00 24.4 C 52 % 13.91 C
3104 16-08-2019 18:35:00 24.3 C 50 % 13.22 C
3105 16-08-2019 18:40:00 24.1 C 52 % 13.63 C
3106 16-08-2019 18:45:00 24.1 C 51 % 13.34 C
3107 16-08-2019 18:50:00 24.2 C 52 % 13.73 C
3108 16-08-2019 18:55:00 24.1 C 52 % 13.63 C
3109 16-08-2019 19:00:00 24.1 C 54 % 14.21 C
3110 16-08-2019 19:05:00 24.1 C 54 % 14.21 C
3111 16-08-2019 19:10:00 24.1 C 53 % 13.93 C
3112 16-08-2019 19:15:00 23.9 C 53 % 13.74 C
3113 16-08-2019 19:20:00 23.7 C 53 % 13.56 C
3114 16-08-2019 19:25:00 23.5 C 53 % 13.37 C
3115 16-08-2019 19:30:00 23.3 C 59 % 14.84 C
3116 16-08-2019 19:35:00 23.1 C 60 % 14.91 C
3117 16-08-2019 19:40:00 23.1 C 65 % 16.16 C
3118 16-08-2019 19:45:00 22.9 C 64 % 15.73 C
3119 16-08-2019 19:50:00 22.7 C 65 % 15.78 C
3120 16-08-2019 19:55:00 22.5 C 65 % 15.59 C
3121 16-08-2019 20:00:00 22.1 C 67 % 15.69 C
3122 16-08-2019 20:05:00 21.7 C 68 % 15.54 C
3123 16-08-2019 20:10:00 21.2 C 68 % 15.06 C
3124 16-08-2019 20:15:00 20.8 C 70 % 15.13 C
3125 16-08-2019 20:20:00 20.4 C 71 % 14.97 C
Sensor: Nr:Datum:Temp:Feuchte:Taupunkt:
Aussen-T/F 3126 16-08-2019 20:25:00 20.1 C 71 % 14.68 C
3127 16-08-2019 20:30:00 19.8 C 72 % 14.61 C
3128 16-08-2019 20:35:00 19.4 C 73 % 14.44 C
3129 16-08-2019 20:40:00 19.2 C 73 % 14.25 C
3130 16-08-2019 20:45:00 18.9 C 74 % 14.17 C
3131 16-08-2019 20:50:00 18.7 C 76 % 14.39 C
3132 16-08-2019 20:55:00 18.6 C 76 % 14.29 C
3133 16-08-2019 21:00:00 18.4 C 78 % 14.5 C
3134 16-08-2019 21:05:00 18.2 C 78 % 14.3 C
3135 16-08-2019 21:10:00 18.1 C 78 % 14.21 C
3136 16-08-2019 21:15:00 18 C 80 % 14.5 C
3137 16-08-2019 21:20:00 17.9 C 80 % 14.4 C
3138 16-08-2019 21:25:00 17.8 C 80 % 14.31 C
3139 16-08-2019 21:30:00 17.7 C 81 % 14.4 C
3140 16-08-2019 21:35:00 17.6 C 81 % 14.3 C
3141 16-08-2019 21:40:00 17.5 C 81 % 14.2 C
3142 16-08-2019 21:45:00 17.4 C 82 % 14.3 C
3143 16-08-2019 21:50:00 17.3 C 82 % 14.2 C
3144 16-08-2019 21:55:00 17.2 C 83 % 14.29 C
3145 16-08-2019 22:00:00 17.2 C 83 % 14.29 C
3146 16-08-2019 22:05:00 17.1 C 84 % 14.38 C
3147 16-08-2019 22:10:00 17.1 C 84 % 14.38 C
3148 16-08-2019 22:15:00 17 C 85 % 14.46 C
3149 16-08-2019 22:20:00 16.9 C 85 % 14.36 C
3150 16-08-2019 22:25:00 16.9 C 85 % 14.36 C
Sensor: Nr:Datum:Temp:Feuchte:Taupunkt:
Aussen-T/F 3151 16-08-2019 22:30:00 16.8 C 85 % 14.26 C
3152 16-08-2019 22:35:00 16.8 C 85 % 14.26 C
3153 16-08-2019 22:40:00 16.7 C 85 % 14.17 C
3154 16-08-2019 22:45:00 16.7 C 85 % 14.17 C
3155 16-08-2019 22:50:00 16.7 C 86 % 14.35 C
3156 16-08-2019 22:55:00 16.7 C 86 % 14.35 C
3157 16-08-2019 23:00:00 16.6 C 86 % 14.25 C
3158 16-08-2019 23:05:00 16.5 C 86 % 14.15 C
3159 16-08-2019 23:10:00 16.4 C 86 % 14.05 C
3160 16-08-2019 23:15:00 16.3 C 86 % 13.95 C
3161 16-08-2019 23:20:00 16.3 C 86 % 13.95 C
3162 16-08-2019 23:25:00 16.2 C 87 % 14.03 C
3163 16-08-2019 23:30:00 16.2 C 87 % 14.03 C
3164 16-08-2019 23:35:00 16.2 C 87 % 14.03 C
3165 16-08-2019 23:40:00 16.1 C 87 % 13.94 C
3166 16-08-2019 23:45:00 16.1 C 87 % 13.94 C
3167 16-08-2019 23:50:00 16 C 87 % 13.84 C
3168 16-08-2019 23:55:00 15.9 C 87 % 13.74 C
3169 17-08-2019 00:00:00 15.8 C 87 % 13.64 C
3170 17-08-2019 00:05:00 15.7 C 87 % 13.54 C
3171 17-08-2019 00:10:00 15.7 C 87 % 13.54 C
3172 17-08-2019 00:15:00 15.6 C 87 % 13.45 C
3173 17-08-2019 00:20:00 15.6 C 88 % 13.62 C
3174 17-08-2019 00:25:00 15.6 C 88 % 13.62 C
3175 17-08-2019 00:30:00 15.6 C 88 % 13.62 C
Sensor: Nr:Datum:Temp:Feuchte:Taupunkt:
Aussen-T/F 3176 17-08-2019 00:35:00 15.7 C 89 % 13.89 C
3177 17-08-2019 00:40:00 15.7 C 89 % 13.89 C
3178 17-08-2019 00:45:00 15.7 C 88 % 13.72 C
3179 17-08-2019 00:50:00 15.8 C 88 % 13.82 C
3180 17-08-2019 00:55:00 15.8 C 88 % 13.82 C
3181 17-08-2019 01:00:00 15.8 C 88 % 13.82 C
3182 17-08-2019 01:05:00 15.8 C 88 % 13.82 C
3183 17-08-2019 01:10:00 15.9 C 88 % 13.92 C
3184 17-08-2019 01:15:00 15.9 C 89 % 14.09 C
3185 17-08-2019 01:20:00 15.9 C 88 % 13.92 C
3186 17-08-2019 01:25:00 15.9 C 88 % 13.92 C
3187 17-08-2019 01:30:00 15.9 C 89 % 14.09 C
3188 17-08-2019 01:35:00 15.9 C 88 % 13.92 C
3189 17-08-2019 01:40:00 15.9 C 88 % 13.92 C
3190 17-08-2019 01:45:00 15.8 C 88 % 13.82 C
3191 17-08-2019 01:50:00 15.8 C 88 % 13.82 C
3192 17-08-2019 01:55:00 15.9 C 89 % 14.09 C
3193 17-08-2019 02:00:00 15.9 C 89 % 14.09 C
3194 17-08-2019 02:05:00 15.8 C 88 % 13.82 C
3195 17-08-2019 02:10:00 15.8 C 88 % 13.82 C
3196 17-08-2019 02:15:00 15.8 C 88 % 13.82 C
3197 17-08-2019 02:20:00 15.8 C 88 % 13.82 C
3198 17-08-2019 02:25:00 15.8 C 89 % 13.99 C
3199 17-08-2019 02:30:00 15.7 C 88 % 13.72 C
3200 17-08-2019 02:35:00 15.7 C 89 % 13.89 C
Sensor: Nr:Datum:Temp:Feuchte:Taupunkt:
Aussen-T/F 3201 17-08-2019 02:40:00 15.7 C 89 % 13.89 C
3202 17-08-2019 02:45:00 15.7 C 89 % 13.89 C
3203 17-08-2019 02:50:00 15.7 C 89 % 13.89 C
3204 17-08-2019 02:55:00 15.8 C 90 % 14.16 C
3205 17-08-2019 03:00:00 15.8 C 90 % 14.16 C
3206 17-08-2019 03:05:00 15.8 C 90 % 14.16 C
3207 17-08-2019 03:10:00 15.8 C 90 % 14.16 C
3208 17-08-2019 03:15:00 15.8 C 90 % 14.16 C
3209 17-08-2019 03:20:00 15.8 C 91 % 14.33 C
3210 17-08-2019 03:25:00 15.8 C 91 % 14.33 C
3211 17-08-2019 03:30:00 15.8 C 91 % 14.33 C
3212 17-08-2019 03:35:00 15.8 C 92 % 14.5 C
3213 17-08-2019 03:40:00 15.7 C 92 % 14.4 C
3214 17-08-2019 03:45:00 15.7 C 92 % 14.4 C
3215 17-08-2019 03:50:00 15.7 C 92 % 14.4 C
3216 17-08-2019 03:55:00 15.7 C 92 % 14.4 C
3217 17-08-2019 04:00:00 15.7 C 92 % 14.4 C
3218 17-08-2019 04:05:00 15.7 C 93 % 14.57 C
3219 17-08-2019 04:10:00 15.7 C 93 % 14.57 C
3220 17-08-2019 04:15:00 15.7 C 93 % 14.57 C
3221 17-08-2019 04:20:00 15.7 C 93 % 14.57 C
3222 17-08-2019 04:25:00 15.7 C 93 % 14.57 C
3223 17-08-2019 04:30:00 15.7 C 93 % 14.57 C
3224 17-08-2019 04:35:00 15.7 C 93 % 14.57 C
3225 17-08-2019 04:40:00 15.7 C 94 % 14.74 C
Sensor: Nr:Datum:Temp:Feuchte:Taupunkt:
Aussen-T/F 3226 17-08-2019 04:45:00 15.7 C 94 % 14.74 C
3227 17-08-2019 04:50:00 15.6 C 94 % 14.64 C
3228 17-08-2019 04:55:00 15.7 C 94 % 14.74 C
3229 17-08-2019 05:00:00 15.7 C 94 % 14.74 C
3230 17-08-2019 05:05:00 15.7 C 94 % 14.74 C
3231 17-08-2019 05:10:00 15.7 C 94 % 14.74 C
3232 17-08-2019 05:15:00 15.7 C 94 % 14.74 C
3233 17-08-2019 05:20:00 15.6 C 94 % 14.64 C
3234 17-08-2019 05:25:00 15.6 C 94 % 14.64 C
3235 17-08-2019 05:30:00 15.6 C 94 % 14.64 C
3236 17-08-2019 05:35:00 15.6 C 94 % 14.64 C
3237 17-08-2019 05:40:00 15.6 C 94 % 14.64 C
3238 17-08-2019 05:45:00 15.6 C 94 % 14.64 C
3239 17-08-2019 05:50:00 15.6 C 94 % 14.64 C
3240 17-08-2019 05:55:00 15.6 C 94 % 14.64 C
3241 17-08-2019 06:00:00 15.6 C 94 % 14.64 C
3242 17-08-2019 06:05:00 15.6 C 94 % 14.64 C
3243 17-08-2019 06:10:00 15.6 C 94 % 14.64 C
3244 17-08-2019 06:15:00 15.6 C 94 % 14.64 C
3245 17-08-2019 06:20:00 15.6 C 94 % 14.64 C
3246 17-08-2019 06:25:00 15.6 C 94 % 14.64 C
3247 17-08-2019 06:30:00 15.6 C 94 % 14.64 C
3248 17-08-2019 06:35:00 15.7 C 94 % 14.74 C
3249 17-08-2019 06:40:00 15.7 C 94 % 14.74 C
3250 17-08-2019 06:45:00 15.7 C 94 % 14.74 C
Sensor: Nr:Datum:Temp:Feuchte:Taupunkt:
Aussen-T/F 3251 17-08-2019 06:50:00 15.8 C 94 % 14.84 C
3252 17-08-2019 06:55:00 15.8 C 94 % 14.84 C
3253 17-08-2019 07:00:00 15.8 C 94 % 14.84 C
3254 17-08-2019 07:05:00 15.8 C 94 % 14.84 C
3255 17-08-2019 07:10:00 15.9 C 94 % 14.94 C
3256 17-08-2019 07:15:00 16 C 94 % 15.03 C
3257 17-08-2019 07:20:00 16.1 C 94 % 15.13 C
3258 17-08-2019 07:25:00 16.1 C 94 % 15.13 C
3259 17-08-2019 07:30:00 16.2 C 94 % 15.23 C
3260 17-08-2019 07:35:00 16.2 C 94 % 15.23 C
3261 17-08-2019 07:40:00 16.3 C 94 % 15.33 C
3262 17-08-2019 07:45:00 16.3 C 94 % 15.33 C
3263 17-08-2019 07:50:00 16.4 C 94 % 15.43 C
3264 17-08-2019 07:55:00 16.5 C 94 % 15.53 C
3265 17-08-2019 08:00:00 16.6 C 94 % 15.63 C
3266 17-08-2019 08:05:00 16.6 C 94 % 15.63 C
3267 17-08-2019 08:10:00 16.7 C 94 % 15.73 C
3268 17-08-2019 08:15:00 16.7 C 94 % 15.73 C
3269 17-08-2019 08:20:00 16.7 C 92 % 15.39 C
3270 17-08-2019 08:25:00 16.8 C 92 % 15.49 C
3271 17-08-2019 08:30:00 16.8 C 91 % 15.32 C
3272 17-08-2019 08:35:00 16.9 C 90 % 15.25 C
3273 17-08-2019 08:40:00 17.1 C 90 % 15.45 C
3274 17-08-2019 08:45:00 17.3 C 88 % 15.29 C
3275 17-08-2019 08:50:00 17.5 C 86 % 15.13 C
Sensor: Nr:Datum:Temp:Feuchte:Taupunkt:
Aussen-T/F 3276 17-08-2019 08:55:00 17.8 C 84 % 15.06 C
3277 17-08-2019 09:00:00 18.2 C 83 % 15.27 C
3278 17-08-2019 09:05:00 18.5 C 80 % 14.99 C
3279 17-08-2019 09:10:00 18.7 C 81 % 15.37 C
3280 17-08-2019 09:15:00 18.7 C 81 % 15.37 C
3281 17-08-2019 09:20:00 18.7 C 79 % 14.99 C
3282 17-08-2019 09:25:00 18.7 C 79 % 14.99 C
3283 17-08-2019 09:30:00 18.7 C 81 % 15.37 C
3284 17-08-2019 09:35:00 18.7 C 80 % 15.18 C
3285 17-08-2019 09:40:00 18.7 C 79 % 14.99 C
3286 17-08-2019 09:45:00 18.8 C 80 % 15.28 C
3287 17-08-2019 09:50:00 18.8 C 79 % 15.08 C
3288 17-08-2019 09:55:00 18.8 C 80 % 15.28 C
3289 17-08-2019 10:00:00 18.9 C 80 % 15.38 C
3290 17-08-2019 10:05:00 18.9 C 80 % 15.38 C
3291 17-08-2019 10:10:00 18.9 C 81 % 15.57 C
3292 17-08-2019 10:15:00 19 C 81 % 15.67 C
3293 17-08-2019 10:20:00 19.1 C 81 % 15.76 C
3294 17-08-2019 10:25:00 19.1 C 80 % 15.57 C
3295 17-08-2019 10:30:00 19.1 C 81 % 15.76 C
3296 17-08-2019 10:35:00 19.1 C 80 % 15.57 C
3297 17-08-2019 10:40:00 19.1 C 81 % 15.76 C
3298 17-08-2019 10:45:00 19.1 C 82 % 15.96 C
3299 17-08-2019 10:50:00 19 C 82 % 15.86 C
3300 17-08-2019 10:55:00 18.9 C 84 % 16.14 C
Sensor: Nr:Datum:Temp:Feuchte:Taupunkt:
Aussen-T/F 3301 17-08-2019 11:00:00 18.8 C 84 % 16.04 C
3302 17-08-2019 11:05:00 18.8 C 86 % 16.41 C
3303 17-08-2019 11:10:00 18.7 C 86 % 16.31 C
3304 17-08-2019 11:15:00 18.6 C 86 % 16.21 C
3305 17-08-2019 11:20:00 18.4 C 87 % 16.2 C
3306 17-08-2019 11:25:00 18.4 C 88 % 16.38 C
3307 17-08-2019 11:30:00 18.4 C 88 % 16.38 C
3308 17-08-2019 11:35:00 18.4 C 88 % 16.38 C
3309 17-08-2019 11:40:00 18.5 C 88 % 16.48 C
3310 17-08-2019 11:45:00 18.6 C 87 % 16.39 C
3311 17-08-2019 11:50:00 18.7 C 88 % 16.67 C
3312 17-08-2019 11:55:00 18.8 C 86 % 16.41 C
3313 17-08-2019 12:00:00 18.9 C 86 % 16.51 C
3314 17-08-2019 12:05:00 18.9 C 87 % 16.69 C
3315 17-08-2019 12:10:00 19 C 87 % 16.79 C
3316 17-08-2019 12:15:00 18.9 C 87 % 16.69 C
3317 17-08-2019 12:20:00 18.9 C 86 % 16.51 C
3318 17-08-2019 12:25:00 19.1 C 86 % 16.7 C
3319 17-08-2019 12:30:00 19.1 C 85 % 16.52 C
3320 17-08-2019 12:35:00 19.3 C 85 % 16.72 C
3321 17-08-2019 12:40:00 19.5 C 84 % 16.72 C
3322 17-08-2019 12:45:00 19.7 C 84 % 16.92 C
3323 17-08-2019 12:50:00 19.9 C 84 % 17.12 C
3324 17-08-2019 12:55:00 20.1 C 81 % 16.74 C
3325 17-08-2019 13:00:00 20.3 C 80 % 16.74 C
Sensor: Nr:Datum:Temp:Feuchte:Taupunkt:
Aussen-T/F 3326 17-08-2019 13:05:00 20.5 C 79 % 16.73 C
3327 17-08-2019 13:10:00 20.6 C 76 % 16.22 C
3328 17-08-2019 13:15:00 20.5 C 78 % 16.53 C
3329 17-08-2019 13:20:00 20.5 C 76 % 16.12 C
3330 17-08-2019 13:25:00 20.6 C 77 % 16.43 C
3331 17-08-2019 13:30:00 20.7 C 76 % 16.32 C
3332 17-08-2019 13:35:00 20.8 C 76 % 16.41 C
3333 17-08-2019 13:40:00 21 C 75 % 16.4 C
3334 17-08-2019 13:45:00 21 C 74 % 16.19 C
3335 17-08-2019 13:50:00 20.9 C 75 % 16.3 C
3336 17-08-2019 13:55:00 20.8 C 74 % 16 C
3337 17-08-2019 14:00:00 20.8 C 75 % 16.21 C
3338 17-08-2019 14:05:00 20.8 C 76 % 16.41 C
3339 17-08-2019 14:10:00 20.8 C 75 % 16.21 C
3340 17-08-2019 14:15:00 20.9 C 74 % 16.09 C
3341 17-08-2019 14:20:00 20.9 C 75 % 16.3 C
3342 17-08-2019 14:25:00 21 C 76 % 16.61 C
3343 17-08-2019 14:30:00 21.1 C 75 % 16.5 C
3344 17-08-2019 14:35:00 21.1 C 75 % 16.5 C
3345 17-08-2019 14:40:00 21.1 C 75 % 16.5 C
3346 17-08-2019 14:45:00 21.1 C 74 % 16.29 C
3347 17-08-2019 14:50:00 21.2 C 75 % 16.59 C
3348 17-08-2019 14:55:00 21.2 C 74 % 16.38 C
3349 17-08-2019 15:00:00 21.3 C 74 % 16.48 C
3350 17-08-2019 15:05:00 21.4 C 74 % 16.57 C
Sensor: Nr:Datum:Temp:Feuchte:Taupunkt:
Aussen-T/F 3351 17-08-2019 15:10:00 21.4 C 74 % 16.57 C
3352 17-08-2019 15:15:00 21.4 C 74 % 16.57 C
3353 17-08-2019 15:20:00 21.4 C 74 % 16.57 C
3354 17-08-2019 15:25:00 21.3 C 74 % 16.48 C
3355 17-08-2019 15:30:00 21.2 C 75 % 16.59 C
3356 17-08-2019 15:35:00 21.2 C 77 % 17.01 C
3357 17-08-2019 15:40:00 21.2 C 76 % 16.8 C
3358 17-08-2019 15:45:00 21.3 C 75 % 16.69 C
3359 17-08-2019 15:50:00 21.3 C 75 % 16.69 C
3360 17-08-2019 15:55:00 21.4 C 76 % 16.99 C
3361 17-08-2019 16:00:00 21.4 C 75 % 16.79 C
3362 17-08-2019 16:05:00 21.4 C 75 % 16.79 C
3363 17-08-2019 16:10:00 21.4 C 75 % 16.79 C
3364 17-08-2019 16:15:00 21.3 C 75 % 16.69 C
3365 17-08-2019 16:20:00 21.1 C 75 % 16.5 C
3366 17-08-2019 16:25:00 20.8 C 76 % 16.41 C
3367 17-08-2019 16:30:00 20.8 C 77 % 16.62 C
3368 17-08-2019 16:35:00 20.7 C 76 % 16.32 C
3369 17-08-2019 16:40:00 20.7 C 77 % 16.52 C
3370 17-08-2019 16:45:00 20.8 C 77 % 16.62 C
3371 17-08-2019 16:50:00 20.8 C 76 % 16.41 C
3372 17-08-2019 16:55:00 20.8 C 77 % 16.62 C
3373 17-08-2019 17:00:00 20.7 C 78 % 16.73 C
3374 17-08-2019 17:05:00 20.7 C 79 % 16.93 C
3375 17-08-2019 17:10:00 20.6 C 77 % 16.43 C
Sensor: Nr:Datum:Temp:Feuchte:Taupunkt:
Aussen-T/F 3376 17-08-2019 17:15:00 20.5 C 77 % 16.33 C
3377 17-08-2019 17:20:00 20.4 C 77 % 16.23 C
3378 17-08-2019 17:25:00 20.4 C 76 % 16.03 C
3379 17-08-2019 17:30:00 20.4 C 78 % 16.44 C
3380 17-08-2019 17:35:00 20.4 C 77 % 16.23 C
3381 17-08-2019 17:40:00 20.3 C 78 % 16.34 C
3382 17-08-2019 17:45:00 20.3 C 79 % 16.54 C
3383 17-08-2019 17:50:00 20.3 C 79 % 16.54 C
3384 17-08-2019 17:55:00 20.3 C 80 % 16.74 C
3385 17-08-2019 18:00:00 20.3 C 79 % 16.54 C
3386 17-08-2019 18:05:00 20.3 C 80 % 16.74 C
3387 17-08-2019 18:10:00 20.3 C 81 % 16.93 C
3388 17-08-2019 18:15:00 20.2 C 82 % 17.03 C
3389 17-08-2019 18:20:00 20.1 C 83 % 17.12 C
3390 17-08-2019 18:25:00 20.1 C 83 % 17.12 C
3391 17-08-2019 18:30:00 19.9 C 84 % 17.12 C
3392 17-08-2019 18:35:00 19.8 C 85 % 17.21 C
3393 17-08-2019 18:40:00 19.7 C 84 % 16.92 C
3394 17-08-2019 18:45:00 19.7 C 85 % 17.11 C
3395 17-08-2019 18:50:00 19.7 C 85 % 17.11 C
3396 17-08-2019 18:55:00 19.6 C 86 % 17.19 C
3397 17-08-2019 19:00:00 19.6 C 87 % 17.38 C
3398 17-08-2019 19:05:00 19.5 C 87 % 17.28 C
3399 17-08-2019 19:10:00 19.4 C 86 % 17 C
3400 17-08-2019 19:15:00 19.3 C 87 % 17.08 C
Sensor: Nr:Datum:Temp:Feuchte:Taupunkt:
Aussen-T/F 3401 17-08-2019 19:20:00 19.2 C 88 % 17.16 C
3402 17-08-2019 19:25:00 19.1 C 88 % 17.07 C
3403 17-08-2019 19:30:00 19.1 C 88 % 17.07 C
3404 17-08-2019 19:35:00 19 C 89 % 17.15 C
3405 17-08-2019 19:40:00 18.9 C 89 % 17.05 C
3406 17-08-2019 19:45:00 18.9 C 90 % 17.22 C
3407 17-08-2019 19:50:00 18.8 C 90 % 17.12 C
3408 17-08-2019 19:55:00 18.7 C 90 % 17.03 C
3409 17-08-2019 20:00:00 18.7 C 90 % 17.03 C
3410 17-08-2019 20:05:00 18.6 C 90 % 16.93 C
3411 17-08-2019 20:10:00 18.6 C 91 % 17.1 C
3412 17-08-2019 20:15:00 18.4 C 91 % 16.9 C
3413 17-08-2019 20:20:00 18.4 C 91 % 16.9 C
3414 17-08-2019 20:25:00 18.3 C 91 % 16.81 C
3415 17-08-2019 20:30:00 18.3 C 91 % 16.81 C
3416 17-08-2019 20:35:00 18.2 C 91 % 16.71 C
3417 17-08-2019 20:40:00 18.1 C 91 % 16.61 C
3418 17-08-2019 20:45:00 18.1 C 92 % 16.78 C
3419 17-08-2019 20:50:00 18.1 C 92 % 16.78 C
3420 17-08-2019 20:55:00 18.1 C 92 % 16.78 C
3421 17-08-2019 21:00:00 18 C 92 % 16.68 C
3422 17-08-2019 21:05:00 17.9 C 92 % 16.58 C
3423 17-08-2019 21:10:00 17.9 C 92 % 16.58 C
3424 17-08-2019 21:15:00 17.9 C 92 % 16.58 C
3425 17-08-2019 21:20:00 17.8 C 93 % 16.65 C
Sensor: Nr:Datum:Temp:Feuchte:Taupunkt:
Aussen-T/F 3426 17-08-2019 21:25:00 17.8 C 93 % 16.65 C
3427 17-08-2019 21:30:00 17.8 C 93 % 16.65 C
3428 17-08-2019 21:35:00 17.8 C 93 % 16.65 C
3429 17-08-2019 21:40:00 17.8 C 93 % 16.65 C
3430 17-08-2019 21:45:00 17.8 C 93 % 16.65 C
3431 17-08-2019 21:50:00 17.8 C 93 % 16.65 C
3432 17-08-2019 21:55:00 17.8 C 93 % 16.65 C
3433 17-08-2019 22:00:00 17.8 C 94 % 16.82 C
3434 17-08-2019 22:05:00 17.8 C 94 % 16.82 C
3435 17-08-2019 22:10:00 17.8 C 94 % 16.82 C
3436 17-08-2019 22:15:00 17.8 C 94 % 16.82 C
3437 17-08-2019 22:20:00 17.8 C 94 % 16.82 C
3438 17-08-2019 22:25:00 17.8 C 94 % 16.82 C
3439 17-08-2019 22:30:00 17.7 C 94 % 16.72 C
3440 17-08-2019 22:35:00 17.7 C 94 % 16.72 C
3441 17-08-2019 22:40:00 17.7 C 94 % 16.72 C
3442 17-08-2019 22:45:00 17.7 C 94 % 16.72 C
3443 17-08-2019 22:50:00 17.7 C 94 % 16.72 C
3444 17-08-2019 22:55:00 17.6 C 94 % 16.62 C
3445 17-08-2019 23:00:00 17.6 C 94 % 16.62 C
3446 17-08-2019 23:05:00 17.6 C 94 % 16.62 C
3447 17-08-2019 23:10:00 17.6 C 94 % 16.62 C
3448 17-08-2019 23:15:00 17.6 C 94 % 16.62 C
3449 17-08-2019 23:20:00 17.5 C 95 % 16.69 C
3450 17-08-2019 23:25:00 17.5 C 95 % 16.69 C
Sensor: Nr:Datum:Temp:Feuchte:Taupunkt:
Aussen-T/F 3451 17-08-2019 23:30:00 17.5 C 95 % 16.69 C
3452 17-08-2019 23:35:00 17.5 C 95 % 16.69 C
3453 17-08-2019 23:40:00 17.5 C 95 % 16.69 C
3454 17-08-2019 23:45:00 17.5 C 95 % 16.69 C
3455 17-08-2019 23:50:00 17.5 C 95 % 16.69 C
3456 17-08-2019 23:55:00 17.4 C 95 % 16.59 C
3457 18-08-2019 00:00:00 17.4 C 95 % 16.59 C
3458 18-08-2019 00:05:00 17.4 C 95 % 16.59 C
3459 18-08-2019 00:10:00 17.4 C 95 % 16.59 C
3460 18-08-2019 00:15:00 17.4 C 95 % 16.59 C
3461 18-08-2019 00:20:00 17.4 C 95 % 16.59 C
3462 18-08-2019 00:25:00 17.4 C 95 % 16.59 C
3463 18-08-2019 00:30:00 17.4 C 95 % 16.59 C
3464 18-08-2019 00:35:00 17.4 C 95 % 16.59 C
3465 18-08-2019 00:40:00 17.4 C 95 % 16.59 C
3466 18-08-2019 00:45:00 17.4 C 95 % 16.59 C
3467 18-08-2019 00:50:00 17.4 C 95 % 16.59 C
3468 18-08-2019 00:55:00 17.4 C 95 % 16.59 C
3469 18-08-2019 01:00:00 17.4 C 95 % 16.59 C
3470 18-08-2019 01:05:00 17.4 C 95 % 16.59 C
3471 18-08-2019 01:10:00 17.4 C 95 % 16.59 C
3472 18-08-2019 01:15:00 17.4 C 95 % 16.59 C
3473 18-08-2019 01:20:00 17.4 C 95 % 16.59 C
3474 18-08-2019 01:25:00 17.4 C 96 % 16.76 C
3475 18-08-2019 01:30:00 17.4 C 96 % 16.76 C
Sensor: Nr:Datum:Temp:Feuchte:Taupunkt:
Aussen-T/F 3476 18-08-2019 01:35:00 17.4 C 96 % 16.76 C
3477 18-08-2019 01:40:00 17.4 C 96 % 16.76 C
3478 18-08-2019 01:45:00 17.4 C 96 % 16.76 C
3479 18-08-2019 01:50:00 17.3 C 96 % 16.66 C
3480 18-08-2019 01:55:00 17.3 C 96 % 16.66 C
3481 18-08-2019 02:00:00 17.3 C 96 % 16.66 C
3482 18-08-2019 02:05:00 17.3 C 96 % 16.66 C
3483 18-08-2019 02:10:00 17.3 C 96 % 16.66 C
3484 18-08-2019 02:15:00 17.2 C 96 % 16.56 C
3485 18-08-2019 02:20:00 17.2 C 96 % 16.56 C
3486 18-08-2019 02:25:00 17.2 C 96 % 16.56 C
3487 18-08-2019 02:30:00 17.2 C 96 % 16.56 C
3488 18-08-2019 02:35:00 17.2 C 96 % 16.56 C
3489 18-08-2019 02:40:00 17.2 C 96 % 16.56 C
3490 18-08-2019 02:45:00 17.2 C 96 % 16.56 C
3491 18-08-2019 02:50:00 17.2 C 96 % 16.56 C
3492 18-08-2019 02:55:00 17.2 C 96 % 16.56 C
3493 18-08-2019 03:00:00 17.2 C 96 % 16.56 C
3494 18-08-2019 03:05:00 17.2 C 96 % 16.56 C
3495 18-08-2019 03:10:00 17.2 C 96 % 16.56 C
3496 18-08-2019 03:15:00 17.2 C 96 % 16.56 C
3497 18-08-2019 03:20:00 17.2 C 96 % 16.56 C
3498 18-08-2019 03:25:00 17.2 C 96 % 16.56 C
3499 18-08-2019 03:30:00 17.2 C 96 % 16.56 C
3500 18-08-2019 03:35:00 17.2 C 96 % 16.56 C
Sensor: Nr:Datum:Temp:Feuchte:Taupunkt:
Aussen-T/F 3501 18-08-2019 03:40:00 17.2 C 96 % 16.56 C
3502 18-08-2019 03:45:00 17.2 C 96 % 16.56 C
3503 18-08-2019 03:50:00 17.2 C 96 % 16.56 C
3504 18-08-2019 03:55:00 17.2 C 96 % 16.56 C
3505 18-08-2019 04:00:00 17.2 C 96 % 16.56 C
3506 18-08-2019 04:05:00 17.2 C 96 % 16.56 C
3507 18-08-2019 04:10:00 17.2 C 96 % 16.56 C
3508 18-08-2019 04:15:00 17.2 C 96 % 16.56 C
3509 18-08-2019 04:20:00 17.1 C 96 % 16.46 C
3510 18-08-2019 04:25:00 17.1 C 96 % 16.46 C
3511 18-08-2019 04:30:00 17.1 C 96 % 16.46 C
3512 18-08-2019 04:35:00 17.2 C 96 % 16.56 C
3513 18-08-2019 04:40:00 17.2 C 96 % 16.56 C
3514 18-08-2019 04:45:00 17.2 C 96 % 16.56 C
3515 18-08-2019 04:50:00 17.2 C 96 % 16.56 C
3516 18-08-2019 04:55:00 17.3 C 96 % 16.66 C
3517 18-08-2019 05:00:00 17.3 C 96 % 16.66 C
3518 18-08-2019 05:05:00 17.3 C 96 % 16.66 C
3519 18-08-2019 05:10:00 17.3 C 97 % 16.82 C
3520 18-08-2019 05:15:00 17.3 C 97 % 16.82 C
3521 18-08-2019 05:20:00 17.3 C 97 % 16.82 C
3522 18-08-2019 05:25:00 17.3 C 97 % 16.82 C
3523 18-08-2019 05:30:00 17.3 C 97 % 16.82 C
3524 18-08-2019 05:35:00 17.3 C 97 % 16.82 C
3525 18-08-2019 05:40:00 17.3 C 96 % 16.66 C
Sensor: Nr:Datum:Temp:Feuchte:Taupunkt:
Aussen-T/F 3526 18-08-2019 05:45:00 17.3 C 97 % 16.82 C
3527 18-08-2019 05:50:00 17.3 C 97 % 16.82 C
3528 18-08-2019 05:55:00 17.3 C 97 % 16.82 C
3529 18-08-2019 06:00:00 17.3 C 97 % 16.82 C
3530 18-08-2019 06:05:00 17.3 C 97 % 16.82 C
3531 18-08-2019 06:10:00 17.3 C 97 % 16.82 C
3532 18-08-2019 06:15:00 17.3 C 97 % 16.82 C
3533 18-08-2019 06:20:00 17.3 C 97 % 16.82 C
3534 18-08-2019 06:25:00 17.3 C 97 % 16.82 C
3535 18-08-2019 06:30:00 17.3 C 97 % 16.82 C
3536 18-08-2019 06:35:00 17.3 C 97 % 16.82 C
3537 18-08-2019 06:40:00 17.2 C 97 % 16.72 C
3538 18-08-2019 06:45:00 17.2 C 97 % 16.72 C
3539 18-08-2019 06:50:00 17.2 C 97 % 16.72 C
3540 18-08-2019 06:55:00 17.2 C 97 % 16.72 C
3541 18-08-2019 07:00:00 17.2 C 97 % 16.72 C
3542 18-08-2019 07:05:00 17.2 C 97 % 16.72 C
3543 18-08-2019 07:10:00 17.2 C 97 % 16.72 C
3544 18-08-2019 07:15:00 17.3 C 97 % 16.82 C
3545 18-08-2019 07:20:00 17.3 C 97 % 16.82 C
3546 18-08-2019 07:25:00 17.3 C 97 % 16.82 C
3547 18-08-2019 07:30:00 17.4 C 97 % 16.92 C
3548 18-08-2019 07:35:00 17.4 C 97 % 16.92 C
3549 18-08-2019 07:40:00 17.4 C 97 % 16.92 C
3550 18-08-2019 07:45:00 17.4 C 97 % 16.92 C
Sensor: Nr:Datum:Temp:Feuchte:Taupunkt:
Aussen-T/F 3551 18-08-2019 07:50:00 17.5 C 97 % 17.02 C
3552 18-08-2019 07:55:00 17.5 C 97 % 17.02 C
3553 18-08-2019 08:00:00 17.6 C 97 % 17.12 C
3554 18-08-2019 08:05:00 17.6 C 97 % 17.12 C
3555 18-08-2019 08:10:00 17.7 C 97 % 17.22 C
3556 18-08-2019 08:15:00 17.8 C 97 % 17.32 C
3557 18-08-2019 08:20:00 17.9 C 97 % 17.42 C
3558 18-08-2019 08:25:00 17.9 C 97 % 17.42 C
3559 18-08-2019 08:30:00 18 C 97 % 17.52 C
3560 18-08-2019 08:35:00 18.1 C 97 % 17.62 C
3561 18-08-2019 08:40:00 18.1 C 97 % 17.62 C
3562 18-08-2019 08:45:00 18.1 C 97 % 17.62 C
3563 18-08-2019 08:50:00 18.2 C 97 % 17.72 C
3564 18-08-2019 08:55:00 18.2 C 97 % 17.72 C
3565 18-08-2019 09:00:00 18.3 C 97 % 17.82 C
3566 18-08-2019 09:05:00 18.4 C 97 % 17.91 C
3567 18-08-2019 09:10:00 18.6 C 97 % 18.11 C
3568 18-08-2019 09:15:00 18.7 C 97 % 18.21 C
3569 18-08-2019 09:20:00 18.7 C 97 % 18.21 C
3570 18-08-2019 09:25:00 18.8 C 98 % 18.48 C
3571 18-08-2019 09:30:00 18.9 C 98 % 18.58 C
3572 18-08-2019 09:35:00 19.1 C 97 % 18.61 C
3573 18-08-2019 09:40:00 19.2 C 97 % 18.71 C
3574 18-08-2019 09:45:00 19.2 C 98 % 18.88 C
3575 18-08-2019 09:50:00 19.2 C 97 % 18.71 C
Sensor: Nr:Datum:Temp:Feuchte:Taupunkt:
Aussen-T/F 3576 18-08-2019 09:55:00 19.2 C 97 % 18.71 C
3577 18-08-2019 10:00:00 19.3 C 97 % 18.81 C
3578 18-08-2019 10:05:00 19.4 C 97 % 18.91 C
3579 18-08-2019 10:10:00 19.6 C 98 % 19.28 C
3580 18-08-2019 10:15:00 19.6 C 97 % 19.11 C
3581 18-08-2019 10:20:00 19.6 C 97 % 19.11 C
3582 18-08-2019 10:25:00 19.7 C 97 % 19.21 C
3583 18-08-2019 10:30:00 19.9 C 97 % 19.41 C
3584 18-08-2019 10:35:00 20.1 C 98 % 19.77 C
3585 18-08-2019 10:40:00 20.3 C 98 % 19.97 C
3586 18-08-2019 10:45:00 20.4 C 98 % 20.07 C
3587 18-08-2019 10:50:00 20.6 C 98 % 20.27 C
3588 18-08-2019 10:55:00 20.7 C 97 % 20.21 C
3589 18-08-2019 11:00:00 21.1 C 97 % 20.6 C
3590 18-08-2019 11:05:00 21.6 C 98 % 21.27 C
3591 18-08-2019 11:10:00 21.7 C 98 % 21.37 C
3592 18-08-2019 11:15:00 21.4 C 96 % 20.74 C
3593 18-08-2019 11:20:00 21.5 C 94 % 20.49 C
3594 18-08-2019 11:25:00 21.8 C 95 % 20.96 C
3595 18-08-2019 11:30:00 22 C 93 % 20.81 C
3596 18-08-2019 11:35:00 22.3 C 92 % 20.94 C
3597 18-08-2019 11:40:00 22.7 C 90 % 20.97 C
3598 18-08-2019 11:45:00 23.1 C 87 % 20.82 C
3599 18-08-2019 11:50:00 23.4 C 84 % 20.54 C
3600 18-08-2019 11:55:00 23.7 C 81 % 20.24 C
Sensor: Nr:Datum:Temp:Feuchte:Taupunkt:
Aussen-T/F 3601 18-08-2019 12:00:00 23.8 C 81 % 20.34 C
3602 18-08-2019 12:05:00 23.8 C 80 % 20.14 C
3603 18-08-2019 12:10:00 23.9 C 79 % 20.03 C
3604 18-08-2019 12:15:00 24.1 C 79 % 20.23 C
3605 18-08-2019 12:20:00 24.2 C 77 % 19.91 C
3606 18-08-2019 12:25:00 24.2 C 78 % 20.12 C
3607 18-08-2019 12:30:00 24.2 C 76 % 19.7 C
3608 18-08-2019 12:35:00 24.1 C 76 % 19.6 C
3609 18-08-2019 12:40:00 24.1 C 77 % 19.81 C
3610 18-08-2019 12:45:00 24.2 C 78 % 20.12 C
3611 18-08-2019 12:50:00 24.1 C 75 % 19.39 C
3612 18-08-2019 12:55:00 24.2 C 77 % 19.91 C
3613 18-08-2019 13:00:00 24.2 C 76 % 19.7 C
3614 18-08-2019 13:05:00 24.2 C 77 % 19.91 C
3615 18-08-2019 13:10:00 24.2 C 75 % 19.49 C
3616 18-08-2019 13:15:00 24.1 C 76 % 19.6 C
3617 18-08-2019 13:20:00 24.2 C 78 % 20.12 C
3618 18-08-2019 13:25:00 24.2 C 77 % 19.91 C
3619 18-08-2019 13:30:00 24.3 C 76 % 19.8 C
3620 18-08-2019 13:35:00 24.4 C 76 % 19.89 C
3621 18-08-2019 13:40:00 24.6 C 75 % 19.87 C
3622 18-08-2019 13:45:00 24.7 C 74 % 19.75 C
3623 18-08-2019 13:50:00 24.8 C 76 % 20.28 C
3624 18-08-2019 13:55:00 24.9 C 74 % 19.94 C
3625 18-08-2019 14:00:00 25 C 75 % 20.26 C
Sensor: Nr:Datum:Temp:Feuchte:Taupunkt:
Aussen-T/F 3626 18-08-2019 14:05:00 24.9 C 75 % 20.16 C
3627 18-08-2019 14:10:00 24.9 C 75 % 20.16 C
3628 18-08-2019 14:15:00 24.8 C 75 % 20.06 C
3629 18-08-2019 14:20:00 24.7 C 74 % 19.75 C
3630 18-08-2019 14:25:00 24.6 C 75 % 19.87 C
3631 18-08-2019 14:30:00 24.6 C 75 % 19.87 C
3632 18-08-2019 14:35:00 24.7 C 76 % 20.18 C
3633 18-08-2019 14:40:00 24.8 C 75 % 20.06 C
3634 18-08-2019 14:45:00 24.7 C 74 % 19.75 C
3635 18-08-2019 14:50:00 24.6 C 74 % 19.66 C
3636 18-08-2019 14:55:00 24.4 C 75 % 19.68 C
3637 18-08-2019 15:00:00 24.4 C 75 % 19.68 C
3638 18-08-2019 15:05:00 24.3 C 75 % 19.58 C
3639 18-08-2019 15:10:00 24.3 C 77 % 20.01 C
3640 18-08-2019 15:15:00 24.3 C 79 % 20.42 C
3641 18-08-2019 15:20:00 24.6 C 77 % 20.3 C
3642 18-08-2019 15:25:00 24.9 C 77 % 20.59 C
3643 18-08-2019 15:30:00 25.1 C 77 % 20.78 C
3644 18-08-2019 15:35:00 25.1 C 75 % 20.35 C
3645 18-08-2019 15:40:00 24.9 C 74 % 19.94 C
3646 18-08-2019 15:45:00 24.8 C 75 % 20.06 C
3647 18-08-2019 15:50:00 24.9 C 75 % 20.16 C
3648 18-08-2019 15:55:00 24.8 C 74 % 19.85 C
3649 18-08-2019 16:00:00 24.8 C 74 % 19.85 C
3650 18-08-2019 16:05:00 24.9 C 74 % 19.94 C
Sensor: Nr:Datum:Temp:Feuchte:Taupunkt:
Aussen-T/F 3651 18-08-2019 16:10:00 25.2 C 74 % 20.23 C
3652 18-08-2019 16:15:00 25.2 C 72 % 19.79 C
3653 18-08-2019 16:20:00 25.1 C 73 % 19.92 C
3654 18-08-2019 16:25:00 25.1 C 73 % 19.92 C
3655 18-08-2019 16:30:00 25.2 C 75 % 20.45 C
3656 18-08-2019 16:35:00 25.2 C 71 % 19.56 C
3657 18-08-2019 16:40:00 25 C 71 % 19.37 C
3658 18-08-2019 16:45:00 24.9 C 73 % 19.72 C
3659 18-08-2019 16:50:00 24.7 C 71 % 19.09 C
3660 18-08-2019 16:55:00 24.6 C 72 % 19.21 C
3661 18-08-2019 17:00:00 24.5 C 73 % 19.34 C
3662 18-08-2019 17:05:00 24.7 C 73 % 19.53 C
3663 18-08-2019 17:10:00 25.1 C 73 % 19.92 C
3664 18-08-2019 17:15:00 25.3 C 71 % 19.66 C
3665 18-08-2019 17:20:00 25.3 C 71 % 19.66 C
3666 18-08-2019 17:25:00 25.2 C 70 % 19.34 C
3667 18-08-2019 17:30:00 25 C 68 % 18.68 C
3668 18-08-2019 17:35:00 24.6 C 71 % 18.99 C
3669 18-08-2019 17:40:00 24.1 C 71 % 18.51 C
3670 18-08-2019 17:45:00 23.6 C 72 % 18.26 C
3671 18-08-2019 17:50:00 22.9 C 77 % 18.65 C
3672 18-08-2019 17:55:00 21.9 C 83 % 18.88 C
3673 18-08-2019 18:00:00 21.2 C 86 % 18.76 C
3674 18-08-2019 18:05:00 20.8 C 88 % 18.74 C
3675 18-08-2019 18:10:00 20.6 C 90 % 18.9 C
Sensor: Nr:Datum:Temp:Feuchte:Taupunkt:
Aussen-T/F 3676 18-08-2019 18:15:00 20.4 C 91 % 18.88 C
3677 18-08-2019 18:20:00 20.3 C 92 % 18.96 C
3678 18-08-2019 18:25:00 20.3 C 92 % 18.96 C
3679 18-08-2019 18:30:00 20.3 C 93 % 19.13 C
3680 18-08-2019 18:35:00 20.3 C 93 % 19.13 C
3681 18-08-2019 18:40:00 20.4 C 93 % 19.23 C
3682 18-08-2019 18:45:00 20.4 C 94 % 19.4 C
3683 18-08-2019 18:50:00 20.5 C 94 % 19.5 C
3684 18-08-2019 18:55:00 20.4 C 94 % 19.4 C
3685 18-08-2019 19:00:00 20.4 C 94 % 19.4 C
3686 18-08-2019 19:05:00 20.3 C 93 % 19.13 C
3687 18-08-2019 19:10:00 20.2 C 93 % 19.03 C
3688 18-08-2019 19:15:00 20.2 C 94 % 19.2 C
3689 18-08-2019 19:20:00 20.1 C 94 % 19.1 C
3690 18-08-2019 19:25:00 20 C 94 % 19 C
3691 18-08-2019 19:30:00 20 C 94 % 19 C
3692 18-08-2019 19:35:00 19.9 C 94 % 18.91 C
3693 18-08-2019 19:40:00 19.8 C 94 % 18.81 C
3694 18-08-2019 19:45:00 19.8 C 94 % 18.81 C
3695 18-08-2019 19:50:00 19.7 C 94 % 18.71 C
3696 18-08-2019 19:55:00 19.7 C 94 % 18.71 C
3697 18-08-2019 20:00:00 19.6 C 94 % 18.61 C
3698 18-08-2019 20:05:00 19.6 C 95 % 18.78 C
3699 18-08-2019 20:10:00 19.6 C 95 % 18.78 C
3700 18-08-2019 20:15:00 19.6 C 95 % 18.78 C
Sensor: Nr:Datum:Temp:Feuchte:Taupunkt:
Aussen-T/F 3701 18-08-2019 20:20:00 19.5 C 94 % 18.51 C
3702 18-08-2019 20:25:00 19.4 C 94 % 18.41 C
3703 18-08-2019 20:30:00 19.3 C 94 % 18.31 C
3704 18-08-2019 20:35:00 19.4 C 95 % 18.58 C
3705 18-08-2019 20:40:00 19.4 C 95 % 18.58 C
3706 18-08-2019 20:45:00 19.4 C 95 % 18.58 C
3707 18-08-2019 20:50:00 19.4 C 95 % 18.58 C
3708 18-08-2019 20:55:00 19.3 C 95 % 18.48 C
3709 18-08-2019 21:00:00 19.3 C 95 % 18.48 C
3710 18-08-2019 21:05:00 19.3 C 95 % 18.48 C
3711 18-08-2019 21:10:00 19.2 C 95 % 18.38 C
3712 18-08-2019 21:15:00 19.1 C 94 % 18.11 C
3713 18-08-2019 21:20:00 18.8 C 94 % 17.81 C
3714 18-08-2019 21:25:00 18.8 C 94 % 17.81 C
3715 18-08-2019 21:30:00 18.7 C 94 % 17.71 C
3716 18-08-2019 21:35:00 18.7 C 94 % 17.71 C
3717 18-08-2019 21:40:00 18.6 C 94 % 17.62 C
3718 18-08-2019 21:45:00 18.4 C 94 % 17.42 C
3719 18-08-2019 21:50:00 18.4 C 94 % 17.42 C
3720 18-08-2019 21:55:00 18.3 C 95 % 17.48 C
3721 18-08-2019 22:00:00 18.2 C 95 % 17.39 C
3722 18-08-2019 22:05:00 18.2 C 95 % 17.39 C
3723 18-08-2019 22:10:00 18.1 C 95 % 17.29 C
3724 18-08-2019 22:15:00 18 C 95 % 17.19 C
3725 18-08-2019 22:20:00 17.9 C 95 % 17.09 C
Sensor: Nr:Datum:Temp:Feuchte:Taupunkt:
Aussen-T/F 3726 18-08-2019 22:25:00 17.8 C 95 % 16.99 C
3727 18-08-2019 22:30:00 17.6 C 94 % 16.62 C
3728 18-08-2019 22:35:00 17.5 C 94 % 16.52 C
3729 18-08-2019 22:40:00 17.3 C 94 % 16.33 C
3730 18-08-2019 22:45:00 17.2 C 94 % 16.23 C
3731 18-08-2019 22:50:00 17.1 C 94 % 16.13 C
3732 18-08-2019 22:55:00 16.9 C 94 % 15.93 C
3733 18-08-2019 23:00:00 16.8 C 95 % 15.99 C
3734 18-08-2019 23:05:00 16.8 C 95 % 15.99 C
3735 18-08-2019 23:10:00 16.7 C 95 % 15.9 C
3736 18-08-2019 23:15:00 16.7 C 95 % 15.9 C
3737 18-08-2019 23:20:00 16.7 C 95 % 15.9 C
3738 18-08-2019 23:25:00 16.7 C 95 % 15.9 C
3739 18-08-2019 23:30:00 16.6 C 95 % 15.8 C
3740 18-08-2019 23:35:00 16.6 C 95 % 15.8 C
3741 18-08-2019 23:40:00 16.5 C 95 % 15.7 C
3742 18-08-2019 23:45:00 16.4 C 95 % 15.6 C
3743 18-08-2019 23:50:00 16.3 C 95 % 15.5 C
3744 18-08-2019 23:55:00 16.3 C 95 % 15.5 C
3745 19-08-2019 00:00:00 16.2 C 96 % 15.56 C
3746 19-08-2019 00:05:00 16.2 C 96 % 15.56 C
3747 19-08-2019 00:10:00 16.2 C 96 % 15.56 C
3748 19-08-2019 00:15:00 16.2 C 96 % 15.56 C
3749 19-08-2019 00:20:00 16.2 C 96 % 15.56 C
3750 19-08-2019 00:25:00 16.1 C 96 % 15.46 C
Sensor: Nr:Datum:Temp:Feuchte:Taupunkt:
Aussen-T/F 3751 19-08-2019 00:30:00 16.1 C 96 % 15.46 C
3752 19-08-2019 00:35:00 16.1 C 96 % 15.46 C
3753 19-08-2019 00:40:00 16.1 C 96 % 15.46 C
3754 19-08-2019 00:45:00 16.1 C 96 % 15.46 C
3755 19-08-2019 00:50:00 16.1 C 96 % 15.46 C
3756 19-08-2019 00:55:00 16.1 C 96 % 15.46 C
3757 19-08-2019 01:00:00 16.2 C 96 % 15.56 C
3758 19-08-2019 01:05:00 16.2 C 96 % 15.56 C
3759 19-08-2019 01:10:00 16.1 C 96 % 15.46 C
3760 19-08-2019 01:15:00 16.1 C 96 % 15.46 C
3761 19-08-2019 01:20:00 16.1 C 96 % 15.46 C
3762 19-08-2019 01:25:00 16.1 C 96 % 15.46 C
3763 19-08-2019 01:30:00 16.1 C 96 % 15.46 C
3764 19-08-2019 01:35:00 16.1 C 96 % 15.46 C
3765 19-08-2019 01:40:00 16.1 C 96 % 15.46 C
3766 19-08-2019 01:45:00 16.1 C 96 % 15.46 C
3767 19-08-2019 01:50:00 16.1 C 96 % 15.46 C
3768 19-08-2019 01:55:00 16 C 96 % 15.36 C
3769 19-08-2019 02:00:00 16 C 96 % 15.36 C
3770 19-08-2019 02:05:00 16 C 96 % 15.36 C
3771 19-08-2019 02:10:00 16 C 96 % 15.36 C
3772 19-08-2019 02:15:00 15.9 C 96 % 15.26 C
3773 19-08-2019 02:20:00 15.9 C 96 % 15.26 C
3774 19-08-2019 02:25:00 15.8 C 96 % 15.16 C
3775 19-08-2019 02:30:00 15.8 C 96 % 15.16 C
Sensor: Nr:Datum:Temp:Feuchte:Taupunkt:
Aussen-T/F 3776 19-08-2019 02:35:00 15.7 C 96 % 15.06 C
3777 19-08-2019 02:40:00 15.7 C 96 % 15.06 C
3778 19-08-2019 02:45:00 15.7 C 96 % 15.06 C
3779 19-08-2019 02:50:00 15.7 C 96 % 15.06 C
3780 19-08-2019 02:55:00 15.6 C 96 % 14.96 C
3781 19-08-2019 03:00:00 15.7 C 96 % 15.06 C
3782 19-08-2019 03:05:00 15.6 C 97 % 15.13 C
3783 19-08-2019 03:10:00 15.6 C 96 % 14.96 C
3784 19-08-2019 03:15:00 15.6 C 96 % 14.96 C
3785 19-08-2019 03:20:00 15.5 C 96 % 14.86 C
3786 19-08-2019 03:25:00 15.4 C 96 % 14.77 C
3787 19-08-2019 03:30:00 15.3 C 96 % 14.67 C
3788 19-08-2019 03:35:00 15.3 C 96 % 14.67 C
3789 19-08-2019 03:40:00 15.2 C 96 % 14.57 C
3790 19-08-2019 03:45:00 15.2 C 96 % 14.57 C
3791 19-08-2019 03:50:00 15.1 C 96 % 14.47 C
3792 19-08-2019 03:55:00 15.1 C 96 % 14.47 C
3793 19-08-2019 04:00:00 14.9 C 96 % 14.27 C
3794 19-08-2019 04:05:00 14.9 C 96 % 14.27 C
3795 19-08-2019 04:10:00 14.8 C 96 % 14.17 C
3796 19-08-2019 04:15:00 14.8 C 96 % 14.17 C
3797 19-08-2019 04:20:00 14.8 C 96 % 14.17 C
3798 19-08-2019 04:25:00 14.8 C 96 % 14.17 C
3799 19-08-2019 04:30:00 14.7 C 96 % 14.07 C
3800 19-08-2019 04:35:00 14.7 C 96 % 14.07 C
Sensor: Nr:Datum:Temp:Feuchte:Taupunkt:
Aussen-T/F 3801 19-08-2019 04:40:00 14.7 C 96 % 14.07 C
3802 19-08-2019 04:45:00 14.7 C 96 % 14.07 C
3803 19-08-2019 04:50:00 14.8 C 97 % 14.33 C
3804 19-08-2019 04:55:00 14.8 C 97 % 14.33 C
3805 19-08-2019 05:00:00 14.9 C 97 % 14.43 C
3806 19-08-2019 05:05:00 15 C 97 % 14.53 C
3807 19-08-2019 05:10:00 15.1 C 97 % 14.63 C
3808 19-08-2019 05:15:00 15.1 C 97 % 14.63 C
3809 19-08-2019 05:20:00 15.2 C 97 % 14.73 C
3810 19-08-2019 05:25:00 15.2 C 97 % 14.73 C
3811 19-08-2019 05:30:00 15.2 C 97 % 14.73 C
3812 19-08-2019 05:35:00 15.2 C 97 % 14.73 C
3813 19-08-2019 05:40:00 15.2 C 97 % 14.73 C
3814 19-08-2019 05:45:00 15.2 C 97 % 14.73 C
3815 19-08-2019 05:50:00 15.1 C 97 % 14.63 C
3816 19-08-2019 05:55:00 15.1 C 97 % 14.63 C
3817 19-08-2019 06:00:00 14.9 C 97 % 14.43 C
3818 19-08-2019 06:05:00 14.9 C 97 % 14.43 C
3819 19-08-2019 06:10:00 14.8 C 96 % 14.17 C
3820 19-08-2019 06:15:00 14.7 C 96 % 14.07 C
3821 19-08-2019 06:20:00 14.6 C 97 % 14.13 C
3822 19-08-2019 06:25:00 14.6 C 97 % 14.13 C
3823 19-08-2019 06:30:00 14.6 C 97 % 14.13 C
3824 19-08-2019 06:35:00 14.5 C 97 % 14.03 C
3825 19-08-2019 06:40:00 14.4 C 97 % 13.93 C
Sensor: Nr:Datum:Temp:Feuchte:Taupunkt:
Aussen-T/F 3826 19-08-2019 06:45:00 14.4 C 97 % 13.93 C
3827 19-08-2019 06:50:00 14.5 C 97 % 14.03 C
3828 19-08-2019 06:55:00 14.5 C 97 % 14.03 C
3829 19-08-2019 07:00:00 14.5 C 97 % 14.03 C
3830 19-08-2019 07:05:00 14.6 C 97 % 14.13 C
3831 19-08-2019 07:10:00 14.6 C 97 % 14.13 C
3832 19-08-2019 07:15:00 14.6 C 97 % 14.13 C
3833 19-08-2019 07:20:00 14.7 C 97 % 14.23 C
3834 19-08-2019 07:25:00 14.8 C 97 % 14.33 C
3835 19-08-2019 07:30:00 15 C 97 % 14.53 C
3836 19-08-2019 07:35:00 15.2 C 97 % 14.73 C
3837 19-08-2019 07:40:00 15.3 C 98 % 14.99 C
3838 19-08-2019 07:45:00 15.6 C 97 % 15.13 C
3839 19-08-2019 07:50:00 15.7 C 97 % 15.23 C
3840 19-08-2019 07:55:00 15.7 C 98 % 15.38 C
3841 19-08-2019 08:00:00 15.7 C 97 % 15.23 C
3842 19-08-2019 08:05:00 15.6 C 97 % 15.13 C
3843 19-08-2019 08:10:00 15.6 C 97 % 15.13 C
3844 19-08-2019 08:15:00 15.6 C 97 % 15.13 C
3845 19-08-2019 08:20:00 15.6 C 97 % 15.13 C
3846 19-08-2019 08:25:00 15.6 C 97 % 15.13 C
3847 19-08-2019 08:30:00 15.7 C 97 % 15.23 C
3848 19-08-2019 08:35:00 15.7 C 97 % 15.23 C
3849 19-08-2019 08:40:00 15.7 C 97 % 15.23 C
3850 19-08-2019 08:45:00 15.7 C 97 % 15.23 C
Sensor: Nr:Datum:Temp:Feuchte:Taupunkt:
Aussen-T/F 3851 19-08-2019 08:50:00 15.7 C 97 % 15.23 C
3852 19-08-2019 08:55:00 15.7 C 97 % 15.23 C
3853 19-08-2019 09:00:00 15.8 C 97 % 15.32 C
3854 19-08-2019 09:05:00 15.8 C 97 % 15.32 C
3855 19-08-2019 09:10:00 15.8 C 97 % 15.32 C
3856 19-08-2019 09:15:00 15.9 C 97 % 15.42 C
3857 19-08-2019 09:20:00 16 C 97 % 15.52 C
3858 19-08-2019 09:25:00 15.9 C 97 % 15.42 C
3859 19-08-2019 09:30:00 15.9 C 97 % 15.42 C
3860 19-08-2019 09:35:00 15.9 C 97 % 15.42 C
3861 19-08-2019 09:40:00 15.9 C 96 % 15.26 C
3862 19-08-2019 09:45:00 15.9 C 96 % 15.26 C
3863 19-08-2019 09:50:00 15.9 C 96 % 15.26 C
3864 19-08-2019 09:55:00 16 C 95 % 15.2 C
3865 19-08-2019 10:00:00 16.1 C 95 % 15.3 C
3866 19-08-2019 10:05:00 15.9 C 94 % 14.94 C
3867 19-08-2019 10:10:00 15.9 C 94 % 14.94 C
3868 19-08-2019 10:15:00 16.1 C 90 % 14.46 C
3869 19-08-2019 10:20:00 16.3 C <